ftp/pub/palmer/observations_modified/2019/October/original_files/AR191020_BASE.txt
Download
Sample DateTime Unit Id WS Avg 2min WD Avg 2min WGS 10min WGD 10min Air Temp Rel Humidity Dew Point Pyranometer Quantum Air Pressure Snow Level Rainfall PW Current Visibility CBase 1 CBase 2 CBase 3 Vert Vis
2019/10/20 00:00:01 BASE 2.24 17 5.40 6 1.5 83 -1.0 0 0 953.4 NA 0.0000 9999 5220 0 0 0
2019/10/20 00:01:01 BASE 1.56 29 5.40 6 1.6 84 -0.9 0 0 953.3 NA 0.0000 9999 5180 0 0 0
2019/10/20 00:02:01 BASE 3.06 38 6.79 42 1.7 83 -0.9 0 0 953.3 NA 0.0000 9999 4630 0 0 0
2019/10/20 00:03:01 BASE 5.07 25 7.36 249 1.8 83 -0.8 0 0 953.4 NA 0.0000 9999 4590 0 0 0
2019/10/20 00:04:01 BASE 6.78 19 11.06 28 1.8 83 -0.8 0 0 953.4 NA 0.0000 9999 4630 0 0 0
2019/10/20 00:05:01 BASE 7.71 30 11.06 28 1.9 82 -0.8 0 0 953.4 NA 0.0000 9999 4560 0 0 0
2019/10/20 00:06:01 BASE 10.82 31 18.42 36 1.9 83 -0.7 0 0 953.2 NA 0.0000 9999 0 0 0 2720
2019/10/20 00:07:01 BASE 15.23 25 19.70 15 1.9 84 -0.6 0 0 953.2 NA 0.0000 9999 0 0 0 2330
2019/10/20 00:08:01 BASE 17.74 20 21.76 16 1.9 85 -0.5 0 0 952.9 NA 0.0000 9999 0 0 0 1970
2019/10/20 00:09:01 BASE 20.03 23 25.67 32 1.9 86 -0.3 0 0 952.9 NA 0.0000 UP 8000 300 0 0 0
2019/10/20 00:10:01 BASE 23.27 24 28.76 28 1.8 87 -0.2 0 0 952.6 NA 0.0000 UP 4400 230 0 0 0
2019/10/20 00:11:01 BASE 25.79 22 30.56 19 1.8 87 -0.0 0 0 952.6 NA 0.0000 -SN BR 3600 230 0 0 0
2019/10/20 00:12:01 BASE 27.27 23 32.87 16 1.8 88 0.0 0 0 952.4 NA 0.0000 -SN BR 3300 200 0 0 0
2019/10/20 00:13:01 BASE 28.62 22 32.87 16 1.7 89 0.1 0 0 952.4 NA 0.0000 -SN BR 2800 230 0 0 0
2019/10/20 00:14:01 BASE 28.90 24 32.87 16 1.7 90 0.1 0 0 952.4 NA 0.0000 -SN BR 3100 0 0 0 1970
2019/10/20 00:15:01 BASE 28.70 24 32.87 16 1.6 90 0.2 0 0 952.5 NA 0.0000 -SN BR 3200 330 0 0 0
2019/10/20 00:16:01 BASE 28.52 24 32.87 16 1.6 91 0.2 0 0 952.4 NA 0.0000 -SN BR 3400 360 0 0 0
2019/10/20 00:17:01 BASE 27.87 23 32.87 16 1.5 92 0.3 0 0 952.5 NA 0.0000 -SN BR 4500 0 0 0 2790
2019/10/20 00:18:01 BASE 27.21 25 32.87 16 1.5 92 0.4 0 0 952.4 NA 0.0000 -SN BR 3800 0 0 0 3480
2019/10/20 00:19:01 BASE 28.51 28 33.44 29 1.5 93 0.4 0 0 952.4 NA 0.0000 -SN BR 3700 0 0 0 4070
2019/10/20 00:20:01 BASE 29.90 28 36.11 26 1.5 93 0.5 0 0 952.3 NA 0.0000 -SN BR 3500 0 0 0 4100
2019/10/20 00:21:01 BASE 29.91 27 36.11 26 1.5 93 0.5 0 0 952.4 NA 0.0000 -SN BR 3800 0 0 0 4630
2019/10/20 00:22:01 BASE 28.25 26 36.11 26 1.4 94 0.5 0 0 952.5 NA 0.0000 -SN BR 4200 0 0 0 4720
2019/10/20 00:23:01 BASE 27.86 25 36.11 26 1.4 94 0.6 0 0 952.4 NA 0.0000 -SN BR 7000 0 0 0 4920
2019/10/20 00:24:01 BASE 30.01 25 36.11 26 1.4 94 0.6 0 0 952.3 NA 0.0000 -SN BR 5000 0 0 0 4820
2019/10/20 00:25:01 BASE 31.25 25 36.11 26 1.4 95 0.6 0 0 952.4 NA 0.0000 -SN BR 4200 4690 0 0 0
2019/10/20 00:26:01 BASE 32.02 24 36.37 22 1.4 95 0.7 0 0 952.4 NA 0.0000 -SN BR 4200 0 0 0 5510
2019/10/20 00:27:01 BASE 32.31 25 36.37 22 1.4 95 0.7 0 0 952.5 NA 0.0000 -SN BR 3400 0 0 0 1900
2019/10/20 00:28:01 BASE 32.86 26 37.25 27 1.4 95 0.7 0 0 952.3 NA 0.0000 -SN BR 2900 0 0 0 2200
2019/10/20 00:29:01 BASE 33.72 26 37.97 21 1.4 95 0.7 0 0 952.4 NA 0.0000 -SN BR 2200 0 0 0 4720
2019/10/20 00:30:01 BASE 32.54 24 37.97 21 1.4 95 0.7 0 0 952.5 NA 0.0000 -SN BR 2100 0 0 0 4660
2019/10/20 00:31:01 BASE 31.53 24 37.97 21 1.4 95 0.7 0 0 952.6 NA 0.0000 -SN BR 2300 0 0 0 3540
2019/10/20 00:32:01 BASE 31.74 25 37.97 21 1.4 95 0.7 0 0 952.6 NA 0.0000 -SN BR 2100 0 0 0 2620
2019/10/20 00:33:01 BASE 32.14 23 37.97 21 1.3 96 0.7 0 0 952.6 NA 0.0000 -SN BR 2400 0 0 0 3280
2019/10/20 00:34:01 BASE 31.74 22 37.97 21 1.3 96 0.7 0 0 952.7 NA 0.0000 -SN BR 2600 0 0 0 3350
2019/10/20 00:35:01 BASE 32.45 23 37.97 21 1.3 96 0.7 0 0 952.7 NA 0.0000 -SN BR 3500 0 0 0 3740
2019/10/20 00:36:01 BASE 33.09 25 37.97 21 1.3 96 0.8 0 0 952.7 NA 0.0000 -SN BR 3400 0 0 0 4130
2019/10/20 00:37:01 BASE 33.32 25 37.97 21 1.3 96 0.8 0 0 952.7 NA 0.0000 -SN BR 3300 330 0 0 0
2019/10/20 00:38:01 BASE 33.75 24 37.97 21 1.4 96 0.8 0 0 952.8 NA 0.0000 -SN BR 2700 0 0 0 3770
2019/10/20 00:39:01 BASE 32.20 23 36.94 23 1.4 96 0.8 0 0 953.0 NA 0.0000 -SN BR 2500 260 0 0 0
2019/10/20 00:40:01 BASE 31.43 21 36.94 23 1.4 96 0.8 0 0 952.9 NA 0.0000 -SN BR 2800 0 0 0 3640
2019/10/20 00:41:01 BASE 32.23 21 36.94 23 1.4 96 0.8 0 0 952.9 NA 0.0000 -SN BR 3500 0 0 0 4130
2019/10/20 00:42:01 BASE 32.02 23 36.37 24 1.3 96 0.8 0 0 953.1 NA 0.0000 -SN BR 3100 0 0 0 4360
2019/10/20 00:43:01 BASE 30.99 24 36.37 24 1.3 96 0.7 0 0 953.1 NA 0.0000 -SN BR 3600 0 0 0 4300
2019/10/20 00:44:01 BASE 31.43 23 36.37 24 1.3 96 0.7 0 0 953.1 NA 0.0000 -SN BR 4100 0 0 0 3840
2019/10/20 00:45:01 BASE 32.12 21 36.37 24 1.3 96 0.7 0 0 953.2 NA 0.0000 -SN BR 6000 0 0 0 4330
2019/10/20 00:46:01 BASE 31.53 22 36.37 24 1.3 96 0.7 0 0 953.4 NA 0.0000 -SN BR 7000 0 0 0 3350
2019/10/20 00:47:01 BASE 30.33 21 36.22 22 1.3 96 0.7 0 0 953.5 NA 0.0000 -SN BR 7000 0 0 0 3380
2019/10/20 00:48:01 BASE 29.59 19 36.22 22 1.3 95 0.6 0 0 953.5 NA 0.0000 -SN BR 7000 0 0 0 3840
2019/10/20 00:49:01 BASE 29.67 19 36.22 22 1.3 95 0.6 0 0 953.5 NA 0.0000 -SN BR 7000 0 0 0 3670
2019/10/20 00:50:01 BASE 30.26 20 36.22 22 1.3 95 0.6 0 0 953.6 NA 0.0000 -SN BR 4400 0 0 0 3410
2019/10/20 00:51:01 BASE 29.87 20 36.22 22 1.3 95 0.6 0 0 953.7 NA 0.0000 -SN BR 4900 0 0 0 3580
2019/10/20 00:52:01 BASE 28.81 20 36.22 22 1.2 95 0.6 0 0 953.7 NA 0.0000 -SN BR 7000 390 0 0 0
2019/10/20 00:53:01 BASE 28.68 21 36.22 22 1.2 96 0.6 0 0 953.7 NA 0.0000 -SN BR 9999 0 0 0 3840
2019/10/20 00:54:01 BASE 29.18 19 34.36 19 1.2 96 0.6 0 0 953.7 NA 0.0000 -SN BR 9999 3350 0 0 0
2019/10/20 00:55:01 BASE 29.93 19 33.64 25 1.2 96 0.6 0 0 953.6 NA 0.0000 -SN BR 9999 3310 0 0 0
2019/10/20 00:56:01 BASE 29.12 16 32.10 21 1.2 96 0.6 0 0 953.7 NA 0.0000 -SN BR 9999 1610 0 0 0
2019/10/20 00:57:01 BASE 27.91 12 32.10 21 1.2 96 0.6 0 0 953.8 NA 0.0000 -SN BR 9000 3450 0 0 0
2019/10/20 00:58:01 BASE 28.02 15 32.10 21 1.2 96 0.6 0 0 953.8 NA 0.0000 -SN BR 9000 0 0 0 3900
2019/10/20 00:59:01 BASE 27.23 13 32.10 21 1.2 96 0.6 0 0 953.9 NA 0.0000 -SN BR 9999 390 0 0 0
2019/10/20 01:00:01 BASE 27.03 10 31.79 23 1.2 96 0.6 0 0 953.8 NA 0.0000 -SN BR 9999 3020 0 0 0
2019/10/20 01:01:01 BASE 28.56 9 31.79 23 1.2 96 0.6 0 0 953.8 NA 0.0000 -SN 9999 3280 0 0 0
2019/10/20 01:02:01 BASE 29.63 11 33.23 7 1.1 96 0.6 0 0 953.8 NA 0.0000 -SN 9999 0 0 0 3970
2019/10/20 01:03:01 BASE 29.35 12 33.23 7 1.1 96 0.5 0 0 953.9 NA 0.0000 -SN 9999 0 0 0 4040
2019/10/20 01:04:01 BASE 28.36 12 33.23 7 1.1 96 0.5 0 0 954.0 NA 0.0000 -SN 9999 0 0 0 3970
2019/10/20 01:05:01 BASE 27.71 10 33.23 7 1.0 96 0.5 0 0 954.0 NA 0.0000 -SN 9999 0 0 0 3350
2019/10/20 01:06:01 BASE 28.21 8 33.23 7 1.0 96 0.5 0 0 954.0 NA 0.0000 -SN 9999 0 0 0 3180
2019/10/20 01:07:01 BASE 28.69 6 33.23 7 0.9 97 0.5 0 0 954.1 NA 0.0000 -SN 9999 0 0 0 3180
2019/10/20 01:08:01 BASE 28.08 5 33.23 7 0.9 97 0.5 0 0 954.2 NA 0.0000 -SN 9999 0 0 0 3150
2019/10/20 01:09:01 BASE 27.38 6 33.23 7 0.8 98 0.5 0 0 954.3 NA 0.0000 -SN 9999 0 0 0 3050
2019/10/20 01:10:01 BASE 26.70 6 33.23 7 0.8 98 0.5 0 0 954.3 NA 0.0000 -SN 9999 0 0 0 2820
2019/10/20 01:11:01 BASE 27.89 4 33.23 7 0.8 98 0.5 0 0 954.2 NA 0.0000 -SN 9999 0 0 0 3080
2019/10/20 01:12:01 BASE 27.82 2 32.51 360 0.8 99 0.6 0 0 954.4 NA 0.0000 -SN 9999 0 0 0 2720
2019/10/20 01:13:01 BASE 25.69 3 32.51 360 0.7 99 0.6 0 0 954.5 NA 0.0000 -SN 9999 0 0 0 2920
2019/10/20 01:14:01 BASE 24.84 3 32.51 360 0.7 99 0.6 0 0 954.7 NA 0.0000 -SN 9999 300 0 0 0
2019/10/20 01:15:01 BASE 25.54 4 32.51 360 0.7 100 0.6 0 0 954.6 NA 0.0000 -SN 9999 0 0 0 3020
2019/10/20 01:16:01 BASE 25.10 3 32.51 360 0.7 100 0.6 0 0 954.8 NA 0.0000 -SN 9999 0 0 0 2990
2019/10/20 01:17:01 BASE 24.45 2 32.51 360 0.6 100 0.6 0 0 954.7 NA 0.0000 -SN 9999 0 0 0 2430
2019/10/20 01:18:01 BASE 25.17 4 32.51 360 0.6 100 0.6 0 0 954.8 NA 0.0000 -SN 9999 0 0 0 2170
2019/10/20 01:19:01 BASE 24.12 3 32.51 360 0.6 100 0.6 0 0 954.9 NA 0.0000 -SN 9999 0 0 0 2130
2019/10/20 01:20:01 BASE 23.21 359 32.51 360 0.5 100 0.5 0 0 954.9 NA 0.0000 -SN 9999 0 0 0 2490
2019/10/20 01:21:01 BASE 23.37 359 29.63 360 0.5 100 0.5 0 0 955.0 NA 0.0000 -SN 9999 0 0 0 3020
2019/10/20 01:22:01 BASE 23.57 2 29.63 360 0.5 100 0.5 0 0 955.0 NA 0.0000 -SN 9999 0 0 0 2820
2019/10/20 01:23:01 BASE 23.61 1 29.63 360 0.5 100 0.5 0 0 955.1 NA 0.0000 -SN 9999 0 0 0 2890
2019/10/20 01:24:01 BASE 22.41 352 29.63 360 0.5 100 0.5 0 0 955.2 NA 0.0000 -SN 9999 0 0 0 2890
2019/10/20 01:25:01 BASE 21.85 347 29.63 360 0.5 100 0.5 0 0 955.2 NA 0.0000 -SN 9999 330 0 0 0
2019/10/20 01:26:01 BASE 22.37 352 29.63 360 0.5 100 0.5 0 0 955.2 NA 0.0000 -SN 9999 260 0 0 0
2019/10/20 01:27:01 BASE 23.27 351 29.63 360 0.5 100 0.5 0 0 955.2 NA 0.0000 -SN 9999 230 0 0 0
2019/10/20 01:28:01 BASE 22.66 351 28.29 353 0.5 100 0.5 0 0 955.4 NA 0.0000 -SN 9999 0 0 0 3150
2019/10/20 01:29:01 BASE 21.15 357 28.29 353 0.4 100 0.4 0 0 955.5 NA 0.0000 -SN 9999 0 0 0 2430
2019/10/20 01:30:01 BASE 21.03 1 28.29 353 0.4 100 0.4 0 0 955.5 NA 0.0000 -SN 9999 0 0 0 2200
2019/10/20 01:31:01 BASE 20.36 355 28.29 353 0.4 100 0.4 0 0 955.6 NA 0.0000 -SN 9999 0 0 0 2300
2019/10/20 01:32:01 BASE 21.52 351 28.29 353 0.4 100 0.4 0 0 955.5 NA 0.0000 -SN 9999 0 0 0 2460
2019/10/20 01:33:01 BASE 23.06 353 28.29 353 0.4 100 0.4 0 0 955.5 NA 0.0000 -SN 9999 0 0 0 2660
2019/10/20 01:34:01 BASE 21.84 358 28.29 353 0.4 100 0.4 0 0 955.7 NA 0.0000 9999 0 0 0 2400
2019/10/20 01:35:01 BASE 21.82 358 28.29 353 0.4 100 0.4 0 0 955.6 NA 0.0000 9999 0 0 0 2130
2019/10/20 01:36:01 BASE 22.35 357 28.29 353 0.4 100 0.4 0 0 955.8 NA 0.0000 -SN 9999 0 0 0 1800
2019/10/20 01:37:01 BASE 22.45 355 26.70 360 0.4 100 0.4 0 0 955.8 NA 0.0000 -SN 9999 0 0 0 1380
2019/10/20 01:38:01 BASE 21.98 358 26.70 360 0.4 100 0.4 0 0 955.9 NA 0.0000 -SN 9999 0 0 0 1250
2019/10/20 01:39:01 BASE 20.63 356 26.70 360 0.3 100 0.3 0 0 956.0 NA 0.0000 -SN 9999 0 0 0 1180
2019/10/20 01:40:01 BASE 19.89 353 26.70 360 0.3 100 0.3 0 0 956.0 NA 0.0000 -SN 9999 0 0 0 1150
2019/10/20 01:41:01 BASE 19.16 355 26.70 360 0.3 100 0.3 0 0 956.1 NA 0.0000 -SN 9999 0 0 0 1180
2019/10/20 01:42:01 BASE 19.06 354 26.70 360 0.2 100 0.2 0 0 956.1 NA 0.0000 -SN 9999 0 0 0 1210
2019/10/20 01:43:01 BASE 18.91 353 26.70 360 0.2 100 0.2 0 0 956.1 NA 0.0000 -SN 9999 0 0 0 1250
2019/10/20 01:44:01 BASE 18.95 356 26.70 360 0.2 100 0.2 0 0 956.2 NA 0.0000 -SN 9999 0 0 0 1250
2019/10/20 01:45:01 BASE 19.69 357 25.00 354 0.2 100 0.2 0 0 956.2 NA 0.0000 -SN 9999 0 0 0 1210
2019/10/20 01:46:01 BASE 20.11 358 24.54 350 0.2 100 0.2 0 0 956.2 NA 0.0000 -SN 9999 0 0 0 1210
2019/10/20 01:47:01 BASE 19.96 356 23.77 2 0.2 100 0.2 0 0 956.2 NA 0.0000 -SN 9999 0 0 0 1210
2019/10/20 01:48:01 BASE 19.34 356 23.77 2 0.1 100 0.1 0 0 956.3 NA 0.0000 -SN 9999 0 0 0 1310
2019/10/20 01:49:01 BASE 20.08 1 23.77 2 0.1 100 0.1 0 0 956.2 NA 0.0000 -SN 9999 0 0 0 1250
2019/10/20 01:50:01 BASE 20.66 358 23.77 2 0.1 100 0.1 0 0 956.3 NA 0.0000 -SN 9999 0 0 0 1250
2019/10/20 01:51:01 BASE 19.81 354 23.77 2 0.1 100 0.1 0 0 956.4 NA 0.0000 -SN 9999 0 0 0 1280
2019/10/20 01:52:01 BASE 18.91 354 23.77 2 0.1 100 0.1 0 0 956.4 NA 0.0000 -SN 9999 0 0 0 1310
2019/10/20 01:53:01 BASE 18.77 354 23.77 2 0.1 100 0.1 0 0 956.5 NA 0.0000 -SN 9999 0 0 0 1380
2019/10/20 01:54:01 BASE 19.37 355 23.77 2 0.1 100 0.1 0 0 956.5 NA 0.0000 -SN 9999 0 0 0 1280
2019/10/20 01:55:01 BASE 20.35 351 23.72 354 0.1 100 0.1 0 0 956.4 NA 0.0000 -SN 9999 0 0 0 1440
2019/10/20 01:56:01 BASE 21.58 353 25.57 347 0.1 100 0.1 0 0 956.5 NA 0.0000 -SN 9999 0 0 0 1410
2019/10/20 01:57:01 BASE 22.01 358 25.57 347 0.0 100 0.0 0 0 956.4 NA 0.0000 -SN 9999 0 0 0 1210
2019/10/20 01:58:01 BASE 21.13 356 25.57 347 0.0 100 0.0 0 0 956.5 NA 0.0000 -SN 9999 0 0 0 1250
2019/10/20 01:59:01 BASE 20.61 357 25.57 347 0.0 100 0.0 0 0 956.5 NA 0.0000 -SN 9999 0 0 0 1350
2019/10/20 02:00:01 BASE 21.07 0 25.57 347 0.0 100 0.0 0 0 956.6 NA 0.0000 -SN 9999 0 0 0 1350
2019/10/20 02:01:01 BASE 21.14 355 25.57 347 0.0 100 0.0 0 0 956.6 NA 0.0000 -SN 9999 0 0 0 1280
2019/10/20 02:02:01 BASE 22.00 349 25.57 350 -0.0 100 -0.0 0 0 956.5 NA 0.0000 -SN 9999 0 0 0 1210
2019/10/20 02:03:01 BASE 22.43 350 26.13 350 -0.0 100 -0.0 0 0 956.6 NA 0.0000 -SN 9999 0 0 0 1150
2019/10/20 02:04:01 BASE 22.57 354 26.75 1 -0.0 100 -0.0 0 0 956.6 NA 0.0000 -SN 9999 0 0 0 1150
2019/10/20 02:05:01 BASE 21.77 352 26.75 1 -0.0 100 -0.0 0 0 956.8 NA 0.0000 -SN 9999 0 0 0 1180
2019/10/20 02:06:01 BASE 20.17 350 26.75 1 -0.1 100 -0.1 0 0 956.8 NA 0.0000 -SN 9999 0 0 0 1080
2019/10/20 02:07:01 BASE 22.19 356 26.85 354 -0.1 100 -0.1 0 0 956.7 NA 0.0000 -SN 9999 0 0 0 1080
2019/10/20 02:08:01 BASE 23.56 359 26.85 354 -0.1 100 -0.1 0 0 956.7 NA 0.0000 -SN 9999 0 0 0 1020
2019/10/20 02:09:01 BASE 21.27 355 26.85 354 -0.1 100 -0.1 0 0 956.8 NA 0.0000 -SN 9999 0 0 0 980
2019/10/20 02:10:01 BASE 19.86 358 26.85 354 -0.1 100 -0.1 0 0 956.9 NA 0.0000 9999 0 0 0 980
2019/10/20 02:11:01 BASE 20.22 353 26.85 354 -0.1 100 -0.1 0 0 956.9 NA 0.0000 9999 0 0 0 1050
2019/10/20 02:12:01 BASE 20.78 349 26.85 354 -0.1 100 -0.1 0 0 956.9 NA 0.0000 -SN 9999 0 0 0 980
2019/10/20 02:13:01 BASE 21.61 356 26.85 354 -0.1 100 -0.1 0 0 956.8 NA 0.0000 -SN 9999 0 0 0 980
2019/10/20 02:14:01 BASE 22.10 355 26.85 354 -0.1 100 -0.1 0 0 956.9 NA 0.0000 -SN 9999 0 0 0 950
2019/10/20 02:15:01 BASE 22.53 353 26.85 354 -0.1 100 -0.1 0 0 956.9 NA 0.0000 -SN 9999 0 0 0 920
2019/10/20 02:16:01 BASE 23.45 351 26.85 354 -0.1 100 -0.1 0 0 956.9 NA 0.0000 -SN 9999 0 0 0 890
2019/10/20 02:17:01 BASE 24.21 349 27.11 338 -0.1 100 -0.1 0 0 956.9 NA 0.0000 -SN 9999 0 0 0 850
2019/10/20 02:18:01 BASE 23.97 350 27.11 338 -0.1 100 -0.1 0 0 957.0 NA 0.0000 -SN 9999 0 0 0 850
2019/10/20 02:19:01 BASE 24.24 352 27.93 341 -0.2 100 -0.2 0 0 956.9 NA 0.2540 -SN 9999 0 0 0 920
2019/10/20 02:20:01 BASE 23.79 353 27.93 341 -0.2 100 -0.2 0 0 957.1 NA 0.0000 -SN 9999 0 0 0 1020
2019/10/20 02:21:01 BASE 22.88 351 27.93 353 -0.2 100 -0.2 0 0 957.1 NA 0.0000 -SN 9999 0 0 0 1020
2019/10/20 02:22:01 BASE 21.32 347 27.93 353 -0.2 100 -0.2 0 0 957.3 NA 0.0000 -SN 9999 0 0 0 1180
2019/10/20 02:23:01 BASE 20.36 345 27.93 353 -0.2 100 -0.2 0 0 957.2 NA 0.0000 -SN 9999 0 0 0 1080
2019/10/20 02:24:01 BASE 22.88 344 27.93 353 -0.2 100 -0.2 0 0 957.1 NA 0.0000 -SN 9999 0 0 0 1150
2019/10/20 02:25:01 BASE 24.21 344 27.93 353 -0.2 100 -0.2 0 0 957.1 NA 0.0000 -SN 9999 0 0 0 1080
2019/10/20 02:26:01 BASE 23.09 348 27.93 353 -0.2 100 -0.2 0 0 957.2 NA 0.0000 -SN 9999 0 0 0 1120
2019/10/20 02:27:01 BASE 22.48 348 27.93 353 -0.2 100 -0.2 0 0 957.3 NA 0.0000 -SN 9999 0 0 0 1150
2019/10/20 02:28:01 BASE 22.92 345 27.93 353 -0.3 100 -0.3 0 0 957.3 NA 0.0000 -SN 9999 0 0 0 1210
2019/10/20 02:29:01 BASE 21.30 347 27.93 353 -0.3 100 -0.3 0 0 957.4 NA 0.0000 -SN 9999 0 0 0 1080
2019/10/20 02:30:01 BASE 21.25 349 27.93 353 -0.3 100 -0.3 0 0 957.3 NA 0.0000 -SN 9999 0 0 0 1120
2019/10/20 02:31:01 BASE 21.96 350 26.55 340 -0.3 100 -0.3 0 0 957.4 NA 0.0000 -SN 9999 0 0 0 1150
2019/10/20 02:32:01 BASE 21.27 350 26.55 340 -0.3 100 -0.3 0 0 957.4 NA 0.0000 -SN 9999 0 0 0 1180
2019/10/20 02:33:01 BASE 20.33 352 26.55 340 -0.2 100 -0.2 0 0 957.5 NA 0.0000 -SN 9999 0 0 0 1120
2019/10/20 02:34:01 BASE 19.33 352 26.19 336 -0.2 100 -0.2 0 0 957.5 NA 0.0000 -SN 9999 0 0 0 1050
2019/10/20 02:35:01 BASE 19.46 352 25.41 348 -0.3 100 -0.3 0 0 957.5 NA 0.0000 -SN 9999 0 0 0 1020
2019/10/20 02:36:01 BASE 19.69 355 25.41 348 -0.3 100 -0.3 0 0 957.5 NA 0.0000 -SN 9999 0 0 0 1050
2019/10/20 02:37:01 BASE 21.11 349 25.83 350 -0.3 100 -0.3 0 0 957.5 NA 0.0000 -SN 9999 0 0 0 980
2019/10/20 02:38:01 BASE 22.51 349 25.83 350 -0.3 100 -0.3 0 0 957.5 NA 0.0000 -SN 9999 0 0 0 1020
2019/10/20 02:39:01 BASE 22.87 355 25.83 350 -0.3 100 -0.3 0 0 957.4 NA 0.0000 -SN 9999 0 0 0 1020
2019/10/20 02:40:01 BASE 22.88 356 26.96 344 -0.3 100 -0.3 0 0 957.5 NA 0.0000 -SN 9999 0 0 0 1050
2019/10/20 02:41:01 BASE 23.14 356 26.96 344 -0.2 100 -0.2 0 0 957.5 NA 0.0000 -SN 9999 0 0 0 1080
2019/10/20 02:42:01 BASE 23.83 355 26.96 344 -0.2 100 -0.2 0 0 957.4 NA 0.0000 -SN 9999 0 0 0 1180
2019/10/20 02:43:01 BASE 25.99 356 29.84 1 -0.2 100 -0.2 0 0 957.3 NA 0.0000 -SN 9999 0 0 0 1210
2019/10/20 02:44:01 BASE 27.32 357 29.84 1 -0.2 100 -0.2 0 0 957.4 NA 0.0000 -SN 9999 0 0 0 1150
2019/10/20 02:45:01 BASE 25.76 355 29.84 1 -0.2 100 -0.2 0 0 957.5 NA 0.0000 -SN 9999 0 0 0 1150
2019/10/20 02:46:01 BASE 24.31 352 29.84 1 -0.2 100 -0.2 0 0 957.6 NA 0.0000 -SN 9999 0 0 0 1120
2019/10/20 02:47:01 BASE 23.83 353 29.84 1 -0.2 100 -0.2 0 0 957.6 NA 0.0000 -SN 9999 0 0 0 1050
2019/10/20 02:48:01 BASE 24.89 353 31.33 339 -0.2 100 -0.2 0 0 957.6 NA 0.0000 -SN 9999 0 0 0 1080
2019/10/20 02:49:01 BASE 26.86 341 31.74 331 -0.2 100 -0.2 0 0 957.7 NA 0.0000 -SN 9999 0 0 0 1180
2019/10/20 02:50:01 BASE 26.21 338 31.74 331 -0.2 100 -0.2 0 0 957.8 NA 0.0000 -SN 9999 0 0 0 1180
2019/10/20 02:51:01 BASE 24.71 339 31.74 331 -0.2 100 -0.2 0 0 957.8 NA 0.0000 -SN 9999 0 0 0 1050
2019/10/20 02:52:01 BASE 23.99 339 31.74 331 -0.2 100 -0.2 0 0 957.9 NA 0.0000 -SN 9999 0 0 0 1150
2019/10/20 02:53:01 BASE 23.91 343 31.74 331 -0.3 100 -0.3 0 0 957.9 NA 0.0000 -SN 9999 0 0 0 1120
2019/10/20 02:54:01 BASE 24.03 347 31.74 331 -0.3 100 -0.3 0 0 957.9 NA 0.0000 -SN 9999 0 0 0 1020
2019/10/20 02:55:01 BASE 22.51 349 31.74 331 -0.3 100 -0.3 0 0 958.0 NA 0.0000 -SN 9999 0 0 0 1020
2019/10/20 02:56:01 BASE 20.88 351 31.74 331 -0.3 100 -0.3 0 0 958.1 NA 0.0000 -SN 9999 0 0 0 920
2019/10/20 02:57:01 BASE 22.00 354 31.74 331 -0.3 100 -0.3 0 0 958.0 NA 0.0000 -SN 9999 0 0 0 1050
2019/10/20 02:58:01 BASE 22.02 347 31.74 331 -0.3 100 -0.3 0 0 958.1 NA 0.0000 -SN 9999 0 0 0 980
2019/10/20 02:59:01 BASE 19.81 347 27.68 337 -0.3 100 -0.3 0 0 958.2 NA 0.0000 -SN 9999 0 0 0 1120
2019/10/20 03:00:01 BASE 18.85 352 27.68 337 -0.2 100 -0.2 0 0 958.2 NA 0.0000 -SN 9999 0 0 0 1150
2019/10/20 03:01:01 BASE 20.92 353 27.93 2 -0.2 100 -0.2 0 0 958.0 NA 0.0000 -SN 9999 0 0 0 1180
2019/10/20 03:02:01 BASE 24.71 360 29.58 2 -0.2 100 -0.2 0 0 957.9 NA 0.0000 -SN 9999 0 0 0 1210
2019/10/20 03:03:01 BASE 25.82 3 29.58 2 -0.2 100 -0.2 0 0 957.9 NA 0.0000 -SN 9999 0 0 0 1080
2019/10/20 03:04:01 BASE 26.49 357 31.64 353 -0.2 100 -0.2 0 0 957.9 NA 0.0000 -SN 9999 0 0 0 1150
2019/10/20 03:05:01 BASE 27.01 355 31.64 353 -0.2 100 -0.2 0 0 957.9 NA 0.0000 -SN 9999 0 0 0 1180
2019/10/20 03:06:01 BASE 26.16 356 31.64 353 -0.1 100 -0.1 0 0 958.0 NA 0.0000 -SN 9999 0 0 0 1120
2019/10/20 03:07:01 BASE 25.76 354 31.64 353 -0.1 100 -0.1 0 0 958.1 NA 0.0000 -SN 9999 0 0 0 1120
2019/10/20 03:08:01 BASE 25.40 353 31.64 353 -0.1 100 -0.1 0 0 958.1 NA 0.0000 -SN 9999 0 0 0 1120
2019/10/20 03:09:01 BASE 25.32 354 31.64 353 -0.1 100 -0.1 0 0 958.1 NA 0.0000 -SN 9999 0 0 0 1150
2019/10/20 03:10:01 BASE 26.80 351 31.64 353 -0.1 100 -0.1 0 0 958.0 NA 0.0000 -SN 9999 0 0 0 1150
2019/10/20 03:11:01 BASE 25.99 346 31.64 353 -0.1 100 -0.1 0 0 958.2 NA 0.0000 -SN 9999 0 0 0 1120
2019/10/20 03:12:01 BASE 23.60 349 31.64 353 -0.1 100 -0.1 0 0 958.4 NA 0.0000 -SN 9999 0 0 0 1120
2019/10/20 03:13:01 BASE 24.61 354 31.64 353 -0.1 100 -0.1 0 0 958.3 NA 0.0000 -SN 9999 0 0 0 980
2019/10/20 03:14:01 BASE 26.11 354 31.18 301 -0.2 100 -0.2 0 0 958.2 NA 0.0000 -SN 9999 0 0 0 1120
2019/10/20 03:15:01 BASE 25.84 351 31.18 301 -0.2 100 -0.2 0 0 958.3 NA 0.0000 -SN 9999 0 0 0 1050
2019/10/20 03:16:01 BASE 25.31 349 31.18 301 -0.2 100 -0.2 0 0 958.4 NA 0.0000 -SN 9999 0 0 0 1210
2019/10/20 03:17:01 BASE 26.77 354 33.39 78 -0.2 100 -0.2 0 0 958.3 NA 0.0000 -SN 9999 0 0 0 1180
2019/10/20 03:18:01 BASE 28.26 357 33.39 78 -0.2 100 -0.2 0 0 958.3 NA 0.0000 -SN 9999 0 0 0 1250
2019/10/20 03:19:01 BASE 27.11 356 33.39 78 -0.2 100 -0.2 0 0 958.4 NA 0.0000 -SN 9999 0 0 0 1250
2019/10/20 03:20:01 BASE 25.76 355 33.39 78 -0.2 100 -0.2 0 0 958.5 NA 0.0000 -SN 9999 0 0 0 1180
2019/10/20 03:21:01 BASE 26.03 352 33.39 78 -0.2 100 -0.2 0 0 958.5 NA 0.0000 -SN 9999 0 0 0 1380
2019/10/20 03:22:01 BASE 25.84 352 33.39 78 -0.2 100 -0.2 0 0 958.6 NA 0.0000 -SN 9999 0 0 0 1380
2019/10/20 03:23:01 BASE 25.42 354 33.39 78 -0.2 100 -0.2 0 0 958.5 NA 0.0000 -SN 9999 0 0 0 1480
2019/10/20 03:24:01 BASE 26.56 352 33.39 78 -0.2 100 -0.2 0 0 958.5 NA 0.0000 -SN 9999 0 0 0 1280
2019/10/20 03:25:00 BASE 27.23 352 33.39 78 -0.2 100 -0.2 0 0 958.6 NA 0.0000 -SN 9999 0 0 0 1310
2019/10/20 03:26:01 BASE 26.72 350 33.39 78 -0.2 100 -0.2 0 0 958.7 NA 0.0000 -SN 9999 0 0 0 1310
2019/10/20 03:27:01 BASE 25.73 351 32.41 360 -0.2 100 -0.2 0 0 958.7 NA 0.0000 -SN 9999 0 0 0 1310
2019/10/20 03:28:01 BASE 26.56 354 32.98 352 -0.2 100 -0.2 0 0 958.7 NA 0.0000 -SN 9999 0 0 0 1180
2019/10/20 03:29:01 BASE 27.29 349 32.98 352 -0.2 100 -0.2 0 0 958.8 NA 0.0000 -SN 9999 0 0 0 1120
2019/10/20 03:30:01 BASE 26.32 348 32.98 352 -0.2 100 -0.2 0 0 958.8 NA 0.0000 -SN 9999 0 0 0 1080
2019/10/20 03:31:01 BASE 25.76 353 32.98 352 -0.2 100 -0.2 0 0 958.9 NA 0.0000 -SN 9999 0 0 0 1080
2019/10/20 03:32:01 BASE 26.67 356 32.98 352 -0.3 100 -0.3 0 0 958.8 NA 0.2540 -SN 9999 0 0 0 1250
2019/10/20 03:33:01 BASE 27.67 356 32.98 352 -0.3 100 -0.3 0 0 958.8 NA 0.0000 -SN 9999 0 0 0 1120
2019/10/20 03:34:01 BASE 28.45 355 32.98 352 -0.3 100 -0.3 0 0 958.8 NA 0.0000 -SN 9999 0 0 0 1180
2019/10/20 03:35:01 BASE 28.68 352 32.98 352 -0.3 100 -0.3 0 0 958.9 NA 0.0000 -SN 9999 0 0 0 1350
2019/10/20 03:36:01 BASE 26.83 355 32.98 352 -0.3 100 -0.3 0 0 959.1 NA 0.0000 -SN 9999 0 0 0 1380
2019/10/20 03:37:01 BASE 24.91 353 32.98 352 -0.3 100 -0.3 0 0 959.2 NA 0.0000 -SN 9999 0 0 0 1380
2019/10/20 03:38:01 BASE 25.09 351 32.10 349 -0.3 100 -0.3 0 0 959.1 NA 0.0000 -SN 9999 0 0 0 1380
2019/10/20 03:39:01 BASE 25.90 354 32.10 349 -0.3 100 -0.3 0 0 959.1 NA 0.0000 -SN 9999 0 0 0 1310
2019/10/20 03:40:01 BASE 25.79 354 32.10 349 -0.3 100 -0.3 0 0 959.2 NA 0.0000 -SN 9999 0 0 0 1410
2019/10/20 03:41:01 BASE 25.81 355 32.10 349 -0.3 100 -0.3 0 0 959.2 NA 0.0000 -SN 9999 0 0 0 1540
2019/10/20 03:42:01 BASE 26.38 355 32.10 349 -0.3 100 -0.3 0 0 959.1 NA 0.0000 -SN 9999 0 0 0 1540
2019/10/20 03:43:01 BASE 26.91 350 33.03 351 -0.3 100 -0.3 0 0 959.2 NA 0.0000 -SN 9999 0 0 0 1570
2019/10/20 03:44:01 BASE 28.34 350 33.03 351 -0.3 100 -0.3 0 0 959.0 NA 0.0000 -SN 9999 0 0 0 1610
2019/10/20 03:45:00 BASE 27.58 352 33.03 351 -0.3 100 -0.3 0 0 959.3 NA 0.0000 -SN 9999 0 0 0 1410
2019/10/20 03:46:01 BASE 26.88 353 33.03 351 -0.3 100 -0.3 0 0 959.2 NA 0.0000 -SN 9999 0 0 0 1210
2019/10/20 03:47:00 BASE 27.14 352 33.03 351 -0.3 100 -0.3 0 0 959.4 NA 0.0000 -SN 9999 0 0 0 1280
2019/10/20 03:48:01 BASE 26.02 351 33.03 351 -0.3 100 -0.3 0 0 959.4 NA 0.0000 -SN 9999 0 0 0 1120
2019/10/20 03:49:00 BASE 27.03 353 33.03 351 -0.3 100 -0.3 0 0 959.3 NA 0.0000 -SN 9999 0 0 0 1050
2019/10/20 03:50:00 BASE 27.54 351 33.03 351 -0.3 100 -0.3 0 0 959.4 NA 0.0000 -SN 9999 0 0 0 980
2019/10/20 03:51:00 BASE 27.56 348 33.03 351 -0.3 100 -0.3 0 0 959.4 NA 0.0000 -SN 9999 0 0 0 980
2019/10/20 03:52:01 BASE 26.69 351 33.03 351 -0.3 100 -0.3 0 0 959.6 NA 0.0000 -SN 9999 0 0 0 980
2019/10/20 03:53:00 BASE 25.64 353 32.56 345 -0.3 100 -0.3 0 0 959.6 NA 0.0000 -SN 9999 0 0 0 980
2019/10/20 03:54:01 BASE 26.39 352 32.05 360 -0.4 100 -0.4 0 0 959.6 NA 0.0000 -SN 9999 0 0 0 950
2019/10/20 03:55:00 BASE 27.50 349 32.05 360 -0.4 100 -0.4 0 0 959.6 NA 0.0000 -SN 9999 0 0 0 920
2019/10/20 03:56:01 BASE 25.86 350 31.90 346 -0.4 100 -0.4 0 0 959.8 NA 0.0000 -SN 9999 0 0 0 890
2019/10/20 03:57:00 BASE 25.56 349 31.90 346 -0.4 100 -0.4 0 0 959.6 NA 0.0000 -SN 9999 0 0 0 890
2019/10/20 03:58:00 BASE 27.07 349 31.90 346 -0.4 100 -0.4 0 0 959.8 NA 0.0000 -SN 9999 0 0 0 890
2019/10/20 03:59:00 BASE 26.06 348 31.90 346 -0.4 100 -0.4 0 0 959.8 NA 0.0000 -SN 9999 0 0 0 890
2019/10/20 04:00:01 BASE 26.43 351 31.90 346 -0.4 100 -0.4 0 0 959.7 NA 0.0000 -SN 9999 0 0 0 920
2019/10/20 04:01:00 BASE 27.30 359 30.92 351 -0.4 100 -0.4 0 0 959.7 NA 0.0000 -SN 9999 0 0 0 790
2019/10/20 04:02:01 BASE 27.28 355 30.92 351 -0.4 100 -0.4 0 0 959.8 NA 0.0000 -SN 9999 0 0 0 790
2019/10/20 04:03:00 BASE 26.60 351 30.92 351 -0.4 100 -0.4 0 0 959.8 NA 0.0000 -SN 9999 0 0 0 790
2019/10/20 04:04:01 BASE 25.67 352 30.92 351 -0.4 100 -0.4 0 0 959.9 NA 0.0000 -SN 9999 0 0 0 750
2019/10/20 04:05:00 BASE 25.35 349 30.92 351 -0.4 100 -0.4 0 0 959.9 NA 0.0000 -SN 9999 0 0 0 790
2019/10/20 04:06:01 BASE 24.34 351 30.92 351 -0.4 100 -0.4 0 0 960.0 NA 0.0000 -SN 9999 0 0 0 790
2019/10/20 04:07:00 BASE 24.89 353 30.92 351 -0.4 100 -0.4 0 0 959.9 NA 0.0000 -SN 9999 0 0 0 850
2019/10/20 04:08:01 BASE 25.61 351 29.63 348 -0.4 100 -0.4 0 0 960.0 NA 0.0000 -SN 9999 0 0 0 890
2019/10/20 04:09:01 BASE 24.23 350 29.63 348 -0.4 100 -0.4 0 0 960.1 NA 0.0000 -SN 9999 0 0 0 920
2019/10/20 04:10:00 BASE 24.12 352 29.63 348 -0.4 100 -0.4 0 0 960.1 NA 0.0000 -SN 9999 0 0 0 1020
2019/10/20 04:11:00 BASE 24.62 353 30.15 349 -0.4 100 -0.4 0 0 960.1 NA 0.0000 -SN 9999 0 0 0 1080
2019/10/20 04:12:01 BASE 24.80 350 30.15 349 -0.4 100 -0.4 0 0 960.1 NA 0.0000 -SN 9999 0 0 0 1150
2019/10/20 04:13:00 BASE 25.91 351 30.15 349 -0.4 100 -0.4 0 0 960.1 NA 0.0000 -SN 9999 0 0 0 1210
2019/10/20 04:14:01 BASE 25.53 351 30.15 349 -0.4 100 -0.4 0 0 960.2 NA 0.0000 -SN 9999 0 0 0 1120
2019/10/20 04:15:00 BASE 24.56 350 30.15 349 -0.4 100 -0.4 0 0 960.2 NA 0.0000 -SN 9999 0 0 0 1020
2019/10/20 04:16:01 BASE 25.80 350 30.15 349 -0.4 100 -0.4 0 0 960.1 NA 0.0000 -SN 9999 0 0 0 1180
2019/10/20 04:17:00 BASE 26.33 348 30.15 349 -0.4 100 -0.4 0 0 960.2 NA 0.0000 -SN 9999 0 0 0 1250
2019/10/20 04:18:01 BASE 25.57 351 30.15 349 -0.4 100 -0.4 0 0 960.2 NA 0.0000 -SN 9999 0 0 0 1150
2019/10/20 04:19:00 BASE 25.54 352 30.15 349 -0.4 100 -0.4 0 0 960.2 NA 0.0000 -SN 9999 0 0 0 950
2019/10/20 04:20:00 BASE 24.32 354 30.15 349 -0.4 100 -0.4 0 0 960.3 NA 0.0000 -SN 9999 0 0 0 920
2019/10/20 04:21:00 BASE 23.59 359 29.48 350 -0.4 100 -0.4 0 0 960.3 NA 0.0000 -SN 9999 0 0 0 890
2019/10/20 04:22:01 BASE 24.07 354 29.48 350 -0.4 100 -0.4 0 0 960.4 NA 0.0000 -SN 9999 0 0 0 850
2019/10/20 04:23:00 BASE 24.36 352 29.17 360 -0.4 100 -0.4 0 0 960.3 NA 0.0000 -SN 9999 0 0 0 920
2019/10/20 04:24:01 BASE 25.98 359 29.27 360 -0.4 100 -0.4 0 0 960.2 NA 0.0000 -SN 9999 0 0 0 1120
2019/10/20 04:25:00 BASE 25.76 0 29.27 360 -0.4 100 -0.4 0 0 960.3 NA 0.0000 -SN 9999 0 0 0 1280
2019/10/20 04:26:00 BASE 23.82 357 29.27 360 -0.4 100 -0.4 0 0 960.4 NA 0.0000 -SN 9999 0 0 0 1280
2019/10/20 04:27:00 BASE 25.03 357 29.27 360 -0.4 100 -0.4 0 0 960.2 NA 0.0000 -SN 9999 0 0 0 1250
2019/10/20 04:28:00 BASE 27.14 356 30.15 348 -0.4 100 -0.4 0 0 960.2 NA 0.0000 -SN 9999 0 0 0 1250
2019/10/20 04:29:00 BASE 27.10 355 30.15 348 -0.4 100 -0.4 0 0 960.3 NA 0.0000 -SN 9999 0 0 0 1180
2019/10/20 04:30:00 BASE 27.53 356 33.23 3 -0.4 100 -0.4 0 0 960.2 NA 0.0000 -SN 9999 0 0 0 1120
2019/10/20 04:31:01 BASE 29.75 359 33.23 3 -0.4 100 -0.4 0 0 960.0 NA 0.0000 -SN 9999 0 0 0 1180
2019/10/20 04:32:01 BASE 30.74 2 33.28 17 -0.4 100 -0.4 0 0 960.2 NA 0.0000 -SN 9999 0 0 0 1210
2019/10/20 04:33:00 BASE 29.84 3 33.85 3 -0.4 100 -0.4 0 0 960.2 NA 0.2540 -SN 9999 0 0 0 1410
2019/10/20 04:34:01 BASE 29.55 1 33.85 3 -0.3 100 -0.3 0 0 960.2 NA 0.0000 -SN 9999 0 0 0 1410
2019/10/20 04:35:00 BASE 30.37 1 34.78 360 -0.3 100 -0.3 0 0 960.1 NA 0.0000 -SN 9999 0 0 0 1310
2019/10/20 04:36:01 BASE 31.00 2 34.78 360 -0.3 100 -0.3 0 0 960.2 NA 0.0000 -SN 9999 0 0 0 1250
2019/10/20 04:37:00 BASE 31.19 6 35.19 1 -0.3 100 -0.3 0 0 960.1 NA 0.0000 -SN 9999 0 0 0 1250
2019/10/20 04:38:01 BASE 30.94 7 35.19 1 -0.3 100 -0.3 0 0 960.3 NA 0.0000 -SN 9999 0 0 0 1210
2019/10/20 04:39:00 BASE 31.91 4 38.94 1 -0.3 100 -0.3 0 0 960.1 NA 0.0000 -SN 9999 0 0 0 1180
2019/10/20 04:40:00 BASE 31.46 5 38.94 1 -0.3 100 -0.3 0 0 960.4 NA 0.0000 -SN 9999 0 0 0 1280
2019/10/20 04:41:00 BASE 29.67 359 38.94 1 -0.3 100 -0.3 0 0 960.4 NA 0.0000 -SN 9999 0 0 0 1280
2019/10/20 04:42:01 BASE 29.51 354 38.94 1 -0.3 100 -0.3 0 0 960.5 NA 0.0000 -SN 9999 0 0 0 1250
2019/10/20 04:43:00 BASE 28.64 358 38.94 1 -0.3 100 -0.3 0 0 960.6 NA 0.0000 -SN 9999 0 0 0 1180
2019/10/20 04:44:01 BASE 27.90 358 38.94 1 -0.3 100 -0.3 0 0 960.6 NA 0.0000 -SN 9999 0 0 0 1250
2019/10/20 04:45:00 BASE 28.94 359 38.94 1 -0.3 100 -0.3 0 0 960.5 NA 0.0000 -SN 9999 0 0 0 1250
2019/10/20 04:46:01 BASE 30.32 1 38.94 1 -0.3 100 -0.3 0 0 960.5 NA 0.0000 -SN 9999 0 0 0 1180
2019/10/20 04:47:00 BASE 29.61 3 38.94 1 -0.3 100 -0.3 0 0 960.6 NA 0.0000 -SN 9999 0 0 0 1250
2019/10/20 04:48:01 BASE 28.86 4 38.94 1 -0.3 100 -0.3 0 0 960.6 NA 0.0000 -SN 9999 0 0 0 1280
2019/10/20 04:49:00 BASE 30.08 360 35.65 1 -0.3 100 -0.3 0 0 960.4 NA 0.0000 -SN 9999 0 0 0 1380
2019/10/20 04:50:00 BASE 30.09 356 35.65 1 -0.3 100 -0.3 0 0 960.6 NA 0.0000 -SN 9999 0 0 0 1350
2019/10/20 04:51:01 BASE 28.45 357 35.65 1 -0.3 100 -0.3 0 0 960.7 NA 0.0000 -SN 9999 0 0 0 1350
2019/10/20 04:52:01 BASE 28.75 355 35.65 1 -0.3 100 -0.3 0 0 960.6 NA 0.0000 -SN 9999 0 0 0 1380
2019/10/20 04:53:00 BASE 29.52 356 35.65 1 -0.3 100 -0.3 0 0 960.6 NA 0.0000 -SN 9999 0 0 0 1440
2019/10/20 04:54:01 BASE 28.46 352 35.65 1 -0.2 100 -0.2 0 0 960.8 NA 0.0000 -SN 9999 0 0 0 1310
2019/10/20 04:55:00 BASE 28.29 348 35.65 1 -0.2 100 -0.2 0 0 960.8 NA 0.0000 -SN 9999 0 0 0 1210
2019/10/20 04:56:01 BASE 28.67 357 35.65 1 -0.2 100 -0.2 0 0 960.8 NA 0.0000 -SN 9999 0 0 0 1150
2019/10/20 04:57:00 BASE 28.14 359 35.65 1 -0.2 100 -0.2 0 0 960.8 NA 0.0000 -SN 9999 0 0 0 1120
2019/10/20 04:58:00 BASE 28.12 356 35.65 1 -0.2 100 -0.2 0 0 960.9 NA 0.0000 -SN 9999 0 0 0 1210
2019/10/20 04:59:00 BASE 27.12 357 35.50 1 -0.2 100 -0.2 0 0 961.0 NA 0.0000 -SN 9999 0 0 0 1180
2019/10/20 05:00:00 BASE 25.81 357 35.50 1 -0.2 100 -0.2 0 0 961.1 NA 0.0000 -SN 9999 0 0 0 1210
2019/10/20 05:01:00 BASE 26.21 354 35.50 1 -0.2 100 -0.2 0 0 961.0 NA 0.0000 -SN 9999 0 0 0 1180
2019/10/20 05:02:01 BASE 27.86 355 35.50 1 -0.2 100 -0.2 0 0 961.0 NA 0.0000 -SN 9999 0 0 0 1250
2019/10/20 05:03:00 BASE 27.95 358 33.23 355 -0.2 100 -0.2 0 0 961.1 NA 0.0000 -SN 9999 0 0 0 1350
2019/10/20 05:04:01 BASE 26.25 356 33.23 355 -0.2 100 -0.2 0 0 961.2 NA 0.0000 -SN 9999 0 0 0 1150
2019/10/20 05:05:00 BASE 26.51 353 32.51 349 -0.2 100 -0.2 0 0 961.1 NA 0.0000 -SN 9999 0 0 0 1120
2019/10/20 05:06:00 BASE 29.00 1 33.54 343 -0.2 100 -0.2 0 0 960.9 NA 0.0000 -SN 9999 0 0 0 1020
2019/10/20 05:07:00 BASE 29.77 6 33.54 343 -0.2 100 -0.2 0 0 960.9 NA 0.2540 -SN 9999 0 0 0 950
2019/10/20 05:08:01 BASE 29.70 1 33.54 343 -0.2 100 -0.2 0 0 961.0 NA 0.0000 -SN 9999 0 0 0 980
2019/10/20 05:09:01 BASE 29.78 360 33.54 343 -0.2 100 -0.2 0 0 961.0 NA 0.0000 -SN 9999 0 0 0 950
2019/10/20 05:10:00 BASE 29.75 358 33.54 343 -0.2 100 -0.2 0 0 961.0 NA 0.0000 -SN 9999 0 0 0 920
2019/10/20 05:11:00 BASE 28.97 358 33.54 343 -0.2 100 -0.2 0 0 961.2 NA 0.0000 -SN 9999 0 0 0 1020
2019/10/20 05:12:01 BASE 28.98 358 34.00 354 -0.3 100 -0.3 0 0 961.0 NA 0.0000 -SN 9999 0 0 0 1020
2019/10/20 05:13:00 BASE 29.48 0 34.00 354 -0.3 100 -0.3 0 0 961.1 NA 0.0000 -SN 9999 0 0 0 980
2019/10/20 05:14:00 BASE 29.41 3 34.00 354 -0.3 100 -0.3 0 0 961.1 NA 0.0000 -SN 9999 0 0 0 920
2019/10/20 05:15:00 BASE 29.73 3 34.00 354 -0.3 100 -0.3 0 0 961.1 NA 0.0000 -SN 9999 0 0 0 980
2019/10/20 05:16:01 BASE 30.04 3 34.36 3 -0.3 100 -0.3 0 0 961.1 NA 0.0000 -SN 9999 0 0 0 920
2019/10/20 05:17:00 BASE 31.69 3 36.58 6 -0.3 100 -0.3 0 0 960.9 NA 0.0000 -SN 9999 0 0 0 920
2019/10/20 05:18:01 BASE 32.40 1 36.58 6 -0.3 100 -0.3 0 0 961.0 NA 0.0000 -SN 9999 0 0 0 1020
2019/10/20 05:19:00 BASE 31.01 0 36.58 6 -0.3 100 -0.3 0 0 961.1 NA 0.0000 -SN 9999 0 0 0 1120
2019/10/20 05:20:00 BASE 30.53 360 36.58 6 -0.3 100 -0.3 0 0 961.1 NA 0.0000 -SN 9999 0 0 0 1120
2019/10/20 05:21:00 BASE 30.42 357 36.58 6 -0.3 100 -0.3 0 0 961.2 NA 0.0000 -SN 9999 0 0 0 1310
2019/10/20 05:22:01 BASE 29.62 358 36.58 6 -0.3 100 -0.3 0 0 961.2 NA 0.0000 -SN 9999 0 0 0 1410
2019/10/20 05:23:00 BASE 30.66 360 36.58 6 -0.3 100 -0.3 0 0 961.1 NA 0.0000 -SN 9999 0 0 0 1350
2019/10/20 05:24:01 BASE 29.89 357 36.58 6 -0.3 100 -0.3 0 0 961.3 NA 0.0000 -SN 9999 0 0 0 1250
2019/10/20 05:25:00 BASE 28.78 360 36.58 6 -0.3 100 -0.3 0 0 961.2 NA 0.0000 -SN 9999 0 0 0 1150
2019/10/20 05:26:01 BASE 29.58 4 36.58 6 -0.3 100 -0.3 0 0 961.2 NA 0.0000 -SN 9999 0 0 0 1180
2019/10/20 05:27:00 BASE 28.86 358 35.60 344 -0.3 100 -0.3 0 0 961.3 NA 0.0000 -SN 9999 0 0 0 1250
2019/10/20 05:28:01 BASE 29.61 356 35.39 1 -0.3 100 -0.3 0 0 961.2 NA 0.0000 -SN 9999 0 0 0 1380
2019/10/20 05:29:00 BASE 30.92 359 34.21 6 -0.3 100 -0.3 0 0 961.2 NA 0.0000 9999 0 0 0 1480
2019/10/20 05:30:00 BASE 30.29 359 34.21 6 -0.3 100 -0.3 0 0 961.3 NA 0.0000 9999 0 0 0 1610
2019/10/20 05:31:00 BASE 29.32 355 34.21 6 -0.3 100 -0.3 0 0 961.3 NA 0.0000 9999 0 0 0 1640
2019/10/20 05:32:00 BASE 28.98 353 34.21 6 -0.3 100 -0.3 0 0 961.3 NA 0.0000 9999 0 0 0 1570
2019/10/20 05:33:00 BASE 30.50 357 36.01 351 -0.3 100 -0.3 0 0 961.2 NA 0.0000 9999 0 0 0 1510
2019/10/20 05:34:00 BASE 31.59 3 36.01 351 -0.3 100 -0.3 0 0 961.1 NA 0.0000 -SN 9999 0 0 0 1570
2019/10/20 05:35:00 BASE 30.95 5 36.01 351 -0.3 100 -0.3 0 0 961.2 NA 0.0000 -SN 9999 0 0 0 1870
2019/10/20 05:36:00 BASE 30.43 1 36.01 351 -0.3 100 -0.3 0 0 961.3 NA 0.0000 -SN 9999 0 0 0 2200
2019/10/20 05:37:00 BASE 30.10 1 36.01 351 -0.3 100 -0.3 0 0 961.3 NA 0.0000 -SN 9999 0 0 0 2530
2019/10/20 05:38:01 BASE 29.45 358 36.01 351 -0.3 100 -0.3 0 0 961.4 NA 0.0000 -SN 9999 0 0 0 2620
2019/10/20 05:39:00 BASE 30.35 0 36.63 353 -0.2 100 -0.2 0 0 961.2 NA 0.0000 -SN 9999 0 0 0 2620
2019/10/20 05:40:00 BASE 32.60 2 37.30 349 -0.2 100 -0.2 0 0 961.1 NA 0.2540 -SN 9999 0 0 0 2460
2019/10/20 05:41:01 BASE 31.71 360 37.30 349 -0.2 100 -0.2 0 0 961.4 NA 0.0000 -SN 9999 0 0 0 2720
2019/10/20 05:42:01 BASE 31.88 358 37.30 349 -0.2 100 -0.2 0 0 961.1 NA 0.0000 -SN 9999 0 0 0 2920
2019/10/20 05:43:00 BASE 33.10 0 37.30 349 -0.2 100 -0.2 0 0 961.3 NA 0.0000 9999 0 0 0 2850
2019/10/20 05:44:01 BASE 31.64 356 37.30 349 -0.2 100 -0.2 0 0 961.4 NA 0.0000 9999 0 0 0 2890
2019/10/20 05:45:00 BASE 31.57 353 37.30 349 -0.2 100 -0.2 0 0 961.3 NA 0.0000 9999 0 0 0 2950
2019/10/20 05:46:01 BASE 32.32 359 37.30 349 -0.2 100 -0.2 0 0 961.4 NA 0.0000 9999 0 0 0 2950
2019/10/20 05:47:00 BASE 32.54 1 37.30 349 -0.2 100 -0.2 0 0 961.4 NA 0.0000 9999 0 0 0 2790
2019/10/20 05:48:00 BASE 31.18 1 37.30 349 -0.2 100 -0.2 0 0 961.5 NA 0.0000 9999 0 0 0 2760
2019/10/20 05:49:00 BASE 30.24 2 37.30 349 -0.2 100 -0.2 0 0 961.5 NA 0.0000 9999 0 0 0 2890
2019/10/20 05:50:00 BASE 29.43 2 36.58 10 -0.2 100 -0.2 0 0 961.7 NA 0.0000 -SN 9999 0 0 0 2950
2019/10/20 05:51:00 BASE 29.42 1 36.58 10 -0.2 100 -0.2 0 0 961.5 NA 0.0000 -SN 9999 0 0 0 3220
2019/10/20 05:52:01 BASE 30.99 359 36.06 5 -0.2 100 -0.2 0 0 961.6 NA 0.0000 -SN 9999 0 0 0 3510
2019/10/20 05:53:00 BASE 30.58 359 36.06 5 -0.2 100 -0.2 0 0 961.7 NA 0.0000 -SN 9999 0 0 0 3540
2019/10/20 05:54:00 BASE 29.69 359 36.06 5 -0.2 100 -0.2 0 0 961.7 NA 0.0000 -SN 9999 0 0 0 3540
2019/10/20 05:55:00 BASE 29.52 1 36.06 5 -0.1 100 -0.1 0 0 961.7 NA 0.0000 -SN 9999 0 0 0 3540
2019/10/20 05:56:00 BASE 28.72 5 36.06 5 -0.1 100 -0.1 0 0 961.8 NA 0.0000 -SN 9999 0 0 0 3810
2019/10/20 05:57:00 BASE 28.64 2 34.57 354 -0.1 100 -0.1 0 0 961.7 NA 0.0000 -SN 9999 0 0 0 3870
2019/10/20 05:58:01 BASE 28.37 356 34.57 354 -0.1 100 -0.1 0 0 961.9 NA 0.0000 9999 0 0 0 3770
2019/10/20 05:59:00 BASE 27.44 356 34.57 354 -0.1 100 -0.1 0 0 961.9 NA 0.0000 9999 0 0 0 3380
2019/10/20 06:00:00 BASE 27.84 359 34.57 354 -0.1 100 -0.1 0 0 961.9 NA 0.0000 9999 0 0 0 3280
2019/10/20 06:01:00 BASE 27.55 357 34.26 2 -0.1 100 -0.1 0 0 962.0 NA 0.0000 9999 0 0 0 3280
2019/10/20 06:02:00 BASE 27.79 357 32.92 346 -0.1 100 -0.1 0 0 961.9 NA 0.0000 9999 0 0 0 2890
2019/10/20 06:03:00 BASE 27.00 358 32.92 346 -0.1 100 -0.1 0 0 962.1 NA 0.0000 9999 0 0 0 2690
2019/10/20 06:04:00 BASE 26.37 356 32.10 346 -0.1 100 -0.1 0 0 962.0 NA 0.0000 9999 0 0 0 2620
2019/10/20 06:05:00 BASE 26.82 357 32.10 346 -0.1 100 -0.1 0 0 962.1 NA 0.0000 9999 0 0 0 2620
2019/10/20 06:06:00 BASE 26.77 1 32.10 346 -0.1 100 -0.1 0 0 962.1 NA 0.0000 9999 0 0 0 2590
2019/10/20 06:07:00 BASE 27.21 359 32.10 346 -0.1 100 -0.1 0 0 962.1 NA 0.0000 9999 0 0 0 3120
2019/10/20 06:08:00 BASE 26.98 0 32.10 346 -0.1 100 -0.1 0 0 962.1 NA 0.0000 9999 260 0 0 0
2019/10/20 06:09:00 BASE 26.86 2 32.10 346 -0.1 100 -0.1 0 0 962.1 NA 0.0000 9999 0 0 0 2660
2019/10/20 06:10:00 BASE 27.98 2 33.44 7 -0.1 100 -0.1 0 0 962.0 NA 0.0000 9999 0 0 0 2920
2019/10/20 06:11:00 BASE 28.60 4 33.44 7 -0.1 100 -0.1 0 0 962.1 NA 0.0000 9999 0 0 0 3280
2019/10/20 06:12:00 BASE 28.75 3 33.44 7 -0.1 100 -0.1 0 0 962.0 NA 0.0000 9999 0 0 0 3350
2019/10/20 06:13:00 BASE 28.60 4 33.44 7 -0.1 100 -0.1 0 0 962.1 NA 0.0000 9999 0 0 0 3120
2019/10/20 06:14:00 BASE 28.07 5 33.44 7 -0.1 100 -0.1 0 0 962.0 NA 0.0000 9999 0 0 0 3510
2019/10/20 06:15:00 BASE 28.94 5 33.44 7 -0.1 100 -0.1 0 0 962.0 NA 0.0000 9999 0 0 0 3840
2019/10/20 06:16:00 BASE 30.30 3 34.88 1 -0.1 100 -0.1 0 0 962.0 NA 0.0000 9999 0 0 0 3610
2019/10/20 06:17:00 BASE 31.41 4 34.88 1 -0.0 100 -0.0 0 0 961.9 NA 0.0000 9999 0 0 0 3540
2019/10/20 06:18:00 BASE 31.19 3 34.88 1 0.0 100 0.0 0 0 962.0 NA 0.0000 9999 0 0 0 3940
2019/10/20 06:19:00 BASE 30.01 4 34.88 1 0.0 100 0.0 0 0 962.1 NA 0.0000 9999 0 0 0 4070
2019/10/20 06:20:00 BASE 29.89 6 34.88 1 0.1 100 0.1 0 0 962.1 NA 0.0000 9999 0 0 0 6230
2019/10/20 06:21:00 BASE 29.18 2 34.88 1 0.1 100 0.1 0 0 962.2 NA 0.0000 9999 0 0 0 6140
2019/10/20 06:22:00 BASE 28.93 3 34.88 1 0.1 100 0.1 0 0 962.2 NA 0.0000 9999 2620 0 0 0
2019/10/20 06:23:00 BASE 29.66 7 34.88 1 0.1 100 0.1 0 0 962.1 NA 0.0000 8000 2490 0 0 0
2019/10/20 06:24:00 BASE 27.61 9 34.88 1 0.1 100 0.1 0 0 962.3 NA 0.0000 9999 0 0 0 4530
2019/10/20 06:25:00 BASE 26.79 8 34.88 1 0.1 100 0.1 0 0 962.2 NA 0.0000 9999 2660 0 0 0
2019/10/20 06:26:00 BASE 29.16 6 34.78 4 0.1 100 0.1 0 0 962.1 NA 0.0000 9999 1870 0 0 0
2019/10/20 06:27:00 BASE 29.71 6 33.90 14 0.1 100 0.1 0 0 962.2 NA 0.0000 9999 2200 0 0 0
2019/10/20 06:28:00 BASE 27.85 5 33.90 14 0.2 100 0.2 0 0 962.4 NA 0.0000 9999 1840 2720 0 0
2019/10/20 06:29:00 BASE 27.41 5 33.90 14 0.2 100 0.2 0 0 962.3 NA 0.0000 9999 1410 0 0 0
2019/10/20 06:30:00 BASE 27.13 3 33.90 14 0.2 100 0.2 0 0 962.4 NA 0.0000 9999 690 2360 0 0
2019/10/20 06:31:00 BASE 26.09 4 33.90 14 0.2 100 0.2 0 0 962.4 NA 0.0000 9999 2100 0 0 0
2019/10/20 06:32:00 BASE 26.34 6 33.90 14 0.2 100 0.2 0 0 962.5 NA 0.0000 9999 1900 4760 0 0
2019/10/20 06:33:00 BASE 27.35 6 33.90 14 0.2 100 0.2 0 0 962.4 NA 0.0000 9999 2170 4590 0 0
2019/10/20 06:34:00 BASE 28.14 9 33.90 14 0.2 100 0.2 0 0 962.4 NA 0.0000 9999 2230 4230 0 0
2019/10/20 06:35:00 BASE 28.46 9 33.90 14 0.2 100 0.2 0 0 962.3 NA 0.0000 9999 1970 0 0 0
2019/10/20 06:36:00 BASE 29.63 7 33.90 14 0.2 100 0.2 0 0 962.2 NA 0.0000 9999 2230 4040 0 0
2019/10/20 06:37:00 BASE 29.93 6 32.56 20 0.2 100 0.2 0 0 962.3 NA 0.0000 9999 2000 0 0 0
2019/10/20 06:38:00 BASE 29.11 4 32.56 20 0.2 100 0.2 0 0 962.4 NA 0.0000 9999 2000 0 0 0
2019/10/20 06:39:00 BASE 28.97 5 32.92 349 0.2 100 0.2 0 0 962.3 NA 0.0000 9999 560 0 0 0
2019/10/20 06:40:00 BASE 28.95 4 32.92 349 0.2 100 0.2 0 0 962.4 NA 0.0000 9999 2530 3280 0 0
2019/10/20 06:41:00 BASE 28.67 4 32.92 349 0.2 100 0.2 0 0 962.5 NA 0.0000 9999 2130 3480 0 0
2019/10/20 06:42:00 BASE 27.19 6 32.92 349 0.2 100 0.2 0 0 962.6 NA 0.0000 9999 3510 0 0 0
2019/10/20 06:43:00 BASE 26.92 6 32.92 349 0.2 100 0.2 0 0 962.5 NA 0.0000 9999 3870 0 0 0
2019/10/20 06:44:00 BASE 28.32 6 32.92 349 0.2 100 0.2 0 0 962.4 NA 0.0000 9999 1940 3710 0 0
2019/10/20 06:45:00 BASE 27.93 6 32.92 349 0.2 100 0.2 0 0 962.5 NA 0.0000 9999 3940 0 0 0
2019/10/20 06:46:00 BASE 27.54 7 32.92 349 0.2 100 0.2 0 0 962.5 NA 0.0000 9999 4070 0 0 0
2019/10/20 06:47:00 BASE 28.18 6 32.92 349 0.2 100 0.2 0 0 962.5 NA 0.0000 9999 3810 0 0 0
2019/10/20 06:48:00 BASE 27.75 5 32.92 349 0.1 100 0.1 0 0 962.6 NA 0.0000 9999 3900 0 0 0
2019/10/20 06:49:00 BASE 27.62 3 32.36 5 0.1 100 0.1 0 0 962.6 NA 0.0000 9999 3810 0 0 0
2019/10/20 06:50:00 BASE 27.73 1 32.36 5 0.1 100 0.1 0 0 962.6 NA 0.0000 9999 3970 0 0 0
2019/10/20 06:51:00 BASE 26.26 4 32.36 5 0.1 100 0.1 0 0 962.7 NA 0.0000 9999 3810 0 0 0
2019/10/20 06:52:00 BASE 26.05 6 32.36 5 0.1 100 0.1 0 0 962.7 NA 0.0000 9999 3770 0 0 0
2019/10/20 06:53:00 BASE 27.05 4 30.76 3 0.1 100 0.1 0 0 962.6 NA 0.0000 9999 3810 0 0 0
2019/10/20 06:54:00 BASE 26.75 356 30.76 3 0.1 100 0.1 0 0 962.7 NA 0.0000 9999 3710 0 0 0
2019/10/20 06:55:00 BASE 26.61 357 30.76 3 0.1 100 0.1 0 0 962.6 NA 0.0000 9999 3810 0 0 0
2019/10/20 06:56:00 BASE 27.84 2 32.10 2 0.2 100 0.2 0 0 962.6 NA 0.0000 9999 3840 0 0 0
2019/10/20 06:57:00 BASE 27.67 1 32.10 2 0.2 100 0.2 0 0 962.7 NA 0.0000 9999 4100 0 0 0
2019/10/20 06:58:00 BASE 26.29 358 32.10 2 0.2 100 0.2 0 0 962.9 NA 0.0000 9999 3670 4200 0 0
2019/10/20 06:59:00 BASE 25.33 358 32.10 2 0.2 100 0.2 0 0 962.9 NA 0.0000 9999 3380 4300 0 0
2019/10/20 07:00:00 BASE 24.72 360 32.10 2 0.2 100 0.2 0 0 962.9 NA 0.0000 9999 3380 4430 0 0
2019/10/20 07:01:00 BASE 25.09 1 32.10 2 0.2 100 0.2 0 0 962.9 NA 0.0000 9999 3410 4270 0 0
2019/10/20 07:02:00 BASE 25.16 3 32.10 2 0.2 100 0.2 0 0 962.9 NA 0.0000 9999 3280 4130 0 0
2019/10/20 07:03:00 BASE 25.99 2 32.10 2 0.2 100 0.2 0 0 962.8 NA 0.0000 9999 3380 3940 0 0
2019/10/20 07:04:00 BASE 27.28 3 32.10 2 0.2 99 0.1 0 0 962.8 NA 0.0000 9999 3410 3900 0 0
2019/10/20 07:05:00 BASE 27.19 2 32.10 2 0.2 99 0.1 0 0 962.9 NA 0.0000 9999 3380 3840 0 0
2019/10/20 07:06:00 BASE 27.06 360 31.07 6 0.2 99 0.1 0 0 962.9 NA 0.0000 9999 3640 0 0 0
2019/10/20 07:07:00 BASE 27.89 360 31.07 6 0.2 99 0.1 0 0 962.9 NA 0.0000 9999 3220 3640 0 0
2019/10/20 07:08:00 BASE 28.19 3 32.05 360 0.2 99 0.1 0 0 962.9 NA 0.0000 9999 3640 0 0 0
2019/10/20 07:09:00 BASE 28.01 3 32.05 360 0.2 99 0.1 0 0 962.9 NA 0.0000 9999 3840 0 0 0
2019/10/20 07:10:00 BASE 27.97 4 32.05 360 0.2 99 0.1 0 0 962.9 NA 0.0000 9999 3810 0 0 0
2019/10/20 07:11:00 BASE 28.09 1 32.05 360 0.2 99 0.0 0 0 962.9 NA 0.0000 9999 3670 0 0 0
2019/10/20 07:12:00 BASE 27.70 2 32.05 360 0.2 99 0.0 0 0 963.0 NA 0.0000 9999 3670 0 0 0
2019/10/20 07:13:00 BASE 27.04 357 32.05 360 0.2 98 -0.0 0 0 963.0 NA 0.0000 9999 3770 0 0 0
2019/10/20 07:14:00 BASE 26.21 352 32.05 360 0.2 98 -0.1 0 0 963.2 NA 0.0000 9999 3740 0 0 0
2019/10/20 07:15:00 BASE 24.98 359 32.05 360 0.2 98 -0.1 0 0 963.1 NA 0.0000 9999 3640 0 0 0
2019/10/20 07:16:00 BASE 23.52 359 32.05 360 0.2 98 -0.1 0 0 963.3 NA 0.0000 9999 3670 0 0 0
2019/10/20 07:17:00 BASE 23.25 359 32.05 360 0.2 98 -0.1 0 0 963.2 NA 0.0000 9999 3610 0 0 0
2019/10/20 07:18:00 BASE 23.29 1 31.28 4 0.2 98 -0.1 0 0 963.2 NA 0.0000 9999 3580 4330 0 0
2019/10/20 07:19:00 BASE 23.61 0 30.71 4 0.2 98 -0.1 0 0 963.1 NA 0.0000 9999 3540 0 0 0
2019/10/20 07:20:00 BASE 25.76 3 30.71 4 0.2 98 -0.1 0 0 963.0 NA 0.0000 9999 3540 0 0 0
2019/10/20 07:21:00 BASE 26.71 4 29.89 8 0.2 98 -0.1 0 0 963.0 NA 0.0000 9999 3380 0 0 0
2019/10/20 07:22:00 BASE 27.41 5 30.35 360 0.2 98 -0.0 0 0 962.9 NA 0.0000 9999 2990 3580 0 0
2019/10/20 07:23:00 BASE 28.32 6 30.35 360 0.2 99 0.0 0 0 962.9 NA 0.0000 9999 2990 0 0 0
2019/10/20 07:24:00 BASE 28.43 6 30.35 360 0.2 99 0.0 0 0 962.9 NA 0.0000 9999 3220 0 0 0
2019/10/20 07:25:00 BASE 27.81 6 30.35 360 0.2 99 0.0 0 0 963.0 NA 0.0000 9999 2850 0 0 0
2019/10/20 07:26:00 BASE 27.58 6 31.28 5 0.2 99 0.0 0 0 962.9 NA 0.0000 9999 3020 0 0 0
2019/10/20 07:27:00 BASE 28.67 7 32.10 7 0.2 98 -0.0 0 0 962.9 NA 0.0000 9999 2950 0 0 0
2019/10/20 07:28:00 BASE 29.72 7 32.10 7 0.2 98 -0.0 0 0 962.8 NA 0.0000 9999 2660 3180 0 0
2019/10/20 07:29:00 BASE 28.56 8 32.10 7 0.2 98 -0.1 0 0 963.0 NA 0.0000 9999 3150 5090 0 0
2019/10/20 07:30:00 BASE 27.24 9 32.10 7 0.2 98 -0.1 0 0 963.0 NA 0.0000 9999 3350 3770 0 0
2019/10/20 07:31:00 BASE 27.32 6 32.10 7 0.2 98 -0.1 0 0 963.1 NA 0.0000 9999 3610 0 0 0
2019/10/20 07:32:00 BASE 26.76 6 32.10 7 0.2 98 -0.1 0 0 963.1 NA 0.0000 9999 3540 0 0 0
2019/10/20 07:33:00 BASE 26.01 7 32.10 7 0.2 98 -0.1 0 0 963.1 NA 0.0000 9999 3740 0 0 0
2019/10/20 07:34:00 BASE 26.21 7 32.10 7 0.2 98 -0.1 0 0 963.1 NA 0.0000 9999 3640 0 0 0
2019/10/20 07:35:00 BASE 27.74 7 32.41 6 0.2 98 -0.0 0 0 962.9 NA 0.0000 9999 3670 0 0 0
2019/10/20 07:36:00 BASE 28.91 7 32.41 6 0.2 99 0.0 0 0 962.9 NA 0.0000 9999 3580 0 0 0
2019/10/20 07:37:00 BASE 28.72 9 32.41 6 0.2 99 0.1 0 0 962.9 NA 0.0000 9999 3540 0 0 0
2019/10/20 07:38:00 BASE 28.15 11 32.41 6 0.2 99 0.1 0 0 963.0 NA 0.0000 9999 3450 0 0 0
2019/10/20 07:39:00 BASE 27.61 11 32.41 6 0.3 99 0.1 0 0 963.1 NA 0.0000 9999 3380 0 0 0
2019/10/20 07:40:00 BASE 27.93 9 32.41 6 0.3 99 0.1 0 0 963.0 NA 0.0000 9999 3250 0 0 0
2019/10/20 07:41:00 BASE 27.69 8 32.41 6 0.3 99 0.1 0 0 963.1 NA 0.0000 9999 2400 0 0 0
2019/10/20 07:42:00 BASE 26.49 6 32.41 6 0.3 99 0.1 0 0 963.2 NA 0.0000 9999 1770 3310 0 0
2019/10/20 07:43:00 BASE 28.22 6 32.41 6 0.3 99 0.1 0 0 962.9 NA 0.0000 9999 890 0 0 0
2019/10/20 07:44:00 BASE 29.51 9 32.41 6 0.3 99 0.1 0 0 963.0 NA 0.0000 9999 890 3250 0 0
2019/10/20 07:45:00 BASE 27.80 10 32.15 13 0.3 99 0.1 0 0 963.1 NA 0.0000 9999 3310 0 0 0
2019/10/20 07:46:01 BASE 27.33 10 32.15 13 0.3 99 0.1 0 0 963.0 NA 0.0000 9999 520 3220 0 0
2019/10/20 07:47:01 BASE 27.73 8 32.15 13 0.3 99 0.1 0 0 963.1 NA 0.0000 9999 390 0 0 0
2019/10/20 07:48:00 BASE 26.04 5 32.15 13 0.3 99 0.1 0 0 963.3 NA 0.0000 UP 9999 330 2890 0 0
2019/10/20 07:49:00 BASE 24.92 4 32.15 13 0.3 99 0.2 0 0 963.2 NA 0.0000 UP 9999 300 2620 0 0
2019/10/20 07:50:00 BASE 24.43 6 32.15 13 0.3 99 0.2 0 0 963.3 NA 0.0000 UP 9999 360 0 0 0
2019/10/20 07:51:00 BASE 23.77 8 32.15 13 0.3 100 0.3 0 0 963.2 NA 0.0000 UP 9999 660 0 0 0
2019/10/20 07:52:00 BASE 24.88 7 32.15 13 0.3 100 0.3 0 0 963.1 NA 0.0000 UP 9999 430 1410 0 0
2019/10/20 07:53:00 BASE 25.51 6 32.15 13 0.4 100 0.4 0 0 963.2 NA 0.0000 UP 9999 360 0 0 0
2019/10/20 07:54:00 BASE 25.41 6 30.35 6 0.4 100 0.4 0 0 963.2 NA 0.0000 UP 9999 460 2070 0 0
2019/10/20 07:55:00 BASE 25.25 9 30.35 6 0.4 100 0.4 0 0 963.2 NA 0.0000 UP 9999 560 0 0 0
2019/10/20 07:56:00 BASE 26.23 8 30.35 6 0.4 100 0.4 0 0 963.1 NA 0.0000 UP 9999 690 0 0 0
2019/10/20 07:57:00 BASE 26.90 5 29.58 6 0.4 100 0.4 0 0 963.1 NA 0.0000 UP 9999 0 0 0 4760
2019/10/20 07:58:00 BASE 26.76 5 29.58 6 0.4 100 0.4 0 0 963.1 NA 0.0000 UP 9999 390 0 0 0
2019/10/20 07:59:00 BASE 26.70 6 29.58 6 0.4 100 0.4 0 0 963.1 NA 0.0000 UP 9999 390 0 0 0
2019/10/20 08:00:00 BASE 25.83 9 29.58 6 0.3 100 0.3 0 0 963.1 NA 0.0000 UP 9999 430 0 0 0
2019/10/20 08:01:00 BASE 24.92 6 29.58 6 0.3 100 0.3 0 0 963.1 NA 0.0000 UP 9999 590 3970 0 0
2019/10/20 08:02:00 BASE 23.36 3 29.58 6 0.3 100 0.3 0 0 963.2 NA 0.0000 UP 9999 460 1540 0 0
2019/10/20 08:03:00 BASE 24.46 4 29.58 6 0.3 100 0.3 0 0 962.9 NA 0.0000 UP 9999 1610 0 0 0
2019/10/20 08:04:00 BASE 27.26 4 29.58 6 0.2 100 0.2 0 0 962.9 NA 0.0000 9999 4230 0 0 0
2019/10/20 08:05:00 BASE 27.31 1 29.58 6 0.2 100 0.2 0 0 963.0 NA 0.0000 9999 2820 0 0 0
2019/10/20 08:06:00 BASE 26.53 1 29.48 2 0.2 100 0.2 0 0 963.1 NA 0.0000 9999 520 4040 0 0
2019/10/20 08:07:00 BASE 25.24 359 29.48 2 0.2 100 0.2 0 0 963.1 NA 0.0000 9999 360 4820 0 0
2019/10/20 08:08:00 BASE 25.08 355 29.48 2 0.2 100 0.2 0 0 963.1 NA 0.0000 9999 390 0 0 0
2019/10/20 08:09:00 BASE 25.06 356 29.17 3 0.2 100 0.2 0 0 963.1 NA 0.0000 9999 390 0 0 0
2019/10/20 08:10:00 BASE 24.80 350 29.43 353 0.2 100 0.2 0 0 963.1 NA 0.0000 9999 360 0 0 0
2019/10/20 08:11:00 BASE 25.67 353 29.43 353 0.2 100 0.2 1 0 963.0 NA 0.0000 9999 0 0 0 4590
2019/10/20 08:12:00 BASE 27.16 2 30.97 1 0.3 100 0.3 1 0 962.8 NA 0.0000 9999 2000 4170 0 0
2019/10/20 08:13:00 BASE 27.46 3 30.97 1 0.3 100 0.3 1 0 963.0 NA 0.0000 9999 4330 0 0 0
2019/10/20 08:14:00 BASE 24.85 2 30.97 1 0.3 100 0.3 1 0 963.1 NA 0.0000 9999 1970 4170 0 0
2019/10/20 08:15:00 BASE 23.12 360 30.97 1 0.3 100 0.3 1 0 963.2 NA 0.0000 9999 1570 0 0 0
2019/10/20 08:16:00 BASE 24.65 1 30.97 1 0.3 100 0.3 1 0 963.0 NA 0.0000 9999 4590 0 0 0
2019/10/20 08:17:00 BASE 25.92 0 30.97 1 0.3 100 0.3 1 0 963.1 NA 0.0000 9999 1570 0 0 0
2019/10/20 08:18:00 BASE 25.15 356 30.97 1 0.3 100 0.3 1 0 963.2 NA 0.0000 9999 1800 0 0 0
2019/10/20 08:19:00 BASE 24.45 357 30.97 1 0.3 100 0.3 1 0 963.2 NA 0.0000 9999 1510 0 0 0
2019/10/20 08:20:00 BASE 22.42 360 30.97 1 0.3 100 0.3 1 0 963.4 NA 0.0000 9999 1480 0 0 0
2019/10/20 08:21:00 BASE 21.69 359 30.97 1 0.2 100 0.2 1 0 963.3 NA 0.0000 9999 1480 0 0 0
2019/10/20 08:22:00 BASE 22.40 359 29.63 147 0.2 100 0.2 1 0 963.3 NA 0.0000 9999 590 4000 0 0
2019/10/20 08:23:00 BASE 22.64 1 28.65 10 0.2 100 0.2 1 0 963.2 NA 0.0000 9999 1380 3970 0 0
2019/10/20 08:24:00 BASE 23.82 5 28.65 10 0.2 100 0.2 1 0 963.2 NA 0.0000 9999 1510 3900 0 0
2019/10/20 08:25:00 BASE 23.90 4 28.65 10 0.2 100 0.2 1 0 963.3 NA 0.0000 9999 3870 0 0 0
2019/10/20 08:26:00 BASE 22.14 360 27.57 2 0.2 100 0.2 1 0 963.4 NA 0.0000 9999 1480 3670 0 0
2019/10/20 08:27:00 BASE 21.08 359 27.57 2 0.2 100 0.2 1 0 963.4 NA 0.0000 9999 3410 0 0 0
2019/10/20 08:28:00 BASE 20.89 354 26.70 11 0.2 100 0.2 1 0 963.5 NA 0.0000 9999 1900 0 0 0
2019/10/20 08:29:00 BASE 21.31 349 26.55 3 0.1 100 0.1 1 0 963.5 NA 0.0000 9999 1540 3380 0 0
2019/10/20 08:30:00 BASE 22.60 350 26.55 3 0.1 100 0.1 1 0 963.5 NA 0.0000 9999 750 0 0 0
2019/10/20 08:31:00 BASE 22.19 355 26.55 3 0.1 100 0.1 2 0 963.6 NA 0.0000 9999 850 1870 0 0
2019/10/20 08:32:00 BASE 21.68 356 26.55 3 0.1 100 0.1 2 0 963.5 NA 0.0000 9999 4130 0 0 0
2019/10/20 08:33:00 BASE 21.70 359 25.98 5 0.1 100 0.1 2 0 963.6 NA 0.0000 9999 4040 0 0 0
2019/10/20 08:34:00 BASE 21.26 2 25.98 5 0.1 100 0.1 2 0 963.6 NA 0.0000 9999 3020 3940 0 0
2019/10/20 08:35:00 BASE 21.50 359 25.67 360 0.1 100 0.1 2 0 963.6 NA 0.0000 9999 1800 0 0 0
2019/10/20 08:36:00 BASE 20.80 354 25.67 360 0.1 100 0.1 2 0 963.6 NA 0.0000 9999 3580 0 0 0
2019/10/20 08:37:00 BASE 19.64 352 25.67 360 0.1 100 0.1 2 0 963.6 NA 0.0000 9999 920 3180 0 0
2019/10/20 08:38:00 BASE 21.17 354 25.67 360 0.1 100 0.1 2 0 963.5 NA 0.0000 9999 2030 0 0 0
2019/10/20 08:39:00 BASE 23.23 352 26.65 3 0.1 100 0.1 3 0 963.4 NA 0.0000 9999 1350 0 0 0
2019/10/20 08:40:00 BASE 21.85 349 26.65 3 0.1 100 0.1 3 0 963.6 NA 0.0000 9999 3450 0 0 0
2019/10/20 08:41:00 BASE 21.79 354 26.65 3 0.1 100 0.1 3 0 963.4 NA 0.0000 9999 3640 0 0 0
2019/10/20 08:42:00 BASE 22.46 359 26.65 3 0.1 100 0.1 3 0 963.5 NA 0.0000 9999 3580 0 0 0
2019/10/20 08:43:00 BASE 22.37 358 26.65 3 0.1 100 0.1 3 0 963.4 NA 0.0000 9999 3580 0 0 0
2019/10/20 08:44:00 BASE 22.72 359 26.65 3 0.1 100 0.1 3 0 963.5 NA 0.0000 9999 3810 0 0 0
2019/10/20 08:45:00 BASE 23.05 359 26.85 354 0.1 100 0.1 4 0 963.4 NA 0.0000 9999 3740 0 0 0
2019/10/20 08:46:00 BASE 22.97 353 26.85 354 0.1 100 0.1 4 0 963.5 NA 0.0000 9999 4230 0 0 0
2019/10/20 08:47:00 BASE 21.53 353 26.85 354 0.1 100 0.1 4 0 963.5 NA 0.0000 9999 3970 4690 0 0
2019/10/20 08:48:00 BASE 23.14 358 30.61 360 0.1 100 0.1 4 0 963.3 NA 0.0000 9999 4130 0 0 0
2019/10/20 08:49:00 BASE 24.76 358 30.61 360 0.1 100 0.1 4 0 963.4 NA 0.0000 9999 4490 0 0 0
2019/10/20 08:50:00 BASE 23.59 357 30.61 360 0.1 100 0.1 4 0 963.5 NA 0.0000 9999 4000 0 0 0
2019/10/20 08:51:00 BASE 22.32 356 30.61 360 0.1 100 0.1 4 0 963.5 NA 0.0000 9999 4000 0 0 0
2019/10/20 08:52:00 BASE 22.95 354 30.61 360 0.1 100 0.1 4 0 963.4 NA 0.0000 9999 4200 0 0 0
2019/10/20 08:53:00 BASE 22.76 350 30.61 360 0.2 100 0.2 5 0 963.5 NA 0.0000 9999 4000 0 0 0
2019/10/20 08:54:00 BASE 20.80 351 30.61 360 0.2 100 0.2 5 0 963.6 NA 0.0000 9999 3940 0 0 0
2019/10/20 08:55:00 BASE 20.39 358 30.61 360 0.2 100 0.2 5 0 963.5 NA 0.0000 9999 4070 0 0 0
2019/10/20 08:56:00 BASE 21.61 360 30.61 360 0.2 100 0.2 5 0 963.5 NA 0.0000 9999 3940 0 0 0
2019/10/20 08:57:00 BASE 21.71 356 30.61 360 0.2 100 0.2 5 0 963.5 NA 0.0000 9999 3870 0 0 0
2019/10/20 08:58:00 BASE 22.56 348 28.55 14 0.2 100 0.2 6 0 963.3 NA 0.0000 9999 3900 0 0 0
2019/10/20 08:59:00 BASE 25.41 350 30.40 360 0.2 100 0.2 6 0 963.2 NA 0.0000 9999 4170 0 0 0
2019/10/20 09:00:00 BASE 25.60 359 30.40 360 0.2 100 0.2 7 0 963.3 NA 0.0000 9999 4070 0 0 0
2019/10/20 09:01:00 BASE 24.83 359 30.40 360 0.2 100 0.2 7 0 963.3 NA 0.0000 9999 4100 0 0 0
2019/10/20 09:02:00 BASE 24.23 1 30.40 360 0.2 100 0.2 7 0 963.3 NA 0.0000 9999 4070 0 0 0
2019/10/20 09:03:00 BASE 25.43 4 30.40 360 0.2 100 0.2 7 0 963.2 NA 0.0000 9999 4070 0 0 0
2019/10/20 09:04:00 BASE 27.69 3 30.40 360 0.2 100 0.2 7 0 963.1 NA 0.0000 9999 4360 0 0 0
2019/10/20 09:05:00 BASE 27.31 3 30.40 360 0.2 100 0.2 8 0 963.1 NA 0.0000 9999 4530 0 0 0
2019/10/20 09:06:00 BASE 26.20 360 30.40 360 0.2 100 0.2 8 0 963.3 NA 0.0000 9999 4400 0 0 0
2019/10/20 09:07:00 BASE 25.28 359 30.40 360 0.2 100 0.2 8 0 963.4 NA 0.0000 9999 4330 0 0 0
2019/10/20 09:08:00 BASE 24.42 2 30.40 360 0.2 100 0.2 8 0 963.4 NA 0.0000 9999 3870 0 0 0
2019/10/20 09:09:00 BASE 24.11 2 29.89 1 0.2 100 0.2 8 0 963.4 NA 0.0000 9999 3150 0 0 0
2019/10/20 09:10:00 BASE 24.45 3 29.89 1 0.2 100 0.2 7 0 963.4 NA 0.0000 9999 4270 0 0 0
2019/10/20 09:11:00 BASE 24.37 358 29.89 1 0.2 100 0.2 7 0 963.4 NA 0.0000 9999 3740 0 0 0
2019/10/20 09:12:00 BASE 22.73 355 29.89 1 0.3 100 0.2 7 0 963.5 NA 0.0000 9999 520 0 0 0
2019/10/20 09:13:00 BASE 22.28 1 29.89 1 0.3 100 0.3 8 0 963.5 NA 0.0000 9999 3710 0 0 0
2019/10/20 09:14:00 BASE 22.87 3 28.60 7 0.3 100 0.3 8 0 963.5 NA 0.0000 9999 2620 0 0 0
2019/10/20 09:15:00 BASE 21.64 360 28.04 350 0.3 100 0.3 8 0 963.6 NA 0.0000 9999 3080 0 0 0
2019/10/20 09:16:00 BASE 20.85 2 27.83 4 0.3 100 0.3 8 0 963.6 NA 0.0000 9999 790 2590 0 0
2019/10/20 09:17:00 BASE 21.16 4 27.83 4 0.3 100 0.3 8 0 963.6 NA 0.0000 9999 1480 4300 0 0
2019/10/20 09:18:00 BASE 21.24 3 27.83 4 0.3 100 0.3 9 0 963.6 NA 0.0000 9999 1570 3250 0 0
2019/10/20 09:19:00 BASE 21.97 3 27.83 4 0.3 100 0.3 10 0 963.5 NA 0.0000 9999 5380 0 0 0
2019/10/20 09:20:00 BASE 23.81 3 26.75 3 0.3 100 0.3 12 0 963.4 NA 0.0000 9999 4660 0 0 0
2019/10/20 09:21:00 BASE 23.94 5 26.75 3 0.3 100 0.3 13 0 963.5 NA 0.0000 9999 1940 4690 0 0
2019/10/20 09:22:00 BASE 22.84 7 26.75 3 0.3 100 0.3 15 0 963.5 NA 0.0000 9999 1940 0 0 0
2019/10/20 09:23:00 BASE 22.56 7 26.75 3 0.3 100 0.3 19 0 963.5 NA 0.0000 9999 1540 0 0 0
2019/10/20 09:24:00 BASE 23.23 8 26.75 3 0.3 100 0.3 20 0 963.5 NA 0.0000 9999 1610 4790 0 0
2019/10/20 09:25:00 BASE 24.32 9 26.75 3 0.3 100 0.3 21 0 963.4 NA 0.0000 9999 4630 0 0 0
2019/10/20 09:26:00 BASE 25.32 9 27.83 3 0.3 100 0.3 22 0 963.3 NA 0.0000 9999 1670 4790 0 0
2019/10/20 09:27:00 BASE 25.21 9 27.83 3 0.3 100 0.3 24 0 963.4 NA 0.0000 9999 4860 5350 0 0
2019/10/20 09:28:00 BASE 23.99 7 27.83 3 0.3 100 0.3 26 0 963.5 NA 0.0000 9999 4860 0 0 0
2019/10/20 09:29:00 BASE 23.67 4 27.83 3 0.2 100 0.2 28 0 963.5 NA 0.0000 9999 5450 0 0 0
2019/10/20 09:30:00 BASE 24.13 2 27.83 3 0.2 100 0.2 30 0 963.5 NA 0.0000 9999 5350 0 0 0
2019/10/20 09:31:00 BASE 24.97 1 27.83 3 0.2 100 0.2 30 0 963.5 NA 0.0000 9999 5380 0 0 0
2019/10/20 09:32:00 BASE 24.16 360 27.83 3 0.2 100 0.2 31 0 963.6 NA 0.0000 9999 5220 0 0 0
2019/10/20 09:33:00 BASE 22.42 2 27.83 3 0.2 100 0.2 30 0 963.6 NA 0.0000 9999 2920 5090 0 0
2019/10/20 09:34:00 BASE 22.29 6 27.83 3 0.2 100 0.2 32 0 963.7 NA 0.0000 9999 2760 5090 0 0
2019/10/20 09:35:00 BASE 22.68 1 27.83 3 0.2 100 0.2 34 0 963.6 NA 0.0000 9999 4890 0 0 0
2019/10/20 09:36:00 BASE 22.39 357 27.42 8 0.2 100 0.2 32 0 963.7 NA 0.0000 9999 1280 2000 0 0
2019/10/20 09:37:00 BASE 21.20 357 27.42 8 0.2 100 0.2 32 0 963.7 NA 0.0000 9999 3310 0 0 0
2019/10/20 09:38:00 BASE 21.12 359 27.42 8 0.2 100 0.2 34 0 963.6 NA 0.0000 9999 4040 0 0 0
2019/10/20 09:39:00 BASE 21.64 3 27.42 8 0.2 100 0.2 36 0 963.6 NA 0.0000 9999 430 0 0 0
2019/10/20 09:40:00 BASE 21.74 1 27.11 2 0.2 100 0.2 41 0 963.6 NA 0.0000 9999 820 4490 0 0
2019/10/20 09:41:00 BASE 21.49 0 26.96 247 0.2 100 0.2 51 0 963.7 NA 0.0000 9999 4820 0 0 0
2019/10/20 09:42:00 BASE 20.76 1 26.96 247 0.2 100 0.2 54 0 963.7 NA 0.0000 9999 1250 5150 0 0
2019/10/20 09:43:00 BASE 20.02 1 26.96 247 0.2 100 0.2 58 0 963.8 NA 0.0000 9999 1250 22570 0 0
2019/10/20 09:44:00 BASE 19.34 360 26.96 247 0.2 100 0.2 55 0 963.8 NA 0.0000 9999 1280 0 0 0
2019/10/20 09:45:00 BASE 18.83 357 24.85 3 0.2 100 0.2 40 0 963.8 NA 0.0000 9999 1410 5280 0 0
2019/10/20 09:46:00 BASE 19.95 358 25.10 7 0.2 100 0.2 26 0 963.7 NA 0.0000 9999 1250 0 0 0
2019/10/20 09:47:00 BASE 20.94 0 25.10 7 0.2 100 0.2 20 0 963.7 NA 0.0000 9999 1210 0 0 0
2019/10/20 09:48:00 BASE 19.74 358 25.10 7 0.2 100 0.2 16 0 963.8 NA 0.0000 9999 1250 0 0 0
2019/10/20 09:49:00 BASE 20.20 354 25.10 7 0.2 100 0.2 14 0 963.7 NA 0.0000 9999 1210 0 0 0
2019/10/20 09:50:00 BASE 22.00 357 25.10 7 0.2 100 0.2 16 0 963.6 NA 0.0000 9999 1280 0 0 0
2019/10/20 09:51:01 BASE 21.29 3 25.10 7 0.3 100 0.3 20 0 963.8 NA 0.0000 9999 1310 0 0 0
2019/10/20 09:52:00 BASE 19.35 3 25.10 7 0.3 100 0.3 25 0 963.8 NA 0.0000 9999 1310 0 0 0
2019/10/20 09:53:00 BASE 18.77 0 25.10 7 0.3 100 0.3 29 0 963.8 NA 0.0000 9999 1150 0 0 0
2019/10/20 09:54:00 BASE 17.79 357 25.10 7 0.3 100 0.3 36 0 963.9 NA 0.0000 9999 490 0 0 0
2019/10/20 09:55:00 BASE 18.14 357 25.10 7 0.2 100 0.2 37 0 963.8 NA 0.0000 9999 360 0 0 0
2019/10/20 09:56:00 BASE 18.18 358 24.54 3 0.2 100 0.2 33 0 963.9 NA 0.0000 9999 330 0 0 0
2019/10/20 09:57:00 BASE 18.80 0 25.67 2 0.2 100 0.2 29 0 963.8 NA 0.0000 9999 300 1510 0 0
2019/10/20 09:58:00 BASE 19.22 358 25.67 2 0.2 100 0.2 26 0 963.9 NA 0.0000 9999 260 1410 0 0
2019/10/20 09:59:00 BASE 17.91 353 25.67 2 0.2 100 0.2 22 0 963.9 NA 0.0000 9999 1350 2100 0 0
2019/10/20 10:00:00 BASE 18.56 353 25.67 2 0.2 100 0.2 18 0 963.8 NA 0.0000 9999 1280 0 0 0
2019/10/20 10:01:00 BASE 17.73 353 25.67 2 0.1 100 0.1 16 0 963.9 NA 0.0000 9999 1210 0 0 0
2019/10/20 10:02:00 BASE 16.47 354 25.67 2 0.1 100 0.1 14 0 963.9 NA 0.0000 9999 1180 0 0 0
2019/10/20 10:03:00 BASE 18.41 352 25.67 2 0.1 100 0.1 14 0 963.8 NA 0.0000 9999 1180 0 0 0
2019/10/20 10:04:00 BASE 18.78 349 25.67 2 0.1 100 0.1 15 0 963.8 NA 0.0000 9999 1210 0 0 0
2019/10/20 10:05:00 BASE 17.91 351 25.67 2 0.1 100 0.1 15 0 963.8 NA 0.0000 9999 1210 3510 0 0
2019/10/20 10:06:00 BASE 19.26 355 25.67 2 0.1 100 0.1 15 0 963.8 NA 0.0000 9999 1180 0 0 0
2019/10/20 10:07:00 BASE 19.98 353 23.05 313 0.2 100 0.2 16 0 963.8 NA 0.0000 9999 1080 0 0 0
2019/10/20 10:08:00 BASE 21.02 354 24.59 353 0.2 100 0.2 17 0 963.7 NA 0.0000 9999 1120 0 0 0
2019/10/20 10:09:00 BASE 23.06 353 26.08 350 0.2 100 0.2 18 0 963.6 NA 0.0000 9999 1080 0 0 0
2019/10/20 10:10:00 BASE 23.73 354 26.08 350 0.2 100 0.2 25 0 963.6 NA 0.0000 9999 1020 0 0 0
2019/10/20 10:11:00 BASE 22.18 360 26.08 350 0.2 100 0.2 33 0 963.7 NA 0.0000 9999 1050 0 0 0
2019/10/20 10:12:00 BASE 22.21 2 26.08 350 0.2 100 0.2 32 0 963.6 NA 0.0000 9999 1080 0 0 0
2019/10/20 10:13:00 BASE 23.36 4 26.24 1 0.2 100 0.2 37 0 963.6 NA 0.0000 9999 1050 0 0 0
2019/10/20 10:14:00 BASE 23.30 3 26.24 1 0.1 100 0.1 38 0 963.6 NA 0.0000 9999 1080 0 0 0
2019/10/20 10:15:00 BASE 22.32 358 26.24 1 0.1 100 0.1 39 0 963.7 NA 0.0000 9999 1120 0 0 0
2019/10/20 10:16:00 BASE 22.59 357 26.55 360 0.1 100 0.1 35 0 963.6 NA 0.0000 9999 1080 0 0 0
2019/10/20 10:17:00 BASE 23.72 360 26.55 360 0.1 100 0.1 37 0 963.7 NA 0.0000 9999 1050 0 0 0
2019/10/20 10:18:00 BASE 23.12 359 26.55 360 0.1 100 0.1 41 0 963.7 NA 0.0000 9999 1020 0 0 0
2019/10/20 10:19:00 BASE 22.14 357 26.55 360 0.1 100 0.1 47 0 963.8 NA 0.0000 9999 980 0 0 0
2019/10/20 10:20:00 BASE 22.36 357 26.55 360 0.1 100 0.1 54 0 963.7 NA 0.0000 9999 1050 0 0 0
2019/10/20 10:21:00 BASE 23.47 358 26.55 360 0.1 100 0.1 63 0 963.7 NA 0.0000 9999 1150 0 0 0
2019/10/20 10:22:00 BASE 23.00 356 26.55 360 0.1 100 0.1 79 0 963.8 NA 0.0000 9999 950 2170 0 0
2019/10/20 10:23:00 BASE 22.83 359 30.76 360 0.1 100 0.1 94 0 963.7 NA 0.0000 9999 980 2690 0 0
2019/10/20 10:24:00 BASE 24.70 3 30.76 360 0.1 100 0.1 103 0 963.6 NA 0.0000 9999 980 0 0 0
2019/10/20 10:25:00 BASE 23.36 360 30.76 360 0.1 100 0.1 89 0 963.9 NA 0.0000 9999 430 0 0 0
2019/10/20 10:26:00 BASE 21.49 356 30.76 360 0.1 100 0.1 78 0 963.9 NA 0.0000 9999 0 0 0 4330
2019/10/20 10:27:00 BASE 22.13 353 30.76 360 0.1 100 0.1 69 0 964.0 NA 0.0000 9999 360 0 0 0
2019/10/20 10:28:00 BASE 21.05 353 30.76 360 0.1 100 0.1 68 0 964.1 NA 0.0000 9999 0 0 0 3580
2019/10/20 10:29:00 BASE 19.52 354 30.76 360 0.1 100 0.1 66 0 964.1 NA 0.0000 9999 0 0 0 3870
2019/10/20 10:30:00 BASE 18.93 354 30.76 360 0.1 100 0.1 64 0 964.2 NA 0.0000 9999 0 0 0 4170
2019/10/20 10:31:00 BASE 18.36 353 30.76 360 0.1 100 0.1 64 0 964.2 NA 0.0000 9999 300 0 0 0
2019/10/20 10:32:00 BASE 17.75 353 30.76 360 0.1 100 0.1 57 0 964.3 NA 0.0000 9999 300 0 0 0
2019/10/20 10:33:00 BASE 17.22 352 30.20 1 0.1 100 0.1 54 0 964.3 NA 0.0000 9999 200 0 0 0
2019/10/20 10:34:00 BASE 16.71 351 25.36 2 0.1 100 0.1 51 0 964.3 NA 0.0000 9999 260 0 0 0
2019/10/20 10:35:00 BASE 16.70 351 25.36 2 0.1 100 0.1 46 0 964.3 NA 0.0000 9999 490 0 0 0
2019/10/20 10:36:00 BASE 16.54 350 25.36 2 0.1 100 0.1 45 0 964.4 NA 0.0000 9999 1250 3480 0 0
2019/10/20 10:37:00 BASE 17.87 351 22.53 348 0.1 100 0.1 45 0 964.3 NA 0.0000 9999 1180 0 0 0
2019/10/20 10:38:00 BASE 19.76 352 22.58 360 0.1 100 0.1 49 0 964.3 NA 0.0000 9999 2170 0 0 0
2019/10/20 10:39:00 BASE 20.09 353 22.58 360 0.1 100 0.1 67 0 964.3 NA 0.0000 9999 1150 0 0 0
2019/10/20 10:40:00 BASE 19.95 351 22.58 360 0.2 100 0.2 64 0 964.3 NA 0.0000 9999 1150 5120 0 0
2019/10/20 10:41:00 BASE 20.44 356 23.41 352 0.2 100 0.2 64 0 964.3 NA 0.0000 9999 1210 0 0 0
2019/10/20 10:42:00 BASE 20.45 1 23.41 352 0.2 100 0.2 62 0 964.3 NA 0.0000 9999 1210 2590 0 0
2019/10/20 10:43:00 BASE 19.94 354 23.41 352 0.2 100 0.2 60 0 964.4 NA 0.0000 9999 1280 2590 0 0
2019/10/20 10:44:00 BASE 19.12 351 23.41 352 0.2 100 0.2 55 0 964.5 NA 0.0000 9999 2460 4890 0 0
2019/10/20 10:45:00 BASE 17.94 353 23.41 352 0.2 100 0.2 51 0 964.5 NA 0.0000 9999 2560 0 0 0
2019/10/20 10:46:00 BASE 16.79 356 23.41 352 0.2 100 0.2 53 0 964.7 NA 0.0000 9999 1080 0 0 0
2019/10/20 10:47:00 BASE 15.26 355 23.41 352 0.1 100 0.1 62 0 964.7 NA 0.0000 9999 1050 0 0 0
2019/10/20 10:48:00 BASE 15.35 354 23.41 352 0.1 100 0.1 70 0 964.7 NA 0.0000 9999 1020 0 0 0
2019/10/20 10:49:00 BASE 16.87 356 23.41 352 0.1 100 0.1 68 0 964.6 NA 0.0000 9999 1120 0 0 0
2019/10/20 10:50:00 BASE 17.34 354 23.41 352 0.1 100 0.1 70 0 964.7 NA 0.0000 9999 1080 0 0 0
2019/10/20 10:51:00 BASE 18.16 352 22.33 353 0.1 100 0.1 70 0 964.6 NA 0.0000 9999 1310 4300 0 0
2019/10/20 10:52:00 BASE 18.00 355 22.33 353 0.1 100 0.1 64 0 964.7 NA 0.0000 9999 1120 4460 0 0
2019/10/20 10:53:00 BASE 17.77 0 21.97 352 0.1 100 0.1 69 0 964.7 NA 0.0000 9999 1080 0 0 0
2019/10/20 10:54:00 BASE 19.53 356 22.12 346 0.1 100 0.1 75 0 964.7 NA 0.0000 9999 1020 0 0 0
2019/10/20 10:55:00 BASE 19.46 351 22.12 346 0.1 100 0.1 75 0 964.8 NA 0.0000 9999 1120 0 0 0
2019/10/20 10:56:00 BASE 19.11 352 22.12 346 0.1 100 0.1 78 0 964.7 NA 0.0000 9999 1080 0 0 0
2019/10/20 10:57:00 BASE 20.35 347 24.64 351 0.1 100 0.1 78 0 964.7 NA 0.0000 9999 1150 0 0 0
2019/10/20 10:58:00 BASE 20.28 350 24.64 351 0.2 100 0.2 82 0 964.8 NA 0.0000 9999 1050 0 0 0
2019/10/20 10:59:00 BASE 19.72 354 24.64 351 0.2 100 0.2 76 0 964.8 NA 0.0000 9999 1410 3970 0 0
2019/10/20 11:00:00 BASE 20.71 348 24.64 351 0.2 100 0.2 70 0 964.7 NA 0.0000 9999 1080 0 0 0
2019/10/20 11:01:00 BASE 22.34 345 25.21 344 0.2 100 0.2 70 0 964.7 NA 0.0000 9999 620 0 0 0
2019/10/20 11:02:00 BASE 23.47 346 26.65 346 0.2 100 0.2 72 0 964.7 NA 0.0000 9999 1080 0 0 0
2019/10/20 11:03:00 BASE 23.26 347 26.65 346 0.2 100 0.2 73 0 964.7 NA 0.0000 9999 430 2790 0 0
2019/10/20 11:04:00 BASE 22.96 349 26.65 346 0.2 100 0.2 72 0 964.7 NA 0.0000 9999 1410 0 0 0
2019/10/20 11:05:00 BASE 23.11 348 26.65 346 0.1 100 0.1 71 0 964.7 NA 0.0000 9999 1440 3050 0 0
2019/10/20 11:06:00 BASE 22.93 345 26.65 346 0.1 100 0.1 74 0 964.8 NA 0.0000 9999 1410 0 0 0
2019/10/20 11:07:00 BASE 22.15 344 26.65 346 0.1 100 0.1 80 0 964.8 NA 0.0000 9999 3250 0 0 0
2019/10/20 11:08:00 BASE 22.24 343 26.65 346 0.1 100 0.1 87 0 964.7 NA 0.0000 9999 3770 0 0 0
2019/10/20 11:09:00 BASE 22.34 342 26.65 346 0.0 100 0.0 95 0 964.8 NA 0.0000 9999 3710 0 0 0
2019/10/20 11:10:00 BASE 22.58 344 26.65 346 -0.0 100 -0.0 103 0 964.7 NA 0.0000 9999 3510 4200 0 0
2019/10/20 11:11:00 BASE 22.88 344 26.65 346 -0.0 100 -0.0 106 0 964.7 NA 0.0000 9999 3020 0 0 0
2019/10/20 11:12:00 BASE 22.48 344 26.34 338 -0.1 100 -0.1 108 0 964.7 NA 0.0000 9999 3510 0 0 0
2019/10/20 11:13:00 BASE 21.10 346 26.34 338 -0.1 100 -0.1 113 0 964.8 NA 0.0000 9999 3670 0 0 0
2019/10/20 11:14:00 BASE 18.68 350 26.34 338 -0.0 100 -0.0 120 0 964.9 NA 0.0000 9999 2660 3670 0 0
2019/10/20 11:15:00 BASE 19.61 347 26.34 338 0.0 100 0.0 121 0 964.8 NA 0.0000 9999 4630 0 0 0
2019/10/20 11:16:00 BASE 22.24 344 26.34 338 0.0 100 0.0 120 0 964.7 NA 0.0000 9999 1800 0 0 0
2019/10/20 11:17:00 BASE 22.76 344 26.34 338 0.1 100 0.1 116 0 964.7 NA 0.0000 9999 1280 2230 0 0
2019/10/20 11:18:00 BASE 23.16 345 26.34 338 0.1 100 0.1 114 0 964.7 NA 0.0000 9999 1180 22050 0 0
2019/10/20 11:19:00 BASE 22.92 345 26.34 338 0.1 100 0.1 124 0 964.7 NA 0.0000 9999 1570 0 0 0
2019/10/20 11:20:00 BASE 22.06 345 25.88 346 0.1 100 0.1 121 0 964.8 NA 0.0000 9999 1410 2690 0 0
2019/10/20 11:21:00 BASE 21.38 343 25.88 346 0.1 100 0.1 122 0 964.8 NA 0.0000 9999 1310 0 0 0
2019/10/20 11:22:00 BASE 21.23 343 25.88 346 0.1 100 0.1 135 0 964.8 NA 0.0000 9999 1080 1710 0 0
2019/10/20 11:23:00 BASE 21.31 344 25.88 346 0.1 100 0.1 143 0 964.8 NA 0.0000 9999 1440 0 0 0
2019/10/20 11:24:00 BASE 21.37 343 25.88 346 0.1 100 0.1 144 0 964.8 NA 0.0000 9999 1670 0 0 0
2019/10/20 11:25:00 BASE 22.07 342 25.88 346 0.1 100 0.1 130 0 964.8 NA 0.0000 9999 1940 3640 0 0
2019/10/20 11:26:00 BASE 21.62 342 25.88 346 0.1 100 0.1 124 0 964.9 NA 0.0000 9999 1710 4000 0 0
2019/10/20 11:27:00 BASE 20.29 341 25.88 346 0.1 100 0.1 132 0 965.0 NA 0.0000 9999 1800 2560 0 0
2019/10/20 11:28:00 BASE 19.85 340 24.85 344 0.1 100 0.1 124 0 965.0 NA 0.0000 9999 1440 2130 0 0
2019/10/20 11:29:00 BASE 21.63 339 24.85 344 0.1 100 0.1 115 0 964.8 NA 0.0000 9999 1440 4100 0 0
2019/10/20 11:30:00 BASE 22.61 340 24.74 334 0.1 100 0.1 113 0 964.9 NA 0.0000 9999 1770 3970 0 0
2019/10/20 11:31:00 BASE 23.01 343 25.77 339 0.0 100 0.0 97 0 964.8 NA 0.0000 9999 1800 3710 0 0
2019/10/20 11:32:00 BASE 22.56 343 25.77 339 0.0 100 0.0 87 0 965.0 NA 0.0000 9999 1710 0 0 0
2019/10/20 11:33:00 BASE 20.36 342 25.77 339 0.0 100 0.0 93 0 965.0 NA 0.0000 9999 1670 0 0 0
2019/10/20 11:34:00 BASE 20.63 345 25.77 339 0.0 100 0.0 105 0 964.9 NA 0.0000 9999 1770 0 0 0
2019/10/20 11:35:00 BASE 22.47 345 27.83 338 0.0 100 0.0 117 0 964.9 NA 0.0000 9999 1670 0 0 0
2019/10/20 11:36:00 BASE 21.90 339 27.83 338 0.0 100 0.0 124 0 965.1 NA 0.0000 9999 4070 0 0 0
2019/10/20 11:37:00 BASE 20.19 340 27.83 338 0.0 100 0.0 137 0 965.1 NA 0.0000 9999 4400 0 0 0
2019/10/20 11:38:00 BASE 20.35 346 27.83 338 0.0 100 0.0 144 0 965.0 NA 0.0000 9999 1310 4590 0 0
2019/10/20 11:39:00 BASE 19.51 348 27.83 338 0.0 100 0.0 142 0 965.1 NA 0.0000 9999 4360 0 0 0
2019/10/20 11:40:00 BASE 18.46 349 27.83 338 0.0 100 0.0 134 0 965.1 NA 0.0000 9999 2760 4070 0 0
2019/10/20 11:41:00 BASE 18.38 349 27.83 338 -0.0 100 -0.0 128 0 965.1 NA 0.0000 9999 3710 0 0 0
2019/10/20 11:42:00 BASE 17.83 348 27.83 338 -0.0 100 -0.0 125 0 965.1 NA 0.0000 9999 4270 0 0 0
2019/10/20 11:43:00 BASE 17.52 350 27.83 338 -0.0 100 -0.0 124 0 965.1 NA 0.0000 9999 3870 0 0 0
2019/10/20 11:44:00 BASE 18.67 350 27.83 338 -0.1 100 -0.1 115 0 965.0 NA 0.0000 9999 4100 0 0 0
2019/10/20 11:45:00 BASE 19.39 349 22.53 344 -0.1 100 -0.1 107 0 965.0 NA 0.0000 9999 2200 3900 0 0
2019/10/20 11:46:00 BASE 18.37 350 22.53 344 -0.1 100 -0.1 106 0 965.1 NA 0.0000 9999 3640 21000 0 0
2019/10/20 11:47:00 BASE 17.74 349 22.53 344 -0.0 100 -0.1 112 0 965.0 NA 0.0000 9999 3740 0 0 0
2019/10/20 11:48:00 BASE 17.25 347 21.76 348 0.0 99 -0.1 118 0 965.1 NA 0.0000 9999 3670 0 0 0
2019/10/20 11:49:00 BASE 16.39 348 21.76 348 0.1 99 -0.1 122 0 965.1 NA 0.0000 9999 4100 0 0 0
2019/10/20 11:50:00 BASE 16.35 350 21.76 348 0.1 98 -0.2 123 0 965.1 NA 0.0000 9999 3900 0 0 0
2019/10/20 11:51:00 BASE 16.35 348 21.76 348 0.1 97 -0.3 124 0 965.2 NA 0.0000 9999 4040 0 0 0
2019/10/20 11:52:00 BASE 15.52 347 21.76 348 0.1 96 -0.4 129 0 965.2 NA 0.0000 9999 4130 0 0 0
2019/10/20 11:53:00 BASE 14.63 350 21.76 348 0.2 95 -0.6 137 0 965.3 NA 0.0000 9999 4460 0 0 0
2019/10/20 11:54:00 BASE 15.00 351 20.17 2 0.2 94 -0.7 145 0 965.2 NA 0.0000 9999 4130 0 0 0
2019/10/20 11:55:00 BASE 16.04 353 19.75 347 0.2 93 -0.8 154 0 965.2 NA 0.0000 9999 3940 0 0 0
2019/10/20 11:56:01 BASE 16.47 356 19.75 347 0.2 92 -0.9 163 0 965.2 NA 0.0000 9999 4100 4990 0 0
2019/10/20 11:57:00 BASE 16.85 357 19.70 355 0.3 91 -1.1 169 0 965.2 NA 0.0000 9999 5090 0 0 0
2019/10/20 11:58:00 BASE 16.42 360 19.70 355 0.3 90 -1.2 171 0 965.3 NA 0.0000 9999 5090 0 0 0
2019/10/20 11:59:00 BASE 15.63 355 19.70 355 0.3 89 -1.3 175 0 965.3 NA 0.0000 9999 4920 0 0 0
2019/10/20 12:00:00 BASE 15.73 351 19.70 355 0.3 89 -1.3 179 0 965.3 NA 0.0000 9999 4950 0 0 0
2019/10/20 12:01:00 BASE 15.82 352 19.70 355 0.3 89 -1.3 182 0 965.3 NA 0.0000 9999 5250 0 0 0
2019/10/20 12:02:00 BASE 15.73 351 19.70 355 0.2 90 -1.3 185 0 965.4 NA 0.0000 9999 5320 0 0 0
2019/10/20 12:03:00 BASE 16.63 351 19.70 355 0.2 90 -1.2 182 0 965.3 NA 0.0000 9999 5450 0 0 0
2019/10/20 12:04:00 BASE 16.72 356 19.70 355 0.2 90 -1.2 175 0 965.4 NA 0.0000 9999 5090 0 0 0
2019/10/20 12:05:00 BASE 16.46 355 18.88 346 0.2 91 -1.1 166 0 965.4 NA 0.0000 9999 3580 5220 0 0
2019/10/20 12:06:00 BASE 17.42 352 19.55 352 0.2 91 -1.1 165 0 965.3 NA 0.0000 9999 5580 0 0 0
2019/10/20 12:07:00 BASE 18.72 356 21.81 3 0.2 92 -1.0 168 0 965.3 NA 0.0000 9999 5580 0 0 0
2019/10/20 12:08:00 BASE 18.21 356 21.81 3 0.2 92 -0.9 167 0 965.4 NA 0.0000 9999 5090 0 0 0
2019/10/20 12:09:00 BASE 16.63 356 21.81 3 0.2 93 -0.9 165 0 965.4 NA 0.0000 9999 3900 4590 0 0
2019/10/20 12:10:00 BASE 15.93 359 21.81 3 0.2 93 -0.7 163 0 965.4 NA 0.0000 9999 4430 0 0 0
2019/10/20 12:11:00 BASE 15.24 358 21.81 3 0.2 94 -0.7 163 0 965.4 NA 0.0000 9999 5320 0 0 0
2019/10/20 12:12:00 BASE 15.96 359 21.81 3 0.2 95 -0.6 159 0 965.4 NA 0.0000 9999 4860 0 0 0
2019/10/20 12:13:00 BASE 16.53 2 21.81 3 0.2 95 -0.5 151 0 965.5 NA 0.0000 9999 4920 0 0 0
2019/10/20 12:14:00 BASE 16.26 359 21.81 3 0.1 96 -0.4 146 0 965.5 NA 0.0000 9999 4660 0 0 0
2019/10/20 12:15:00 BASE 16.09 356 21.81 3 0.1 97 -0.3 143 0 965.5 NA 0.0000 9999 4560 0 0 0
2019/10/20 12:16:00 BASE 15.87 352 21.81 3 0.1 98 -0.2 139 0 965.5 NA 0.0000 9999 3900 0 0 0
2019/10/20 12:17:00 BASE 16.34 347 21.40 349 0.1 99 -0.1 142 0 965.5 NA 0.0000 9999 3710 0 0 0
2019/10/20 12:18:00 BASE 17.36 348 21.40 349 0.1 99 -0.0 150 0 965.4 NA 0.0000 9999 1480 2560 0 0
2019/10/20 12:19:00 BASE 18.26 347 21.40 349 0.0 100 -0.0 152 0 965.4 NA 0.0000 9999 4130 0 0 0
2019/10/20 12:20:00 BASE 18.79 347 21.50 349 0.0 100 -0.0 148 0 965.4 NA 0.0000 9999 3740 0 0 0
2019/10/20 12:21:00 BASE 18.37 344 21.50 349 0.0 100 0.0 133 0 965.5 NA 0.0000 9999 3480 0 0 0
2019/10/20 12:22:00 BASE 17.65 340 21.50 349 -0.0 100 -0.0 127 0 965.5 NA 0.0000 9999 430 0 0 0
2019/10/20 12:23:00 BASE 18.80 339 23.97 332 -0.0 100 -0.0 116 0 965.5 NA 0.0000 9999 430 0 0 0
2019/10/20 12:24:00 BASE 20.62 336 23.97 332 -0.1 100 -0.1 118 0 965.5 NA 0.0000 9999 230 0 0 0
2019/10/20 12:25:00 BASE 20.76 337 23.97 332 -0.1 100 -0.1 118 0 965.6 NA 0.0000 9000 0 0 0 2620
2019/10/20 12:26:00 BASE 19.35 339 23.97 332 -0.1 100 -0.1 149 0 965.6 NA 0.0000 UP 9000 0 0 0 2720
2019/10/20 12:27:00 BASE 19.15 337 23.97 332 -0.1 100 -0.1 146 0 965.6 NA 0.0000 UP 9999 200 2460 0 0
2019/10/20 12:28:00 BASE 19.13 337 23.97 332 -0.1 100 -0.1 138 0 965.6 NA 0.0000 UP 9999 2360 22670 0 0
2019/10/20 12:29:00 BASE 18.98 341 23.97 332 -0.1 100 -0.1 141 0 965.6 NA 0.0000 UP 9999 1280 2360 0 0
2019/10/20 12:30:00 BASE 18.86 340 23.97 332 -0.1 100 -0.1 140 0 965.7 NA 0.0000 UP 9999 1150 3080 0 0
2019/10/20 12:31:00 BASE 17.69 338 23.97 332 -0.1 100 -0.1 138 0 965.8 NA 0.0000 UP 9999 1120 2530 0 0
2019/10/20 12:32:00 BASE 17.54 340 23.97 332 -0.1 100 -0.1 129 0 965.7 NA 0.0000 UP 9999 1150 2720 0 0
2019/10/20 12:33:00 BASE 17.31 342 23.82 339 -0.2 100 -0.2 119 0 965.8 NA 0.0000 UP 9999 1020 0 0 0
2019/10/20 12:34:00 BASE 17.65 341 22.38 333 -0.2 100 -0.2 119 0 965.8 NA 0.0000 UP 9999 1080 0 0 0
2019/10/20 12:35:00 BASE 19.01 342 22.38 333 -0.2 100 -0.2 112 0 965.7 NA 0.0000 UP 9999 950 0 0 0
2019/10/20 12:36:00 BASE 19.28 342 22.38 333 -0.2 100 -0.2 115 0 965.8 NA 0.0000 UP 9999 980 0 0 0
2019/10/20 12:37:00 BASE 19.83 344 22.38 333 -0.2 100 -0.2 113 0 965.7 NA 0.0000 9999 430 0 0 0
2019/10/20 12:38:00 BASE 19.44 342 22.12 344 -0.2 100 -0.2 121 0 965.8 NA 0.0000 9999 260 0 0 0
2019/10/20 12:39:00 BASE 17.53 341 22.12 344 -0.2 100 -0.2 121 0 965.9 NA 0.0000 UP 9999 300 0 0 0
2019/10/20 12:40:00 BASE 16.91 343 22.12 344 -0.2 100 -0.2 120 0 965.9 NA 0.0000 UP 9999 260 0 0 0
2019/10/20 12:41:00 BASE 18.05 342 22.12 344 -0.2 100 -0.2 127 0 965.9 NA 0.0000 UP 9999 260 0 0 0
2019/10/20 12:42:00 BASE 18.95 343 22.12 344 -0.2 100 -0.2 126 0 965.9 NA 0.0000 UP 9999 390 2560 0 0
2019/10/20 12:43:00 BASE 18.81 344 22.12 344 -0.3 100 -0.3 125 0 966.0 NA 0.0000 UP 9999 1080 0 0 0
2019/10/20 12:44:00 BASE 18.48 343 22.12 344 -0.3 100 -0.3 125 0 966.0 NA 0.0000 UP 9999 1540 3050 0 0
2019/10/20 12:45:00 BASE 17.93 341 22.12 344 -0.3 100 -0.3 142 0 966.0 NA 0.0000 UP 9999 920 0 0 0
2019/10/20 12:46:00 BASE 17.46 338 22.12 344 -0.3 100 -0.3 159 0 966.1 NA 0.0000 UP 9999 360 2850 0 0
2019/10/20 12:47:00 BASE 18.62 337 22.48 339 -0.3 100 -0.3 171 0 966.0 NA 0.0000 UP 9999 1120 0 0 0
2019/10/20 12:48:00 BASE 18.46 336 22.48 339 -0.3 100 -0.3 181 0 966.1 NA 0.0000 UP 9999 1120 19780 0 0
2019/10/20 12:49:00 BASE 17.18 336 22.48 339 -0.3 100 -0.3 183 0 966.1 NA 0.0000 UP 9999 1150 0 0 0
2019/10/20 12:50:00 BASE 18.19 337 22.48 339 -0.3 100 -0.3 183 0 966.1 NA 0.0000 UP 9999 1080 4430 0 0
2019/10/20 12:51:00 BASE 19.44 338 22.48 339 -0.4 100 -0.4 187 0 966.1 NA 0.0000 UP 9999 1120 4530 0 0
2019/10/20 12:52:00 BASE 19.31 339 22.48 339 -0.4 100 -0.4 190 0 966.2 NA 0.0000 9999 0 0 0 5410
2019/10/20 12:53:00 BASE 19.20 339 22.48 339 -0.4 100 -0.4 191 0 966.1 NA 0.0000 9999 0 0 0 5580
2019/10/20 12:54:00 BASE 19.12 338 22.48 339 -0.4 100 -0.4 194 0 966.2 NA 0.0000 9999 1120 0 0 0
2019/10/20 12:55:00 BASE 19.18 338 22.53 334 -0.4 100 -0.4 197 0 966.2 NA 0.0000 9999 4530 21230 0 0
2019/10/20 12:56:00 BASE 19.91 338 22.53 334 -0.4 100 -0.4 203 0 966.2 NA 0.0000 9999 0 0 0 5450
2019/10/20 12:57:00 BASE 20.04 338 22.53 334 -0.5 100 -0.5 210 0 966.2 NA 0.0000 9999 0 0 0 5380
2019/10/20 12:58:00 BASE 19.60 338 22.53 334 -0.5 100 -0.5 216 0 966.3 NA 0.0000 9999 0 0 0 5510
2019/10/20 12:59:00 BASE 19.36 338 22.53 334 -0.5 100 -0.5 220 0 966.3 NA 0.0000 9999 4490 0 0 0
2019/10/20 13:00:00 BASE 19.58 338 22.53 334 -0.5 100 -0.5 218 0 966.3 NA 0.0000 9999 4000 0 0 0
2019/10/20 13:01:00 BASE 19.31 340 22.53 334 -0.5 100 -0.5 218 0 966.4 NA 0.0000 9999 3510 0 0 0
2019/10/20 13:02:00 BASE 18.36 340 22.53 334 -0.5 100 -0.5 220 0 966.4 NA 0.0000 9999 3050 0 0 0
2019/10/20 13:03:00 BASE 18.50 338 22.53 334 -0.5 100 -0.5 219 0 966.4 NA 0.0000 9999 3280 0 0 0
2019/10/20 13:04:00 BASE 19.21 338 22.53 334 -0.5 100 -0.5 218 0 966.4 NA 0.0000 9999 2920 0 0 0
2019/10/20 13:05:00 BASE 19.32 340 21.97 338 -0.5 100 -0.5 233 0 966.4 NA 0.0000 9999 0 0 0 3900
2019/10/20 13:06:00 BASE 19.38 340 21.61 346 -0.5 100 -0.5 247 0 966.4 NA 0.0000 9999 0 0 0 5450
2019/10/20 13:07:00 BASE 20.06 340 22.12 338 -0.5 100 -0.5 241 0 966.4 NA 0.0000 9999 2990 0 0 0
2019/10/20 13:08:00 BASE 19.71 338 22.12 338 -0.5 100 -0.5 277 0 966.5 NA 0.0000 9999 3280 0 0 0
2019/10/20 13:09:00 BASE 18.17 337 22.12 338 -0.5 100 -0.5 276 0 966.5 NA 0.0000 9999 0 0 0 3900
2019/10/20 13:10:00 BASE 17.76 338 22.12 338 -0.5 100 -0.5 283 0 966.5 NA 0.0000 9999 3740 0 0 0
2019/10/20 13:11:00 BASE 18.12 337 22.12 338 -0.5 100 -0.5 294 0 966.5 NA 0.0000 9999 0 0 0 5810
2019/10/20 13:12:00 BASE 18.32 338 22.12 338 -0.5 100 -0.5 279 0 966.5 NA 0.0000 9999 0 0 0 5870
2019/10/20 13:13:00 BASE 18.46 338 22.12 338 -0.5 100 -0.5 271 0 966.5 NA 0.0000 9999 0 0 0 5910
2019/10/20 13:14:00 BASE 18.45 337 22.12 338 -0.6 100 -0.6 273 0 966.6 NA 0.0000 9999 5540 0 0 0
2019/10/20 13:15:00 BASE 18.02 338 22.12 338 -0.6 100 -0.6 278 0 966.6 NA 0.0000 9999 0 0 0 4130
2019/10/20 13:16:00 BASE 17.45 339 22.12 338 -0.6 100 -0.6 276 0 966.7 NA 0.0000 9999 5350 0 0 0
2019/10/20 13:17:00 BASE 16.45 340 21.92 333 -0.6 100 -0.6 265 0 966.7 NA 0.0000 9999 5410 0 0 0
2019/10/20 13:18:00 BASE 16.08 339 20.73 335 -0.6 100 -0.6 256 0 966.7 NA 0.0000 9999 4760 5380 0 0
2019/10/20 13:19:00 BASE 16.38 340 20.73 335 -0.6 100 -0.6 252 0 966.7 NA 0.0000 9999 4820 0 0 0
2019/10/20 13:20:00 BASE 16.81 340 20.68 339 -0.6 100 -0.6 251 0 966.7 NA 0.0000 9999 4790 0 0 0
2019/10/20 13:21:00 BASE 17.61 338 20.68 339 -0.6 100 -0.6 242 0 966.7 NA 0.0000 9999 4760 0 0 0
2019/10/20 13:22:00 BASE 17.79 337 20.22 332 -0.6 100 -0.6 238 0 966.8 NA 0.0000 9999 4690 0 0 0
2019/10/20 13:23:00 BASE 17.20 337 20.22 332 -0.5 100 -0.5 236 0 966.8 NA 0.0000 9999 4720 0 0 0
2019/10/20 13:24:00 BASE 16.18 341 19.45 337 -0.5 100 -0.5 236 0 966.8 NA 0.0000 9999 4690 0 0 0
2019/10/20 13:25:00 BASE 15.19 342 19.45 337 -0.5 100 -0.5 230 0 966.9 NA 0.0000 9999 4690 0 0 0
2019/10/20 13:26:00 BASE 15.46 341 19.45 337 -0.5 100 -0.5 226 0 966.9 NA 0.0000 9999 5090 0 0 0
2019/10/20 13:27:00 BASE 15.51 341 19.45 337 -0.5 100 -0.5 229 0 967.0 NA 0.0000 9999 4720 0 0 0
2019/10/20 13:28:00 BASE 15.57 343 19.45 337 -0.5 100 -0.5 239 0 966.9 NA 0.0000 9999 4790 0 0 0
2019/10/20 13:29:00 BASE 16.65 343 19.60 347 -0.5 100 -0.5 252 0 966.9 NA 0.0000 9999 4720 0 0 0
2019/10/20 13:30:00 BASE 17.04 342 19.60 347 -0.5 100 -0.5 257 0 966.9 NA 0.0000 9999 4760 0 0 0
2019/10/20 13:31:00 BASE 16.11 342 19.60 347 -0.5 100 -0.5 259 0 967.0 NA 0.0000 9999 4590 0 0 0
2019/10/20 13:32:00 BASE 15.35 341 19.60 347 -0.5 100 -0.5 265 0 967.0 NA 0.0000 9999 4590 0 0 0
2019/10/20 13:33:00 BASE 15.09 340 19.60 347 -0.5 100 -0.5 271 0 967.0 NA 0.0000 9999 4690 0 0 0
2019/10/20 13:34:00 BASE 15.48 340 19.60 347 -0.5 100 -0.5 274 0 967.0 NA 0.0000 9999 4760 0 0 0
2019/10/20 13:35:00 BASE 16.22 341 19.60 347 -0.5 100 -0.5 272 0 967.0 NA 0.0000 9999 4720 0 0 0
2019/10/20 13:36:00 BASE 16.34 340 19.60 347 -0.5 100 -0.5 271 0 967.0 NA 0.0000 9999 4790 0 0 0
2019/10/20 13:37:00 BASE 16.20 338 19.60 347 -0.5 100 -0.5 279 0 967.1 NA 0.0000 9999 1870 4860 0 0
2019/10/20 13:38:00 BASE 16.08 339 19.60 347 -0.5 100 -0.5 297 0 967.1 NA 0.0000 9999 1710 0 0 0
2019/10/20 13:39:00 BASE 16.67 343 19.29 339 -0.5 100 -0.5 303 0 967.0 NA 0.0000 9999 1640 4950 0 0
2019/10/20 13:40:00 BASE 18.47 345 21.71 351 -0.4 100 -0.4 313 0 967.0 NA 0.0000 9999 2000 0 0 0
2019/10/20 13:41:00 BASE 18.61 344 21.71 351 -0.4 100 -0.4 331 0 967.1 NA 0.0000 9999 1570 2070 0 0
2019/10/20 13:42:00 BASE 17.89 344 21.71 351 -0.4 100 -0.4 316 0 967.1 NA 0.0000 9999 1740 2660 0 0
2019/10/20 13:43:00 BASE 17.71 344 21.71 351 -0.4 100 -0.4 287 0 967.1 NA 0.0000 9999 1510 0 0 0
2019/10/20 13:44:00 BASE 17.61 345 21.71 351 -0.4 100 -0.4 266 0 967.1 NA 0.0000 9999 430 0 0 0
2019/10/20 13:45:00 BASE 19.38 345 22.74 344 -0.4 100 -0.4 254 0 967.0 NA 0.0000 9999 620 0 0 0
2019/10/20 13:46:00 BASE 19.47 345 22.74 344 -0.4 100 -0.4 253 0 967.1 NA 0.0000 9999 390 0 0 0
2019/10/20 13:47:00 BASE 18.79 348 22.74 344 -0.4 100 -0.4 263 0 967.1 NA 0.0000 9999 430 1640 0 0
2019/10/20 13:48:00 BASE 19.50 346 22.74 344 -0.4 100 -0.4 288 0 967.1 NA 0.0000 9999 1510 0 0 0
2019/10/20 13:49:00 BASE 20.38 345 23.97 343 -0.4 100 -0.4 301 0 967.1 NA 0.0000 9999 2590 0 0 0
2019/10/20 13:50:00 BASE 19.84 346 23.97 343 -0.3 100 -0.3 285 0 967.1 NA 0.0000 9999 1610 0 0 0
2019/10/20 13:51:00 BASE 19.26 348 23.97 343 -0.3 100 -0.3 233 0 967.1 NA 0.0000 9999 2000 2890 0 0
2019/10/20 13:52:00 BASE 18.95 348 23.97 343 -0.3 100 -0.3 227 0 967.3 NA 0.0000 9999 1210 0 0 0
2019/10/20 13:53:00 BASE 17.32 345 23.97 343 -0.3 100 -0.3 238 0 967.3 NA 0.0000 9999 1310 0 0 0
2019/10/20 13:54:00 BASE 17.18 343 23.97 343 -0.3 100 -0.3 253 0 967.3 NA 0.0000 9999 1180 0 0 0
2019/10/20 13:55:00 BASE 19.14 344 23.97 343 -0.3 100 -0.3 247 0 967.2 NA 0.0000 9999 1310 0 0 0
2019/10/20 13:56:00 BASE 19.88 347 23.97 343 -0.3 100 -0.3 253 0 967.3 NA 0.0000 9999 1280 1800 0 0
2019/10/20 13:57:00 BASE 20.91 345 23.97 343 -0.3 100 -0.3 255 0 967.2 NA 0.0000 9999 1510 0 0 0
2019/10/20 13:58:00 BASE 21.61 343 23.97 343 -0.3 100 -0.3 256 0 967.3 NA 0.0000 9999 4820 0 0 0
2019/10/20 13:59:00 BASE 21.49 345 24.33 350 -0.3 100 -0.3 253 0 967.3 NA 0.0000 9999 1480 3080 0 0
2019/10/20 14:00:00 BASE 21.84 345 24.38 340 -0.3 100 -0.3 258 0 967.3 NA 0.0000 9999 1610 0 0 0
2019/10/20 14:01:00 BASE 20.49 342 24.38 340 -0.4 100 -0.4 262 0 967.4 NA 0.0000 9999 1480 2070 4630 0
2019/10/20 14:02:00 BASE 19.30 340 24.38 340 -0.4 100 -0.4 267 0 967.4 NA 0.0000 9999 1740 4560 0 0
2019/10/20 14:03:00 BASE 18.94 340 24.38 340 -0.4 100 -0.4 271 0 967.4 NA 0.0000 9999 1870 3770 4760 0
2019/10/20 14:04:00 BASE 18.68 340 24.38 340 -0.4 100 -0.4 269 0 967.5 NA 0.0000 9999 1740 3510 0 0
2019/10/20 14:05:00 BASE 18.83 339 24.38 340 -0.4 100 -0.4 266 0 967.5 NA 0.0000 9999 1610 0 0 0
2019/10/20 14:06:00 BASE 18.02 340 24.38 340 -0.4 100 -0.4 264 0 967.6 NA 0.0000 9999 1410 0 0 0
2019/10/20 14:07:00 BASE 17.29 341 24.38 340 -0.4 100 -0.4 278 0 967.6 NA 0.0000 9999 1350 0 0 0
2019/10/20 14:08:00 BASE 18.85 340 24.38 340 -0.4 100 -0.4 299 0 967.6 NA 0.0000 9999 1380 0 0 0
2019/10/20 14:09:00 BASE 20.93 336 24.38 340 -0.4 100 -0.4 305 0 967.6 NA 0.0000 9999 1410 2460 0 0
2019/10/20 14:10:00 BASE 20.45 337 22.53 340 -0.4 100 -0.4 279 0 967.7 NA 0.0000 9999 2360 5870 0 0
2019/10/20 14:11:00 BASE 19.42 338 22.53 340 -0.4 100 -0.4 256 0 967.7 NA 0.0000 9999 2400 0 0 0
2019/10/20 14:12:00 BASE 20.35 338 22.53 340 -0.5 100 -0.5 238 0 967.7 NA 0.0000 9999 1800 0 0 0
2019/10/20 14:13:00 BASE 19.91 338 22.53 340 -0.5 100 -0.5 238 0 967.8 NA 0.0000 9999 1670 2490 0 0
2019/10/20 14:14:00 BASE 19.54 338 22.53 340 -0.5 100 -0.5 259 0 967.8 NA 0.0000 9999 1310 0 0 0
2019/10/20 14:15:00 BASE 20.72 339 22.58 341 -0.5 100 -0.5 271 0 967.7 NA 0.0000 9999 1510 2360 0 0
2019/10/20 14:16:00 BASE 20.62 339 22.58 341 -0.5 100 -0.5 301 0 967.8 NA 0.0000 9999 2560 0 0 0
2019/10/20 14:17:00 BASE 18.64 339 22.58 341 -0.5 100 -0.5 337 0 967.9 NA 0.0000 9999 2360 5090 0 0
2019/10/20 14:18:00 BASE 17.16 339 22.58 341 -0.5 100 -0.5 347 0 967.9 NA 0.0000 9999 2490 0 0 0
2019/10/20 14:19:00 BASE 17.47 340 22.58 341 -0.5 100 -0.5 344 0 967.9 NA 0.0000 9999 1670 2820 0 0
2019/10/20 14:20:00 BASE 18.49 340 22.58 341 -0.5 100 -0.5 331 0 967.9 NA 0.0000 9999 3410 0 0 0
2019/10/20 14:21:00 BASE 18.44 338 22.58 341 -0.5 100 -0.5 295 0 968.0 NA 0.0000 9999 1350 4560 6200 0
2019/10/20 14:22:00 BASE 17.59 338 22.58 341 -0.4 100 -0.4 260 0 968.0 NA 0.0000 9999 2000 3900 0 0
2019/10/20 14:23:00 BASE 17.79 340 22.58 341 -0.4 100 -0.4 216 0 968.0 NA 0.0000 9999 1510 3080 0 0
2019/10/20 14:24:00 BASE 17.35 339 22.58 341 -0.5 100 -0.5 174 0 968.1 NA 0.0000 9999 2690 0 0 0
2019/10/20 14:25:00 BASE 15.95 337 21.14 337 -0.5 100 -0.5 147 0 968.1 NA 0.0000 9999 430 2070 0 0
2019/10/20 14:26:00 BASE 15.32 335 20.68 337 -0.5 100 -0.5 130 0 968.2 NA 0.0000 9999 430 0 0 0
2019/10/20 14:27:00 BASE 17.48 332 21.86 324 -0.6 100 -0.6 116 0 968.1 NA 0.0000 8000 230 0 0 0
2019/10/20 14:28:00 BASE 19.39 332 21.86 324 -0.6 100 -0.6 111 0 968.1 NA 0.0000 6000 0 0 0 2000
2019/10/20 14:29:00 BASE 18.81 335 21.86 324 -0.6 100 -0.6 123 0 968.2 NA 0.0000 UP 6000 0 0 0 1740
2019/10/20 14:30:00 BASE 20.44 333 24.64 330 -0.7 100 -0.7 121 0 968.1 NA 0.0000 UP BR 7000 0 0 0 1350
2019/10/20 14:31:00 BASE 22.28 331 24.64 330 -0.8 100 -0.8 105 0 968.2 NA 0.0000 UP BR 4800 0 0 0 1770
2019/10/20 14:32:00 BASE 21.57 331 24.64 330 -0.9 100 -0.9 107 0 968.3 NA 0.0000 UP BR 3600 0 0 0 950
2019/10/20 14:33:00 BASE 19.63 330 24.64 330 -1.0 100 -1.0 123 0 968.4 NA 0.0000 UP BR 2800 0 0 0 1150
2019/10/20 14:34:00 BASE 18.03 331 24.64 330 -1.2 100 -1.2 132 0 968.5 NA 0.0000 UP BR 3800 0 0 0 1540
2019/10/20 14:35:00 BASE 16.58 334 24.64 330 -1.3 100 -1.3 129 0 968.5 NA 0.0000 UP BR 4400 0 0 0 1740
2019/10/20 14:36:00 BASE 15.80 332 24.64 330 -1.4 100 -1.4 129 0 968.5 NA 0.0000 UP BR 6000 0 0 0 1800
2019/10/20 14:37:00 BASE 15.79 333 24.64 330 -1.4 100 -1.4 136 0 968.5 NA 0.0000 UP BR 6000 0 0 0 1610
2019/10/20 14:38:00 BASE 15.05 335 24.64 330 -1.4 100 -1.4 150 0 968.6 NA 0.0000 UP BR 5000 0 0 0 1740
2019/10/20 14:39:00 BASE 15.13 335 24.64 330 -1.4 100 -1.4 142 0 968.6 NA 0.0000 UP BR 4800 0 0 0 1710
2019/10/20 14:40:00 BASE 16.14 332 23.05 327 -1.4 100 -1.4 129 0 968.6 NA 0.0000 UP BR 8000 0 0 0 1350
2019/10/20 14:41:00 BASE 16.41 329 22.89 333 -1.4 100 -1.4 130 0 968.6 NA 0.0000 UP BR 7000 0 0 0 1310
2019/10/20 14:42:00 BASE 16.04 328 19.24 328 -1.4 100 -1.4 123 0 968.6 NA 0.0000 UP BR 6000 0 0 0 2300
2019/10/20 14:43:00 BASE 16.77 327 19.45 324 -1.4 100 -1.4 122 0 968.6 NA 0.0000 UP BR 6000 22210 0 0 0
2019/10/20 14:44:00 BASE 17.03 328 19.45 324 -1.4 100 -1.4 122 0 968.7 NA 0.0000 UP BR 6000 0 0 0 1280
2019/10/20 14:45:00 BASE 16.44 329 19.45 324 -1.4 100 -1.4 131 0 968.6 NA 0.0000 UP BR 4500 0 0 0 1210
2019/10/20 14:46:00 BASE 16.63 329 19.45 324 -1.4 100 -1.4 130 0 968.6 NA 0.0000 UP BR 2500 0 0 0 1510
2019/10/20 14:47:00 BASE 16.46 328 19.45 324 -1.4 100 -1.4 147 0 968.7 NA 0.0000 UP BR 2900 0 0 0 1410
2019/10/20 14:48:00 BASE 16.03 328 19.45 324 -1.4 100 -1.4 158 0 968.7 NA 0.0000 UP BR 2200 0 0 0 1970
2019/10/20 14:49:00 BASE 16.31 329 19.45 324 -1.4 100 -1.4 157 0 968.6 NA 0.0000 UP BR 3500 300 1120 0 0
2019/10/20 14:50:00 BASE 15.82 328 19.45 324 -1.4 100 -1.4 156 0 968.7 NA 0.0000 UP BR 3500 330 0 0 0
2019/10/20 14:51:00 BASE 15.48 324 19.45 324 -1.4 100 -1.4 162 0 968.7 NA 0.0000 UP BR 3500 390 0 0 0
2019/10/20 14:52:00 BASE 15.51 321 19.45 324 -1.4 100 -1.4 156 0 968.7 NA 0.0000 UP BR 3500 390 0 0 0
2019/10/20 14:53:00 BASE 14.28 321 19.09 320 -1.4 100 -1.4 162 0 968.8 NA 0.0000 UP BR 4100 390 0 0 0
2019/10/20 14:54:00 BASE 13.87 321 19.09 320 -1.4 100 -1.4 167 0 968.9 NA 0.0000 UP BR 9000 660 0 0 0
2019/10/20 14:55:00 BASE 14.24 321 18.31 324 -1.4 100 -1.4 162 0 968.9 NA 0.0000 UP BR 9000 300 0 0 0
2019/10/20 14:56:00 BASE 13.98 324 17.80 329 -1.4 100 -1.4 168 0 968.9 NA 0.0000 UP BR 9000 0 0 0 1120
2019/10/20 14:57:00 BASE 14.72 326 17.90 322 -1.4 100 -1.4 197 0 968.9 NA 0.0000 UP BR 7000 0 0 0 1440
2019/10/20 14:58:00 BASE 15.83 329 17.90 322 -1.4 100 -1.4 226 0 968.9 NA 0.0000 UP BR 4400 850 0 0 0
2019/10/20 14:59:00 BASE 16.65 332 19.55 337 -1.3 100 -1.3 240 0 968.8 NA 0.0000 UP BR 4400 1150 0 0 0
2019/10/20 15:00:00 BASE 18.33 336 21.40 337 -1.3 100 -1.3 275 0 968.8 NA 0.0000 UP BR 4400 1380 0 0 0
2019/10/20 15:01:00 BASE 18.90 337 21.40 337 -1.2 100 -1.2 302 0 968.8 NA 0.0000 UP BR 5000 1180 2300 0 0
2019/10/20 15:02:00 BASE 18.58 338 21.40 337 -1.1 100 -1.1 349 0 968.8 NA 0.0000 UP BR 9999 1050 0 0 0
2019/10/20 15:03:00 BASE 18.39 340 21.40 337 -1.1 100 -1.1 387 0 968.8 NA 0.0000 UP BR 9999 1510 2360 0 0
2019/10/20 15:04:00 BASE 17.46 340 21.40 337 -1.0 100 -1.0 391 0 968.8 NA 0.0000 UP BR 9999 1050 2460 0 0
2019/10/20 15:05:00 BASE 17.13 341 21.40 337 -0.9 100 -0.9 367 0 968.9 NA 0.0000 UP BR 9999 6200 0 0 0
2019/10/20 15:06:00 BASE 17.28 341 21.40 337 -0.9 100 -0.9 357 0 968.9 NA 0.0000 UP BR 9999 1510 2330 0 0
2019/10/20 15:07:00 BASE 17.91 343 21.40 337 -0.9 100 -0.9 359 0 968.8 NA 0.0000 BR 9999 2460 0 0 0
2019/10/20 15:08:00 BASE 19.21 344 21.40 337 -0.9 100 -0.9 366 0 968.8 NA 0.0000 BR 9999 2300 0 0 0
2019/10/20 15:09:00 BASE 19.31 346 21.40 337 -0.9 100 -0.9 354 0 968.9 NA 0.0000 9999 2300 0 0 0
2019/10/20 15:10:00 BASE 19.01 347 21.25 344 -0.9 100 -0.9 344 0 968.9 NA 0.0000 9999 2360 0 0 0
2019/10/20 15:11:00 BASE 19.48 344 22.64 341 -0.9 100 -0.9 342 0 968.9 NA 0.0000 9999 1540 2460 0 0
2019/10/20 15:12:00 BASE 19.08 343 22.64 341 -0.9 100 -0.9 350 0 969.0 NA 0.0000 9999 1480 2690 0 0
2019/10/20 15:13:00 BASE 18.03 343 22.64 341 -0.9 100 -0.9 329 0 969.0 NA 0.0000 9999 1540 2400 0 0
2019/10/20 15:14:00 BASE 17.70 344 22.64 341 -0.9 100 -0.9 340 0 969.0 NA 0.0000 9999 1080 2490 0 0
2019/10/20 15:15:00 BASE 18.75 345 22.64 341 -0.9 100 -0.9 328 0 969.0 NA 0.0000 9999 1120 1610 0 0
2019/10/20 15:16:00 BASE 19.96 345 22.64 341 -0.9 100 -0.9 306 0 969.1 NA 0.0000 9999 1410 0 0 0
2019/10/20 15:17:00 BASE 20.12 343 22.64 341 -0.9 100 -0.9 298 0 969.1 NA 0.0000 9999 1380 0 0 0
2019/10/20 15:18:00 BASE 18.62 343 22.64 341 -0.9 100 -0.9 289 0 969.2 NA 0.0000 9999 1250 0 0 0
2019/10/20 15:19:00 BASE 17.24 344 22.64 341 -0.9 100 -0.9 290 0 969.2 NA 0.0000 9999 1410 2200 0 0
2019/10/20 15:20:00 BASE 18.65 344 22.64 341 -0.9 100 -0.9 281 0 969.1 NA 0.0000 9999 1180 0 0 0
2019/10/20 15:21:00 BASE 19.84 345 22.64 342 -0.9 100 -0.9 295 0 969.2 NA 0.0000 9999 1250 2460 0 0
2019/10/20 15:22:00 BASE 18.99 345 22.64 342 -0.9 100 -0.9 296 0 969.2 NA 0.0000 9999 1280 2920 0 0
2019/10/20 15:23:00 BASE 18.75 345 22.64 342 -0.9 100 -0.9 298 0 969.2 NA 0.0000 9999 1280 2430 0 0
2019/10/20 15:24:00 BASE 19.56 345 22.64 342 -0.9 100 -0.9 272 0 969.2 NA 0.0000 9999 1250 2820 0 0
2019/10/20 15:25:00 BASE 19.49 344 22.64 342 -0.9 100 -0.9 249 0 969.2 NA 0.0000 9999 1150 0 0 0
2019/10/20 15:26:00 BASE 19.42 340 22.64 342 -0.9 100 -0.9 215 0 969.2 NA 0.0000 9999 1480 3050 0 0
2019/10/20 15:27:00 BASE 19.53 340 22.64 342 -0.9 100 -0.9 196 0 969.3 NA 0.0000 9999 1120 0 0 0
2019/10/20 15:28:00 BASE 18.75 340 22.64 342 -0.9 100 -0.9 185 0 969.4 NA 0.0000 9999 1180 0 0 0
2019/10/20 15:29:00 BASE 17.90 339 22.64 342 -0.9 100 -0.9 155 0 969.5 NA 0.0000 9999 1180 0 0 0
2019/10/20 15:30:00 BASE 18.21 339 22.64 342 -0.9 100 -0.9 136 0 969.5 NA 0.0000 9999 1210 0 0 0
2019/10/20 15:31:00 BASE 18.40 340 21.45 341 -0.9 100 -0.9 130 0 969.5 NA 0.0000 9999 1080 0 0 0
2019/10/20 15:32:00 BASE 18.65 337 21.45 341 -1.0 100 -1.0 139 0 969.6 NA 0.0000 9999 1050 0 0 0
2019/10/20 15:33:00 BASE 18.76 339 21.45 341 -1.0 100 -1.0 145 0 969.5 NA 0.0000 9999 1120 0 0 0
2019/10/20 15:34:00 BASE 19.13 341 23.05 337 -1.0 100 -1.0 150 0 969.5 NA 0.0000 9999 1180 22510 0 0
2019/10/20 15:35:00 BASE 20.17 339 23.05 337 -1.0 100 -1.0 143 0 969.5 NA 0.0000 9999 1150 1770 0 0
2019/10/20 15:36:00 BASE 19.43 339 23.05 337 -1.0 100 -1.0 135 0 969.6 NA 0.0000 9999 1250 1770 0 0
2019/10/20 15:37:00 BASE 18.26 338 23.05 337 -1.0 100 -1.0 126 0 969.7 NA 0.0000 9999 1120 22610 0 0
2019/10/20 15:38:00 BASE 19.08 338 23.05 337 -1.0 100 -1.0 126 0 969.6 NA 0.0000 9999 1120 0 0 0
2019/10/20 15:39:00 BASE 20.86 338 23.05 337 -1.0 100 -1.0 126 0 969.6 NA 0.0000 9999 1080 0 0 0
2019/10/20 15:40:00 BASE 21.13 339 23.05 337 -1.0 100 -1.0 123 0 969.6 NA 0.0000 9999 1120 22110 0 0
2019/10/20 15:41:00 BASE 19.83 339 23.05 337 -1.1 100 -1.1 125 0 969.7 NA 0.0000 9999 1020 0 0 0
2019/10/20 15:42:00 BASE 19.30 339 23.05 337 -1.1 100 -1.1 127 0 969.7 NA 0.0000 9999 1020 0 0 0
2019/10/20 15:43:00 BASE 19.81 339 23.05 337 -1.1 100 -1.1 131 0 969.7 NA 0.0000 9999 1120 0 0 0
2019/10/20 15:44:00 BASE 19.84 338 22.64 341 -1.1 100 -1.1 132 0 969.8 NA 0.0000 9999 1050 0 0 0
2019/10/20 15:45:00 BASE 18.94 338 22.64 341 -1.1 100 -1.1 134 0 969.8 NA 0.0000 9999 1020 0 0 0
2019/10/20 15:46:00 BASE 17.85 340 22.64 341 -1.1 100 -1.1 133 0 969.8 NA 0.0000 9999 890 0 0 0
2019/10/20 15:47:00 BASE 17.46 343 22.64 341 -1.1 100 -1.1 133 0 969.9 NA 0.0000 9999 720 0 0 0
2019/10/20 15:48:00 BASE 17.19 344 22.64 341 -1.1 100 -1.1 130 0 969.9 NA 0.0000 9999 560 0 0 0
2019/10/20 15:49:00 BASE 17.22 343 21.81 341 -1.1 100 -1.1 123 0 969.9 NA 0.0000 9999 460 0 0 0
2019/10/20 15:50:00 BASE 18.16 344 21.81 341 -1.1 100 -1.1 128 0 969.9 NA 0.0000 9999 430 0 0 0
2019/10/20 15:51:00 BASE 18.29 346 21.81 341 -1.1 100 -1.1 128 0 969.9 NA 0.0000 9999 360 0 0 0
2019/10/20 15:52:00 BASE 18.71 345 21.50 339 -1.1 100 -1.1 140 0 969.9 NA 0.0000 9999 390 0 0 0
2019/10/20 15:53:00 BASE 19.83 345 21.35 349 -1.1 100 -1.1 142 0 969.9 NA 0.0000 9999 360 0 0 0
2019/10/20 15:54:00 BASE 19.87 346 21.35 349 -1.1 100 -1.1 144 0 969.9 NA 0.0000 9999 360 0 0 0
2019/10/20 15:55:00 BASE 19.81 345 21.86 344 -1.1 100 -1.1 144 0 969.9 NA 0.0000 9999 360 0 0 0
2019/10/20 15:56:00 BASE 19.14 344 21.86 344 -1.1 100 -1.1 141 0 970.0 NA 0.0000 9999 360 0 0 0
2019/10/20 15:57:00 BASE 18.38 342 21.86 344 -1.1 100 -1.1 132 0 970.0 NA 0.0000 9999 360 0 0 0
2019/10/20 15:58:00 BASE 19.24 339 21.86 344 -1.1 100 -1.1 120 0 970.0 NA 0.0000 9999 360 0 0 0
2019/10/20 15:59:00 BASE 19.58 338 21.86 344 -1.1 100 -1.1 126 0 970.1 NA 0.0000 9999 360 0 0 0
2019/10/20 16:00:00 BASE 18.97 339 21.86 344 -1.1 100 -1.1 123 0 970.0 NA 0.0000 9999 360 0 0 0
2019/10/20 16:01:00 BASE 18.44 339 21.86 344 -1.1 100 -1.1 124 0 970.2 NA 0.0000 9999 360 0 0 0
2019/10/20 16:02:00 BASE 17.44 339 21.86 344 -1.1 100 -1.1 120 0 970.2 NA 0.0000 9999 360 0 0 0
2019/10/20 16:03:00 BASE 17.03 340 21.86 344 -1.1 100 -1.1 121 0 970.2 NA 0.0000 9999 360 0 0 0
2019/10/20 16:04:00 BASE 17.13 340 21.86 344 -1.2 100 -1.2 127 0 970.3 NA 0.0000 9999 360 0 0 0
2019/10/20 16:05:00 BASE 17.94 339 21.30 338 -1.2 100 -1.2 129 0 970.2 NA 0.0000 9999 360 1310 0 0
2019/10/20 16:06:00 BASE 17.66 340 21.30 338 -1.2 100 -1.2 122 0 970.3 NA 0.0000 9999 360 0 0 0
2019/10/20 16:07:00 BASE 16.95 341 21.30 338 -1.2 100 -1.2 123 0 970.3 NA 0.0000 9999 360 0 0 0
2019/10/20 16:08:00 BASE 17.40 339 20.78 339 -1.2 100 -1.2 119 0 970.3 NA 0.0000 9999 360 0 0 0
2019/10/20 16:09:00 BASE 16.78 340 20.78 339 -1.2 100 -1.2 122 0 970.4 NA 0.0000 9999 360 0 0 0
2019/10/20 16:10:00 BASE 16.57 340 20.22 337 -1.2 100 -1.2 126 0 970.4 NA 0.0000 9999 390 0 0 0
2019/10/20 16:11:00 BASE 17.74 338 20.22 337 -1.2 100 -1.2 132 0 970.3 NA 0.0000 9999 390 0 0 0
2019/10/20 16:12:00 BASE 17.85 339 20.27 343 -1.2 100 -1.2 131 0 970.3 NA 0.0000 9999 390 0 0 0
2019/10/20 16:13:00 BASE 17.91 341 21.86 347 -1.2 100 -1.2 127 0 970.3 NA 0.0000 9999 430 0 0 0
2019/10/20 16:14:00 BASE 18.67 342 21.92 337 -1.2 100 -1.2 129 0 970.3 NA 0.0000 9999 590 0 0 0
2019/10/20 16:15:00 BASE 19.69 340 21.92 337 -1.2 100 -1.2 134 0 970.3 NA 0.0000 9999 460 0 0 0
2019/10/20 16:16:00 BASE 20.22 337 21.92 337 -1.2 100 -1.2 147 0 970.4 NA 0.0000 9999 490 0 0 0
2019/10/20 16:17:00 BASE 19.80 339 21.92 337 -1.3 100 -1.3 144 0 970.4 NA 0.0000 9999 560 1380 0 0
2019/10/20 16:18:00 BASE 20.23 340 21.92 337 -1.3 100 -1.3 143 0 970.4 NA 0.0000 9999 750 1510 0 0
2019/10/20 16:19:00 BASE 20.06 339 21.92 337 -1.3 100 -1.3 139 0 970.4 NA 0.0000 9999 690 0 0 0
2019/10/20 16:20:00 BASE 19.66 340 21.92 337 -1.3 100 -1.3 147 0 970.5 NA 0.0000 9999 690 0 0 0
2019/10/20 16:21:00 BASE 20.14 339 22.07 340 -1.3 100 -1.3 153 0 970.4 NA 0.0000 9999 750 0 0 0
2019/10/20 16:22:00 BASE 19.87 338 22.07 340 -1.3 100 -1.3 153 0 970.5 NA 0.0000 9999 690 0 0 0
2019/10/20 16:23:00 BASE 19.99 338 22.43 339 -1.3 100 -1.3 156 0 970.5 NA 0.0000 9999 460 0 0 0
2019/10/20 16:24:00 BASE 21.07 338 22.43 339 -1.3 100 -1.3 150 0 970.5 NA 0.0000 9999 460 0 0 0
2019/10/20 16:25:00 BASE 20.34 339 22.43 339 -1.3 100 -1.3 151 0 970.6 NA 0.0000 9999 430 0 0 0
2019/10/20 16:26:00 BASE 18.85 340 22.43 339 -1.3 100 -1.3 154 0 970.6 NA 0.0000 9999 430 0 0 0
2019/10/20 16:27:00 BASE 18.61 339 22.43 339 -1.3 100 -1.3 155 0 970.6 NA 0.0000 9999 390 0 0 0
2019/10/20 16:28:00 BASE 18.44 339 22.43 339 -1.3 100 -1.3 153 0 970.7 NA 0.0000 9999 330 0 0 0
2019/10/20 16:29:00 BASE 18.55 339 22.43 339 -1.3 100 -1.3 153 0 970.7 NA 0.0000 9999 260 0 0 0
2019/10/20 16:30:00 BASE 18.83 338 22.43 339 -1.3 100 -1.3 144 0 970.7 NA 0.0000 9999 360 0 0 0
2019/10/20 16:31:00 BASE 18.81 338 22.43 339 -1.3 100 -1.3 130 0 970.8 NA 0.0000 9999 1540 0 0 0
2019/10/20 16:32:00 BASE 19.09 338 22.43 339 -1.4 100 -1.4 123 0 970.8 NA 0.0000 9999 1150 0 0 0
2019/10/20 16:33:00 BASE 19.14 338 22.38 337 -1.4 100 -1.4 120 0 970.8 NA 0.0000 9999 1210 22900 0 0
2019/10/20 16:34:00 BASE 19.19 338 21.81 335 -1.4 100 -1.4 122 0 970.8 NA 0.0000 9999 1350 0 0 0
2019/10/20 16:35:00 BASE 18.69 339 21.81 335 -1.4 100 -1.4 120 0 970.9 NA 0.0000 9999 1250 2590 0 0
2019/10/20 16:36:00 BASE 18.14 340 21.81 335 -1.4 100 -1.4 118 0 970.9 NA 0.0000 9999 1310 0 0 0
2019/10/20 16:37:00 BASE 18.39 339 21.81 335 -1.4 100 -1.4 114 0 970.9 NA 0.0000 9999 1250 0 0 0
2019/10/20 16:38:00 BASE 19.08 338 21.81 335 -1.4 100 -1.4 116 0 970.9 NA 0.0000 9999 1080 0 0 0
2019/10/20 16:39:00 BASE 19.43 337 21.40 337 -1.4 100 -1.4 117 0 970.9 NA 0.0000 9999 1150 2300 0 0
2019/10/20 16:40:00 BASE 19.15 337 21.40 337 -1.4 100 -1.4 116 0 970.9 NA 0.0000 9999 1350 0 0 0
2019/10/20 16:41:00 BASE 19.13 339 21.40 337 -1.4 100 -1.4 122 0 971.0 NA 0.0000 9999 1180 2720 0 0
2019/10/20 16:42:00 BASE 18.95 339 21.40 337 -1.4 100 -1.4 126 0 971.0 NA 0.0000 9999 1150 2590 0 0
2019/10/20 16:43:00 BASE 18.60 335 21.40 337 -1.4 100 -1.4 125 0 971.1 NA 0.0000 9999 1150 1740 0 0
2019/10/20 16:44:00 BASE 17.86 333 21.40 337 -1.4 100 -1.4 128 0 971.1 NA 0.0000 9999 1020 0 0 0
2019/10/20 16:45:00 BASE 17.50 334 21.40 337 -1.4 100 -1.4 135 0 971.1 NA 0.0000 9999 430 0 0 0
2019/10/20 16:46:00 BASE 17.85 337 21.40 337 -1.4 100 -1.4 133 0 971.1 NA 0.0000 9999 330 0 0 0
2019/10/20 16:47:00 BASE 17.36 339 21.40 337 -1.4 100 -1.4 133 0 971.1 NA 0.0000 9999 0 0 0 1610
2019/10/20 16:48:00 BASE 16.84 338 21.20 345 -1.3 100 -1.3 139 0 971.2 NA 0.0000 9000 0 0 0 1710
2019/10/20 16:49:00 BASE 18.25 336 21.20 345 -1.3 100 -1.3 131 0 971.1 NA 0.0000 UP 8000 0 0 0 3510
2019/10/20 16:50:00 BASE 19.49 338 21.20 345 -1.3 100 -1.3 129 0 971.1 NA 0.0000 UP 8000 0 0 0 2430
2019/10/20 16:51:00 BASE 19.27 339 21.20 345 -1.4 100 -1.4 130 0 971.2 NA 0.0000 UP 9000 0 0 0 2360
2019/10/20 16:52:00 BASE 18.65 338 20.89 337 -1.4 100 -1.4 128 0 971.2 NA 0.0000 UP 9000 0 0 0 2230
2019/10/20 16:53:00 BASE 18.05 339 20.89 337 -1.4 100 -1.4 119 0 971.2 NA 0.0000 UP 9000 0 0 0 1840
2019/10/20 16:54:00 BASE 17.78 341 20.89 337 -1.4 100 -1.4 120 0 971.2 NA 0.0000 UP BR 9000 0 0 0 1510
2019/10/20 16:55:00 BASE 17.29 341 20.89 337 -1.4 100 -1.4 121 0 971.2 NA 0.0000 UP BR 9999 0 0 0 1380
2019/10/20 16:56:00 BASE 17.00 343 20.89 337 -1.4 100 -1.4 123 0 971.2 NA 0.0000 UP BR 9000 0 0 0 1350
2019/10/20 16:57:00 BASE 17.08 346 20.89 337 -1.4 100 -1.4 126 0 971.2 NA 0.0000 UP BR 9000 0 0 0 1310
2019/10/20 16:58:00 BASE 18.21 347 20.89 337 -1.4 100 -1.4 128 0 971.2 NA 0.0000 UP BR 9000 0 0 0 1380
2019/10/20 16:59:00 BASE 18.51 345 20.58 339 -1.4 100 -1.4 133 0 971.3 NA 0.0000 UP BR 9000 0 0 0 1640
2019/10/20 17:00:00 BASE 18.23 344 20.11 346 -1.4 100 -1.4 138 0 971.2 NA 0.0000 UP BR 9000 0 0 0 1840
2019/10/20 17:01:00 BASE 18.89 345 20.94 346 -1.4 100 -1.4 141 0 971.3 NA 0.0000 UP BR 9999 0 0 0 1710
2019/10/20 17:02:00 BASE 19.26 345 21.25 347 -1.4 100 -1.4 147 0 971.3 NA 0.0000 UP BR 9999 0 0 0 1740
2019/10/20 17:03:00 BASE 20.04 343 22.17 345 -1.5 100 -1.5 150 0 971.3 NA 0.0000 UP BR 9999 0 0 0 2200
2019/10/20 17:04:00 BASE 20.44 342 22.17 345 -1.5 100 -1.5 152 0 971.4 NA 0.0000 UP BR 9999 0 0 0 2460
2019/10/20 17:05:00 BASE 19.08 342 22.17 345 -1.5 100 -1.5 150 0 971.5 NA 0.0000 UP BR 9999 0 0 0 2660
2019/10/20 17:06:00 BASE 17.71 340 22.17 345 -1.5 100 -1.5 150 0 971.5 NA 0.0000 UP BR 9999 0 0 0 2070
2019/10/20 17:07:00 BASE 18.18 339 22.17 345 -1.5 100 -1.5 151 0 971.5 NA 0.0000 UP BR 9999 0 0 0 2330
2019/10/20 17:08:00 BASE 17.90 341 22.17 345 -1.5 100 -1.5 151 0 971.5 NA 0.0000 UP 9999 22380 0 0 0
2019/10/20 17:09:00 BASE 16.31 342 22.17 345 -1.5 100 -1.5 148 0 971.6 NA 0.0000 UP 9999 19650 21590 0 0
2019/10/20 17:10:00 BASE 15.68 342 22.17 345 -1.5 100 -1.5 148 0 971.7 NA 0.0000 UP 9999 260 0 0 0
2019/10/20 17:11:00 BASE 15.72 342 22.17 345 -1.5 100 -1.5 147 0 971.6 NA 0.0000 UP 9999 260 0 0 0
2019/10/20 17:12:00 BASE 16.48 344 22.17 345 -1.5 100 -1.5 148 0 971.6 NA 0.0000 UP 9999 230 22440 0 0
2019/10/20 17:13:00 BASE 17.12 345 21.56 345 -1.5 100 -1.5 150 0 971.7 NA 0.0000 UP 9999 0 0 0 3310
2019/10/20 17:14:00 BASE 16.34 344 20.53 347 -1.5 100 -1.5 150 0 971.7 NA 0.0000 UP 9999 260 0 0 0
2019/10/20 17:15:00 BASE 16.32 344 20.53 347 -1.5 100 -1.5 150 0 971.7 NA 0.0000 UP 9999 260 0 0 0
2019/10/20 17:16:00 BASE 17.63 345 20.94 347 -1.5 100 -1.5 150 0 971.7 NA 0.0000 UP 9999 230 0 0 0
2019/10/20 17:17:00 BASE 19.13 346 21.81 345 -1.5 100 -1.5 146 0 971.6 NA 0.0000 UP 9999 0 0 0 4330
2019/10/20 17:18:00 BASE 19.17 347 21.81 345 -1.5 100 -1.5 142 0 971.7 NA 0.0000 9999 260 0 0 0
2019/10/20 17:19:00 BASE 18.76 347 21.81 345 -1.5 100 -1.5 141 0 971.7 NA 0.0000 9999 0 0 0 2850
2019/10/20 17:20:00 BASE 19.02 346 21.81 345 -1.5 100 -1.5 141 0 971.7 NA 0.0000 9999 0 0 0 2590
2019/10/20 17:21:00 BASE 18.48 346 21.81 345 -1.5 100 -1.5 137 0 971.8 NA 0.0000 9999 0 0 0 2230
2019/10/20 17:22:00 BASE 18.91 349 21.81 345 -1.5 100 -1.5 137 0 971.7 NA 0.0000 9999 0 0 0 1610
2019/10/20 17:23:00 BASE 19.76 348 21.97 340 -1.5 100 -1.5 136 0 971.7 NA 0.0000 UP 9999 0 0 0 2170
2019/10/20 17:24:00 BASE 19.68 347 21.97 340 -1.5 100 -1.5 136 0 971.8 NA 0.0000 UP 9999 0 0 0 2030
2019/10/20 17:25:00 BASE 19.35 346 21.97 340 -1.5 100 -1.5 137 0 971.9 NA 0.0000 UP 9999 0 0 0 2000
2019/10/20 17:26:00 BASE 18.88 343 21.97 340 -1.5 100 -1.5 139 0 971.9 NA 0.0000 UP 9999 0 0 0 1670
2019/10/20 17:27:00 BASE 19.31 343 21.97 340 -1.5 100 -1.5 138 0 971.9 NA 0.0000 UP 9999 0 0 0 1870
2019/10/20 17:28:00 BASE 20.58 344 22.84 345 -1.5 100 -1.5 136 0 971.9 NA 0.0000 UP 9999 0 0 0 2030
2019/10/20 17:29:00 BASE 19.89 342 22.84 345 -1.5 100 -1.5 136 0 972.0 NA 0.0000 UP 9999 0 0 0 2200
2019/10/20 17:30:00 BASE 19.55 339 22.84 345 -1.5 100 -1.5 137 0 972.0 NA 0.0000 UP 9000 0 0 0 2230
2019/10/20 17:31:00 BASE 19.26 339 22.84 345 -1.5 100 -1.5 135 0 972.1 NA 0.0000 UP 9999 0 0 0 2260
2019/10/20 17:32:00 BASE 18.17 341 22.84 345 -1.6 100 -1.6 132 0 972.1 NA 0.0000 UP 9999 0 0 0 2490
2019/10/20 17:33:00 BASE 17.71 341 22.84 345 -1.6 100 -1.6 130 0 972.2 NA 0.0000 UP 9999 0 0 0 2230
2019/10/20 17:34:00 BASE 18.03 339 22.84 345 -1.6 100 -1.6 128 0 972.2 NA 0.0000 UP 9999 0 0 0 2230
2019/10/20 17:35:00 BASE 18.28 340 22.84 345 -1.6 100 -1.6 130 0 972.2 NA 0.0000 UP BR 9000 0 0 0 2230
2019/10/20 17:36:00 BASE 18.49 340 22.84 345 -1.6 100 -1.6 133 0 972.2 NA 0.0000 UP BR 9999 0 0 0 2690
2019/10/20 17:37:00 BASE 19.08 340 22.84 345 -1.6 100 -1.6 132 0 972.2 NA 0.0000 UP BR 9999 0 0 0 2850
2019/10/20 17:38:00 BASE 18.33 341 21.66 333 -1.6 100 -1.6 131 0 972.3 NA 0.0000 UP BR 9999 0 0 0 2400
2019/10/20 17:39:00 BASE 17.86 340 21.66 333 -1.6 100 -1.6 134 0 972.3 NA 0.0000 UP BR 9999 0 0 0 2330
2019/10/20 17:40:00 BASE 17.88 338 21.66 333 -1.6 100 -1.6 135 0 972.3 NA 0.0000 UP 9999 0 0 0 2530
2019/10/20 17:41:00 BASE 17.64 340 21.66 333 -1.5 100 -1.5 136 0 972.3 NA 0.0000 UP 9999 1870 0 0 0
2019/10/20 17:42:00 BASE 18.05 343 21.66 333 -1.5 100 -1.5 135 0 972.3 NA 0.0000 UP 9999 24150 0 0 0
2019/10/20 17:43:00 BASE 18.82 342 21.66 333 -1.5 100 -1.5 133 0 972.3 NA 0.0000 UP 9999 0 0 0 2170
2019/10/20 17:44:00 BASE 19.07 341 21.50 340 -1.5 100 -1.5 134 0 972.3 NA 0.0000 UP 9999 0 0 0 2100
2019/10/20 17:45:00 BASE 19.43 343 21.50 346 -1.5 100 -1.5 136 0 972.3 NA 0.0000 UP 9999 230 0 0 0
2019/10/20 17:46:00 BASE 19.20 343 21.50 352 -1.5 100 -1.5 140 0 972.4 NA 0.0000 UP 9999 260 0 0 0
2019/10/20 17:47:00 BASE 18.69 342 21.50 352 -1.5 100 -1.5 145 0 972.4 NA 0.0000 UP 9999 0 0 0 1710
2019/10/20 17:48:00 BASE 19.92 343 22.43 347 -1.5 100 -1.5 147 0 972.3 NA 0.0000 UP 9999 0 0 0 2230
2019/10/20 17:49:00 BASE 20.28 343 22.43 347 -1.5 100 -1.5 146 0 972.4 NA 0.0000 UP 9999 1870 0 0 0
2019/10/20 17:50:00 BASE 19.13 344 22.43 347 -1.5 100 -1.5 145 0 972.4 NA 0.0000 UP 9999 260 0 0 0
2019/10/20 17:51:00 BASE 18.80 343 22.43 347 -1.5 100 -1.5 144 0 972.5 NA 0.0000 UP 9999 0 0 0 2690
2019/10/20 17:52:00 BASE 19.36 341 22.43 347 -1.5 100 -1.5 143 0 972.5 NA 0.0000 UP 9999 230 0 0 0
2019/10/20 17:53:00 BASE 20.58 345 22.64 341 -1.5 100 -1.5 141 0 972.5 NA 0.0000 UP 9999 0 0 0 2590
2019/10/20 17:54:00 BASE 20.89 346 23.36 347 -1.5 100 -1.5 143 0 972.5 NA 0.0000 UP 9999 0 0 0 2620
2019/10/20 17:55:00 BASE 20.85 343 23.36 347 -1.5 100 -1.5 143 0 972.5 NA 0.0000 UP 9999 0 0 0 2660
2019/10/20 17:56:00 BASE 20.17 344 23.36 347 -1.5 100 -1.5 142 0 972.6 NA 0.0000 UP 9999 230 0 0 0
2019/10/20 17:57:00 BASE 19.54 345 23.36 347 -1.5 100 -1.5 140 0 972.6 NA 0.0000 UP 9999 260 0 0 0
2019/10/20 17:58:00 BASE 20.21 344 23.51 343 -1.5 100 -1.5 139 0 972.6 NA 0.0000 UP 9999 0 0 0 2330
2019/10/20 17:59:00 BASE 19.69 343 23.51 343 -1.5 100 -1.5 138 0 972.7 NA 0.0000 UP 9999 0 0 0 2430
2019/10/20 18:00:00 BASE 18.03 340 23.51 343 -1.5 100 -1.5 136 0 972.7 NA 0.0000 UP 9999 0 0 0 2490
2019/10/20 18:01:00 BASE 18.67 340 23.51 343 -1.5 100 -1.5 136 0 972.7 NA 0.0000 UP 9999 260 0 0 0
2019/10/20 18:02:00 BASE 19.38 341 23.51 343 -1.5 100 -1.5 138 0 972.7 NA 0.0000 UP 9999 0 0 0 2660
2019/10/20 18:03:00 BASE 18.91 340 23.51 343 -1.5 100 -1.5 138 0 972.8 NA 0.0000 UP 9999 0 0 0 2820
2019/10/20 18:04:00 BASE 18.93 339 23.51 343 -1.5 100 -1.5 137 0 972.8 NA 0.0000 UP 9999 300 0 0 0
2019/10/20 18:05:00 BASE 18.67 341 23.51 343 -1.5 100 -1.5 136 0 972.8 NA 0.0000 UP 9999 0 0 0 3480
2019/10/20 18:06:00 BASE 19.46 341 23.51 343 -1.5 100 -1.6 135 0 972.8 NA 0.0000 UP 9999 0 0 0 3510
2019/10/20 18:07:00 BASE 20.50 339 23.51 343 -1.6 100 -1.6 135 0 972.8 NA 0.0000 UP 9999 0 0 0 3640
2019/10/20 18:08:00 BASE 20.35 341 22.17 339 -1.6 100 -1.6 135 0 972.8 NA 0.0000 UP 9999 0 0 0 3900
2019/10/20 18:09:00 BASE 19.29 342 22.17 339 -1.6 100 -1.6 132 0 972.9 NA 0.0000 UP 9999 0 0 0 3770
2019/10/20 18:10:00 BASE 18.21 343 22.17 339 -1.6 100 -1.6 130 0 972.9 NA 0.0000 UP 9999 0 0 0 3310
2019/10/20 18:11:01 BASE 19.08 341 23.10 339 -1.6 100 -1.6 130 0 972.9 NA 0.0000 UP 9999 260 0 0 0
2019/10/20 18:12:00 BASE 19.75 341 23.10 339 -1.6 100 -1.6 129 0 972.9 NA 0.0000 UP 9999 230 0 0 0
2019/10/20 18:13:00 BASE 19.17 342 23.10 339 -1.6 100 -1.6 126 0 973.0 NA 0.0000 UP 9999 0 0 0 2200
2019/10/20 18:14:00 BASE 18.91 343 23.10 339 -1.6 100 -1.6 123 0 973.0 NA 0.0000 UP 9999 0 0 0 2070
2019/10/20 18:15:00 BASE 18.47 341 23.10 339 -1.6 100 -1.6 118 0 973.1 NA 0.0000 UP 9999 0 0 0 1970
2019/10/20 18:16:00 BASE 18.19 339 23.10 339 -1.6 100 -1.6 115 0 973.2 NA 0.0000 UP 9000 0 0 0 1940
2019/10/20 18:17:00 BASE 19.07 339 23.10 339 -1.6 100 -1.6 112 0 973.1 NA 0.0000 UP 9000 0 0 0 1870
2019/10/20 18:18:00 BASE 19.74 339 23.10 339 -1.6 100 -1.6 110 0 973.1 NA 0.0000 UP 9000 0 0 0 2030
2019/10/20 18:19:00 BASE 19.18 339 23.10 339 -1.6 100 -1.6 107 0 973.2 NA 0.0000 UP 9000 22800 0 0 0
2019/10/20 18:20:00 BASE 18.78 342 23.10 339 -1.6 100 -1.6 108 0 973.2 NA 0.0000 UP 9000 0 0 0 1970
2019/10/20 18:21:00 BASE 19.15 343 22.07 335 -1.6 100 -1.6 109 0 973.2 NA 0.0000 UP BR 9000 230 0 0 0
2019/10/20 18:22:00 BASE 18.94 344 22.07 335 -1.6 100 -1.6 110 0 973.2 NA 0.0000 UP BR 9000 230 0 0 0
2019/10/20 18:23:00 BASE 19.22 344 22.17 346 -1.6 100 -1.6 109 0 973.2 NA 0.0000 UP BR 9000 260 0 0 0
2019/10/20 18:24:00 BASE 19.85 343 22.17 346 -1.6 100 -1.6 108 0 973.2 NA 0.0000 UP BR 9000 0 0 0 2990
2019/10/20 18:25:00 BASE 19.57 344 22.17 346 -1.6 100 -1.6 108 0 973.3 NA 0.0000 UP BR 9999 260 0 0 0
2019/10/20 18:26:00 BASE 19.01 343 22.17 346 -1.6 100 -1.6 107 0 973.4 NA 0.0000 UP BR 9999 0 0 0 4630
2019/10/20 18:27:00 BASE 18.26 343 22.17 346 -1.6 100 -1.6 105 0 973.4 NA 0.0000 UP BR 9999 0 0 0 4630
2019/10/20 18:28:00 BASE 18.56 344 22.17 346 -1.6 100 -1.6 104 0 973.4 NA 0.0000 UP BR 9999 260 23030 0 0
2019/10/20 18:29:00 BASE 19.10 345 22.17 346 -1.6 100 -1.6 100 0 973.4 NA 0.0000 UP BR 9999 230 0 0 0
2019/10/20 18:30:00 BASE 20.32 346 23.10 347 -1.6 100 -1.6 101 0 973.4 NA 0.0000 UP BR 9999 0 0 0 1640
2019/10/20 18:31:00 BASE 20.70 344 23.10 347 -1.6 100 -1.6 100 0 973.4 NA 0.0000 UP BR 9999 230 0 0 0
2019/10/20 18:32:00 BASE 19.64 344 23.10 347 -1.6 100 -1.6 99 0 973.5 NA 0.0000 UP BR 9999 260 0 0 0
2019/10/20 18:33:00 BASE 20.21 345 23.10 347 -1.6 100 -1.6 101 0 973.5 NA 0.0000 UP BR 9999 260 0 0 0
2019/10/20 18:34:00 BASE 19.87 345 23.10 347 -1.6 100 -1.6 101 0 973.6 NA 0.0000 UP BR 9999 0 0 0 3310
2019/10/20 18:35:00 BASE 18.35 343 23.10 347 -1.6 100 -1.6 96 0 973.6 NA 0.0000 UP BR 9999 300 22410 0 0
2019/10/20 18:36:00 BASE 18.67 343 23.10 347 -1.6 100 -1.6 95 0 973.6 NA 0.0000 UP BR 9999 300 0 0 0
2019/10/20 18:37:00 BASE 19.30 345 23.10 347 -1.6 100 -1.6 97 0 973.6 NA 0.0000 UP BR 9999 300 0 0 0
2019/10/20 18:38:00 BASE 19.65 346 23.10 347 -1.6 100 -1.6 101 0 973.6 NA 0.0000 UP BR 9999 330 0 0 0
2019/10/20 18:39:00 BASE 19.57 347 23.10 347 -1.6 100 -1.6 105 0 973.6 NA 0.0000 UP BR 9999 360 0 0 0
2019/10/20 18:40:00 BASE 19.66 346 22.17 344 -1.6 100 -1.6 106 0 973.7 NA 0.0000 UP BR 9999 360 0 0 0
2019/10/20 18:41:00 BASE 20.18 346 22.17 344 -1.6 100 -1.6 104 0 973.7 NA 0.0000 UP BR 9999 0 0 0 4400
2019/10/20 18:42:00 BASE 19.58 345 22.17 344 -1.6 100 -1.6 102 0 973.7 NA 0.0000 UP BR 9999 330 0 0 0
2019/10/20 18:43:00 BASE 19.71 343 22.79 344 -1.6 100 -1.6 100 0 973.7 NA 0.0000 UP 9999 0 0 0 4130
2019/10/20 18:44:00 BASE 19.87 344 22.79 344 -1.6 100 -1.6 99 0 973.8 NA 0.0000 UP 9999 330 0 0 0
2019/10/20 18:45:00 BASE 19.25 344 22.79 344 -1.6 100 -1.6 99 0 973.8 NA 0.0000 UP 9999 0 0 0 4000
2019/10/20 18:46:00 BASE 19.58 345 22.79 344 -1.6 100 -1.6 101 0 973.8 NA 0.0000 UP 9999 360 0 0 0
2019/10/20 18:47:00 BASE 19.83 344 23.05 344 -1.6 100 -1.6 100 0 973.8 NA 0.0000 UP 9999 360 0 0 0
2019/10/20 18:48:00 BASE 18.80 342 23.05 344 -1.6 100 -1.6 100 0 973.9 NA 0.0000 UP 9999 0 0 0 4170
2019/10/20 18:49:00 BASE 18.70 343 23.05 344 -1.6 100 -1.6 100 0 973.9 NA 0.0000 9999 0 0 0 4200
2019/10/20 18:50:00 BASE 19.19 344 23.05 344 -1.6 100 -1.6 101 0 973.9 NA 0.0000 UP 9999 0 0 0 4100
2019/10/20 18:51:00 BASE 18.15 343 23.05 344 -1.6 100 -1.6 102 0 974.0 NA 0.0000 UP 9999 0 0 0 4400
2019/10/20 18:52:00 BASE 18.65 343 23.05 344 -1.6 100 -1.6 99 0 973.9 NA 0.0000 UP 9999 360 0 0 0
2019/10/20 18:53:00 BASE 20.37 344 23.05 344 -1.6 100 -1.6 98 0 974.0 NA 0.0000 UP 9999 360 0 0 0
2019/10/20 18:54:00 BASE 20.74 344 23.05 344 -1.6 100 -1.6 97 0 974.0 NA 0.0000 UP 9999 360 0 0 0
2019/10/20 18:55:00 BASE 20.51 344 23.05 344 -1.6 100 -1.6 94 0 974.0 NA 0.0000 UP 9999 360 0 0 0
2019/10/20 18:56:00 BASE 20.04 344 23.05 344 -1.6 100 -1.6 95 0 974.1 NA 0.0000 UP 9999 390 0 0 0
2019/10/20 18:57:00 BASE 19.75 346 22.58 344 -1.6 100 -1.6 98 0 974.0 NA 0.0000 UP 9999 360 0 0 0
2019/10/20 18:58:00 BASE 20.37 345 22.74 343 -1.6 100 -1.6 102 0 974.1 NA 0.0000 UP 9999 330 0 0 0
2019/10/20 18:59:00 BASE 20.71 345 22.74 343 -1.6 100 -1.6 103 0 974.1 NA 0.0000 UP 9999 360 0 0 0
2019/10/20 19:00:00 BASE 19.63 345 22.74 343 -1.6 100 -1.6 103 0 974.2 NA 0.0000 UP 9999 360 0 0 0
2019/10/20 19:01:00 BASE 19.43 342 22.74 343 -1.6 100 -1.6 102 0 974.2 NA 0.0000 UP 9999 360 0 0 0
2019/10/20 19:02:00 BASE 20.82 343 22.74 343 -1.6 100 -1.6 100 0 974.2 NA 0.0000 UP 9999 360 0 0 0
2019/10/20 19:03:00 BASE 20.73 343 22.74 343 -1.6 100 -1.6 99 0 974.2 NA 0.0000 UP 9999 390 0 0 0
2019/10/20 19:04:00 BASE 19.59 342 22.74 343 -1.6 100 -1.6 98 0 974.3 NA 0.0000 UP 9999 390 0 0 0
2019/10/20 19:05:00 BASE 18.31 343 22.74 343 -1.6 100 -1.6 99 0 974.3 NA 0.0000 UP 9999 360 0 0 0
2019/10/20 19:06:00 BASE 17.75 344 22.74 343 -1.6 100 -1.6 100 0 974.3 NA 0.0000 UP 9999 360 0 0 0
2019/10/20 19:07:00 BASE 18.24 344 22.74 343 -1.6 100 -1.6 99 0 974.3 NA 0.0000 UP 9999 390 0 0 0
2019/10/20 19:08:00 BASE 18.26 344 22.64 340 -1.6 100 -1.6 98 0 974.4 NA 0.0000 UP 9999 2850 0 0 0
2019/10/20 19:09:00 BASE 18.77 345 22.64 340 -1.6 100 -1.6 97 0 974.3 NA 0.0000 9999 2890 0 0 0
2019/10/20 19:10:00 BASE 19.84 345 22.64 340 -1.6 100 -1.6 95 0 974.4 NA 0.0000 9999 2920 0 0 0
2019/10/20 19:11:00 BASE 20.09 343 22.64 340 -1.6 100 -1.6 93 0 974.4 NA 0.0000 9999 2990 0 0 0
2019/10/20 19:12:00 BASE 19.38 342 21.81 346 -1.6 100 -1.6 89 0 974.4 NA 0.0000 9999 2920 0 0 0
2019/10/20 19:13:00 BASE 18.43 341 21.81 346 -1.6 100 -1.6 90 0 974.5 NA 0.0000 9999 0 0 0 3250
2019/10/20 19:14:00 BASE 17.85 343 21.81 346 -1.6 100 -1.6 92 0 974.5 NA 0.0000 9999 0 0 0 3450
2019/10/20 19:15:00 BASE 18.46 345 21.81 346 -1.6 100 -1.6 92 0 974.5 NA 0.0000 UP 9999 360 0 0 0
2019/10/20 19:16:00 BASE 19.27 345 21.81 346 -1.6 100 -1.6 93 0 974.6 NA 0.0000 UP 9999 0 0 0 4070
2019/10/20 19:17:00 BASE 19.30 346 21.81 346 -1.6 100 -1.6 93 0 974.5 NA 0.0000 UP 9999 0 0 0 4490
2019/10/20 19:18:00 BASE 18.14 347 21.81 346 -1.6 100 -1.6 91 0 974.6 NA 0.0000 UP 9999 0 0 0 4630
2019/10/20 19:19:00 BASE 17.87 348 21.50 335 -1.6 100 -1.6 90 0 974.6 NA 0.0000 UP 9999 390 0 0 0
2019/10/20 19:20:00 BASE 18.31 347 21.50 335 -1.6 100 -1.6 89 0 974.6 NA 0.0000 UP 9999 390 0 0 0
2019/10/20 19:21:00 BASE 18.31 346 21.50 335 -1.6 100 -1.6 90 0 974.7 NA 0.0000 UP 9999 0 0 0 4530
2019/10/20 19:22:00 BASE 18.45 348 21.50 335 -1.6 100 -1.6 92 0 974.7 NA 0.0000 9999 2660 0 0 0
2019/10/20 19:23:00 BASE 17.65 347 21.09 341 -1.6 100 -1.6 93 0 974.7 NA 0.0000 9999 390 0 0 0
2019/10/20 19:24:00 BASE 17.12 344 21.09 341 -1.6 100 -1.6 96 0 974.8 NA 0.0000 9999 390 0 0 0
2019/10/20 19:25:00 BASE 17.31 343 21.09 341 -1.5 100 -1.6 99 0 974.8 NA 0.0000 9999 0 0 0 4690
2019/10/20 19:26:00 BASE 16.75 344 21.09 341 -1.5 100 -1.5 101 0 974.8 NA 0.0000 9999 2890 0 0 0
2019/10/20 19:27:00 BASE 16.84 346 20.68 343 -1.5 100 -1.5 100 0 974.8 NA 0.0000 9999 20050 0 0 0
2019/10/20 19:28:00 BASE 17.09 348 20.68 343 -1.5 100 -1.5 97 0 974.9 NA 0.0000 9999 22700 0 0 0
2019/10/20 19:29:00 BASE 16.87 349 20.68 343 -1.5 100 -1.5 96 0 974.8 NA 0.0000 9999 430 0 0 0
2019/10/20 19:30:00 BASE 17.50 348 20.68 343 -1.5 100 -1.5 96 0 974.8 NA 0.0000 9999 2490 0 0 0
2019/10/20 19:31:00 BASE 17.89 351 20.68 343 -1.5 100 -1.5 97 0 974.9 NA 0.0000 9999 2850 0 0 0
2019/10/20 19:32:00 BASE 17.83 353 20.68 343 -1.5 100 -1.5 97 0 974.9 NA 0.0000 9999 2950 0 0 0
2019/10/20 19:33:00 BASE 17.02 353 20.68 343 -1.5 100 -1.5 99 0 974.9 NA 0.0000 9999 2760 0 0 0
2019/10/20 19:34:00 BASE 16.51 355 20.22 353 -1.5 100 -1.5 103 0 975.0 NA 0.0000 9999 0 0 0 5090
2019/10/20 19:35:00 BASE 17.15 357 20.22 353 -1.5 100 -1.5 105 0 974.9 NA 0.0000 9999 4330 0 0 0
2019/10/20 19:36:00 BASE 17.56 355 20.22 353 -1.4 100 -1.4 106 0 974.9 NA 0.0000 9999 0 0 0 5220
2019/10/20 19:37:00 BASE 17.23 354 20.22 353 -1.4 100 -1.4 108 0 975.0 NA 0.0000 9999 4300 0 0 0
2019/10/20 19:38:00 BASE 17.63 354 20.22 353 -1.4 100 -1.4 108 0 974.9 NA 0.0000 9999 4330 0 0 0
2019/10/20 19:39:00 BASE 18.16 353 20.22 353 -1.4 100 -1.4 107 0 974.9 NA 0.0000 9999 3380 0 0 0
2019/10/20 19:40:00 BASE 17.61 352 20.22 353 -1.3 100 -1.3 106 0 975.0 NA 0.0000 9999 3480 0 0 0
2019/10/20 19:41:00 BASE 16.76 350 20.17 352 -1.3 100 -1.3 104 0 975.1 NA 0.0000 9999 4920 0 0 0
2019/10/20 19:42:00 BASE 16.05 347 20.17 352 -1.3 100 -1.3 103 0 975.1 NA 0.0000 9999 4950 0 0 0
2019/10/20 19:43:00 BASE 16.41 350 20.17 352 -1.3 99 -1.4 103 0 975.1 NA 0.0000 9999 5020 0 0 0
2019/10/20 19:44:00 BASE 16.50 352 20.17 352 -1.2 99 -1.4 105 0 975.1 NA 0.0000 9999 5120 0 0 0
2019/10/20 19:45:00 BASE 15.42 347 20.17 352 -1.2 98 -1.5 107 0 975.3 NA 0.0000 9999 3510 0 0 0
2019/10/20 19:46:00 BASE 15.63 347 20.17 352 -1.2 97 -1.6 107 0 975.3 NA 0.0000 9999 5320 0 0 0
2019/10/20 19:47:00 BASE 16.51 352 20.17 352 -1.2 96 -1.7 105 0 975.3 NA 0.0000 9999 5450 0 0 0
2019/10/20 19:48:00 BASE 17.12 352 20.17 352 -1.1 96 -1.7 101 0 975.3 NA 0.0000 9999 5580 0 0 0
2019/10/20 19:49:00 BASE 16.97 349 19.24 354 -1.1 95 -1.8 96 0 975.3 NA 0.0000 9999 4660 0 0 0
2019/10/20 19:50:00 BASE 16.83 348 18.83 346 -1.1 95 -1.9 92 0 975.4 NA 0.0000 9999 4560 0 0 0
2019/10/20 19:51:00 BASE 16.33 349 18.83 346 -1.1 94 -1.9 90 0 975.4 NA 0.0000 9999 5610 0 0 0
2019/10/20 19:52:00 BASE 16.43 351 18.98 347 -1.1 94 -2.0 91 0 975.4 NA 0.0000 9999 5180 5680 0 0
2019/10/20 19:53:00 BASE 17.39 351 19.55 353 -1.1 93 -2.1 95 0 975.4 NA 0.0000 9999 4660 5680 0 0
2019/10/20 19:54:00 BASE 16.81 353 19.55 353 -1.1 93 -2.1 99 0 975.4 NA 0.0000 9999 4530 5680 0 0
2019/10/20 19:55:00 BASE 16.15 355 19.55 353 -1.1 92 -2.2 102 0 975.5 NA 0.0000 9999 4690 0 0 0
2019/10/20 19:56:00 BASE 16.97 357 19.91 354 -1.1 92 -2.2 105 0 975.5 NA 0.0000 9999 5090 0 0 0
2019/10/20 19:57:00 BASE 17.13 352 19.91 354 -1.1 91 -2.3 109 0 975.5 NA 0.0000 9999 5320 0 0 0
2019/10/20 19:58:00 BASE 16.59 348 19.91 354 -1.0 91 -2.3 114 0 975.5 NA 0.0000 9999 5090 0 0 0
2019/10/20 19:59:00 BASE 15.87 352 19.91 354 -1.0 91 -2.4 120 0 975.6 NA 0.0000 9999 5350 0 0 0
2019/10/20 20:00:00 BASE 15.22 353 19.91 354 -1.0 90 -2.4 126 0 975.6 NA 0.0000 9999 5320 0 0 0
2019/10/20 20:01:00 BASE 14.95 352 19.91 354 -1.0 90 -2.4 132 0 975.7 NA 0.0000 9999 5380 0 0 0
2019/10/20 20:02:00 BASE 15.28 352 19.91 354 -1.0 90 -2.4 135 0 975.6 NA 0.0000 9999 5220 0 0 0
2019/10/20 20:03:00 BASE 17.56 350 21.25 344 -1.0 90 -2.4 135 0 975.6 NA 0.0000 9999 5180 0 0 0
2019/10/20 20:04:00 BASE 18.27 349 21.25 344 -1.0 90 -2.4 134 0 975.6 NA 0.0000 9999 5320 0 0 0
2019/10/20 20:05:00 BASE 16.49 352 21.25 344 -1.0 90 -2.4 133 0 975.8 NA 0.0000 9999 5350 0 0 0
2019/10/20 20:06:00 BASE 14.81 349 21.25 344 -1.0 90 -2.4 135 0 975.8 NA 0.0000 9999 5540 0 0 0
2019/10/20 20:07:00 BASE 14.88 348 21.25 344 -1.0 90 -2.4 138 0 975.8 NA 0.0000 9999 5510 0 0 0
2019/10/20 20:08:00 BASE 15.57 350 21.25 344 -1.0 90 -2.4 140 0 975.8 NA 0.0000 9999 5580 0 0 0
2019/10/20 20:09:00 BASE 16.22 352 21.25 344 -1.0 90 -2.5 139 0 975.8 NA 0.0000 9999 5540 0 0 0
2019/10/20 20:10:00 BASE 16.39 350 21.25 344 -1.0 90 -2.5 138 0 975.9 NA 0.0000 9999 5580 0 0 0
2019/10/20 20:11:00 BASE 16.65 349 21.25 344 -1.0 89 -2.5 136 0 975.9 NA 0.0000 9999 5580 0 0 0
2019/10/20 20:12:00 BASE 17.86 350 21.25 344 -1.0 89 -2.5 136 0 975.8 NA 0.0000 9999 5610 0 0 0
2019/10/20 20:13:00 BASE 18.20 351 20.94 1 -1.0 89 -2.6 136 0 975.8 NA 0.0000 9999 5610 21880 0 0
2019/10/20 20:14:00 BASE 17.00 353 20.94 1 -1.0 89 -2.5 138 0 975.9 NA 0.0000 9999 5580 8600 0 0
2019/10/20 20:15:00 BASE 16.07 353 20.94 1 -0.9 89 -2.5 142 0 975.9 NA 0.0000 9999 5940 8530 0 0
2019/10/20 20:16:00 BASE 16.05 354 20.94 1 -0.9 89 -2.5 148 0 975.9 NA 0.0000 9999 6040 8560 0 0
2019/10/20 20:17:00 BASE 16.87 353 21.92 343 -0.9 89 -2.6 152 0 975.8 NA 0.0000 9999 6140 8530 0 0
2019/10/20 20:18:00 BASE 18.39 350 21.92 343 -0.9 88 -2.6 154 0 975.8 NA 0.0000 9999 8630 0 0 0
2019/10/20 20:19:00 BASE 17.87 352 21.92 343 -0.9 88 -2.6 156 0 975.9 NA 0.0000 9999 8790 0 0 0
2019/10/20 20:20:00 BASE 17.09 357 21.92 343 -0.9 88 -2.6 161 0 975.9 NA 0.0000 9999 7150 8830 0 0
2019/10/20 20:21:00 BASE 17.28 358 21.92 343 -0.9 88 -2.6 171 0 976.0 NA 0.0000 9999 7220 7610 0 0
2019/10/20 20:22:00 BASE 16.82 356 21.92 343 -0.9 88 -2.6 187 0 976.0 NA 0.0000 9999 7050 0 0 0
2019/10/20 20:23:00 BASE 17.89 355 21.92 343 -0.9 88 -2.6 207 0 975.9 NA 0.0000 9999 7020 0 0 0
2019/10/20 20:24:00 BASE 18.57 353 21.92 343 -0.9 88 -2.6 228 0 976.0 NA 0.0000 9999 6590 0 0 0
2019/10/20 20:25:00 BASE 18.24 354 21.92 343 -0.9 88 -2.6 239 0 975.9 NA 0.0000 9999 6430 0 0 0
2019/10/20 20:26:00 BASE 18.31 352 21.92 343 -0.9 88 -2.7 238 0 976.0 NA 0.0000 9999 6500 0 0 0
2019/10/20 20:27:00 BASE 17.70 349 21.04 354 -0.8 87 -2.7 235 0 976.0 NA 0.0000 9999 6430 0 0 0
2019/10/20 20:28:00 BASE 17.12 349 20.94 354 -0.8 87 -2.7 238 0 976.0 NA 0.0000 9999 6460 0 0 0
2019/10/20 20:29:00 BASE 18.06 348 20.94 354 -0.8 87 -2.7 246 0 976.0 NA 0.0000 9999 6500 0 0 0
2019/10/20 20:30:00 BASE 19.35 351 20.94 354 -0.8 87 -2.7 253 0 976.0 NA 0.0000 9999 6400 0 0 0
2019/10/20 20:31:00 BASE 18.92 356 20.94 354 -0.8 87 -2.7 257 0 976.0 NA 0.0000 9999 6430 6920 0 0
2019/10/20 20:32:00 BASE 18.28 355 20.94 354 -0.7 86 -2.7 257 0 976.0 NA 0.0000 9999 6460 6890 0 0
2019/10/20 20:33:00 BASE 17.85 353 20.68 1 -0.7 86 -2.8 253 0 976.0 NA 0.0000 9999 6460 6960 0 0
2019/10/20 20:34:00 BASE 17.35 350 20.68 1 -0.7 86 -2.8 251 0 976.0 NA 0.0000 9999 6530 6920 0 0
2019/10/20 20:35:00 BASE 17.32 350 20.68 1 -0.7 85 -2.8 252 0 976.0 NA 0.0000 9999 6530 6920 0 0
2019/10/20 20:36:00 BASE 17.99 353 21.04 351 -0.7 85 -2.8 259 0 976.0 NA 0.0000 9999 6500 6920 0 0
2019/10/20 20:37:00 BASE 17.91 350 21.04 351 -0.6 85 -2.9 254 0 976.0 NA 0.0000 9999 6460 6890 19130 0
2019/10/20 20:38:00 BASE 17.63 345 21.04 351 -0.6 85 -2.8 245 0 976.0 NA 0.0000 9999 6960 0 0 0
2019/10/20 20:39:00 BASE 17.98 353 21.04 351 -0.6 85 -2.8 237 0 976.0 NA 0.0000 9999 6500 6860 0 0
2019/10/20 20:40:00 BASE 17.09 352 21.04 351 -0.6 85 -2.8 222 0 976.1 NA 0.0000 9999 6560 6990 0 0
2019/10/20 20:41:00 BASE 16.89 351 21.04 351 -0.6 85 -2.8 203 0 976.1 NA 0.0000 9999 6530 0 0 0
2019/10/20 20:42:00 BASE 18.45 356 21.50 360 -0.6 85 -2.8 195 0 976.0 NA 0.0000 9999 6630 0 0 0
2019/10/20 20:43:00 BASE 18.37 354 21.50 360 -0.6 85 -2.9 196 0 976.1 NA 0.0000 9999 6920 7420 0 0
2019/10/20 20:44:00 BASE 17.17 350 21.50 360 -0.7 85 -2.9 193 0 976.2 NA 0.0000 9999 6630 0 0 0
2019/10/20 20:45:00 BASE 17.53 353 21.50 360 -0.7 85 -2.9 181 0 976.2 NA 0.0000 9999 6760 0 0 0
2019/10/20 20:46:00 BASE 17.43 354 21.50 360 -0.7 85 -2.9 169 0 976.3 NA 0.0000 9999 6690 0 0 0
2019/10/20 20:47:00 BASE 17.49 350 21.50 360 -0.7 85 -2.9 166 0 976.2 NA 0.0000 9999 6760 0 0 0
2019/10/20 20:48:00 BASE 17.85 350 21.50 360 -0.7 85 -2.9 173 0 976.3 NA 0.0000 9999 6790 0 0 0
2019/10/20 20:49:00 BASE 18.50 351 21.50 360 -0.7 85 -2.9 183 0 976.3 NA 0.0000 9999 6860 0 0 0
2019/10/20 20:50:00 BASE 19.20 348 21.50 360 -0.7 85 -2.9 194 0 976.3 NA 0.0000 9999 6860 0 0 0
2019/10/20 20:51:00 BASE 17.97 347 21.50 360 -0.7 85 -2.9 203 0 976.4 NA 0.0000 9999 6820 0 0 0
2019/10/20 20:52:00 BASE 16.46 347 20.73 349 -0.7 85 -2.9 205 0 976.5 NA 0.0000 9999 6790 0 0 0
2019/10/20 20:53:00 BASE 15.82 348 20.73 349 -0.7 85 -2.9 201 0 976.5 NA 0.0000 9999 6790 0 0 0
2019/10/20 20:54:00 BASE 15.84 352 20.73 349 -0.7 85 -2.9 195 0 976.5 NA 0.0000 9999 6790 0 0 0
2019/10/20 20:55:00 BASE 16.91 355 21.14 352 -0.7 85 -2.8 195 0 976.4 NA 0.0000 9999 6790 0 0 0
2019/10/20 20:56:00 BASE 18.27 352 21.14 352 -0.7 86 -2.8 198 0 976.4 NA 0.0000 9999 6820 0 0 0
2019/10/20 20:57:00 BASE 18.31 350 21.40 348 -0.7 86 -2.8 202 0 976.4 NA 0.0000 9999 6890 0 0 0
2019/10/20 20:58:00 BASE 17.44 350 21.40 348 -0.7 86 -2.8 203 0 976.6 NA 0.0000 9999 6890 0 0 0
2019/10/20 20:59:00 BASE 16.79 349 21.40 348 -0.7 86 -2.8 199 0 976.6 NA 0.0000 9999 6860 0 0 0
2019/10/20 21:00:00 BASE 17.09 348 21.40 348 -0.7 85 -2.8 192 0 976.6 NA 0.0000 9999 6820 0 0 0
2019/10/20 21:01:00 BASE 16.77 348 21.40 348 -0.6 85 -2.8 186 0 976.7 NA 0.0000 9999 6820 8690 0 0
2019/10/20 21:02:00 BASE 16.46 345 21.40 348 -0.6 85 -2.8 179 0 976.7 NA 0.0000 9999 6890 0 0 0
2019/10/20 21:03:00 BASE 17.62 344 21.40 348 -0.6 85 -2.9 182 0 976.6 NA 0.0000 9999 6890 8690 0 0
2019/10/20 21:04:00 BASE 18.13 349 21.40 348 -0.7 85 -2.9 177 0 976.7 NA 0.0000 9999 6890 8630 0 0
2019/10/20 21:05:00 BASE 16.97 352 21.40 348 -0.7 85 -2.9 174 0 976.8 NA 0.0000 9999 7020 8600 0 0
2019/10/20 21:06:00 BASE 16.69 353 21.40 348 -0.7 85 -2.9 177 0 976.7 NA 0.0000 9999 7090 8690 0 0
2019/10/20 21:07:00 BASE 17.26 352 20.11 349 -0.7 85 -2.9 185 0 976.8 NA 0.0000 9999 7090 8660 0 0
2019/10/20 21:08:00 BASE 16.78 351 20.01 352 -0.7 85 -2.9 197 0 976.8 NA 0.0000 9999 8660 0 0 0
2019/10/20 21:09:00 BASE 16.83 351 20.01 352 -0.6 84 -2.9 194 0 976.8 NA 0.0000 9999 8630 0 0 0
2019/10/20 21:10:00 BASE 17.53 351 20.01 352 -0.6 84 -3.0 210 0 976.9 NA 0.0000 9999 7120 8630 0 0
2019/10/20 21:11:00 BASE 17.85 352 20.01 352 -0.6 84 -3.0 212 0 976.9 NA 0.0000 9999 8630 0 0 0
2019/10/20 21:12:00 BASE 18.24 352 20.01 351 -0.6 84 -3.0 205 0 976.9 NA 0.0000 9999 8460 0 0 0
2019/10/20 21:13:00 BASE 18.50 350 20.01 351 -0.6 84 -3.0 197 0 976.9 NA 0.0000 9999 8560 0 0 0
2019/10/20 21:14:00 BASE 17.69 346 20.01 351 -0.6 84 -3.0 198 0 977.0 NA 0.0000 9999 8560 0 0 0
2019/10/20 21:15:00 BASE 16.95 345 20.01 351 -0.6 84 -3.0 200 0 977.0 NA 0.0000 9999 8630 0 0 0
2019/10/20 21:16:00 BASE 16.63 346 20.01 351 -0.6 83 -3.0 184 0 977.1 NA 0.0000 9999 8600 0 0 0
2019/10/20 21:17:00 BASE 16.52 347 20.01 351 -0.6 83 -3.0 159 0 977.1 NA 0.0000 9999 8630 0 0 0
2019/10/20 21:18:00 BASE 17.46 350 20.01 351 -0.6 83 -3.0 140 0 977.1 NA 0.0000 9999 8660 0 0 0
2019/10/20 21:19:00 BASE 17.56 350 20.01 351 -0.6 84 -3.0 129 0 977.1 NA 0.0000 9999 8630 0 0 0
2019/10/20 21:20:00 BASE 17.39 349 20.01 351 -0.6 84 -3.0 126 0 977.0 NA 0.0000 9999 8560 0 0 0
2019/10/20 21:21:00 BASE 17.68 350 20.01 351 -0.6 84 -3.0 139 0 977.1 NA 0.0000 9999 8630 0 0 0
2019/10/20 21:22:00 BASE 16.99 349 19.55 349 -0.6 83 -3.1 147 0 977.2 NA 0.0000 9999 8600 0 0 0
2019/10/20 21:23:00 BASE 16.98 352 19.55 3 -0.6 83 -3.1 117 0 977.1 NA 0.0000 9999 8630 0 0 0
2019/10/20 21:24:00 BASE 17.26 353 19.55 3 -0.6 83 -3.1 124 0 977.2 NA 0.0000 9999 8660 0 0 0
2019/10/20 21:25:00 BASE 16.82 352 19.70 354 -0.6 83 -3.1 113 0 977.2 NA 0.0000 9999 8730 0 0 0
2019/10/20 21:26:00 BASE 18.30 352 21.81 343 -0.6 83 -3.2 106 0 977.2 NA 0.0000 9999 8690 0 0 0
2019/10/20 21:27:00 BASE 18.88 349 21.81 343 -0.6 83 -3.2 106 0 977.3 NA 0.0000 9999 8690 0 0 0
2019/10/20 21:28:00 BASE 18.21 348 21.81 343 -0.6 83 -3.2 99 0 977.2 NA 0.0000 9999 8760 0 0 0
2019/10/20 21:29:00 BASE 18.01 343 21.81 343 -0.6 83 -3.2 94 0 977.3 NA 0.0000 9999 8760 0 0 0
2019/10/20 21:30:00 BASE 18.06 345 21.81 343 -0.6 82 -3.3 91 0 977.2 NA 0.0000 9999 8830 0 0 0
2019/10/20 21:31:00 BASE 18.53 350 21.81 343 -0.6 82 -3.3 89 0 977.3 NA 0.0000 9999 8860 0 0 0
2019/10/20 21:32:00 BASE 18.15 349 21.81 343 -0.6 82 -3.3 88 0 977.3 NA 0.0000 9999 0 0 0 0
2019/10/20 21:33:00 BASE 17.77 350 21.81 343 -0.6 82 -3.4 86 0 977.3 NA 0.0000 9999 0 0 0 0
2019/10/20 21:34:00 BASE 17.62 350 21.81 343 -0.6 81 -3.4 83 0 977.3 NA 0.0000 9999 8990 0 0 0
2019/10/20 21:35:00 BASE 17.17 348 21.81 343 -0.7 81 -3.5 82 0 977.3 NA 0.0000 9999 8960 0 0 0
2019/10/20 21:36:00 BASE 16.55 347 20.73 347 -0.7 81 -3.5 81 0 977.3 NA 0.0000 9999 0 0 0 0
2019/10/20 21:37:00 BASE 16.05 346 20.73 347 -0.7 81 -3.5 82 0 977.3 NA 0.0000 9999 0 0 0 0
2019/10/20 21:38:00 BASE 14.83 349 20.73 347 -0.7 81 -3.5 82 0 977.3 NA 0.0000 9999 0 0 0 0
2019/10/20 21:39:00 BASE 15.28 352 20.73 347 -0.7 81 -3.5 84 0 977.3 NA 0.0000 9999 12570 0 0 0
2019/10/20 21:40:00 BASE 16.67 351 20.73 347 -0.7 81 -3.5 86 0 977.3 NA 0.0000 9999 0 0 0 0
2019/10/20 21:41:00 BASE 16.05 350 20.73 347 -0.7 81 -3.6 87 0 977.3 NA 0.0000 9999 11840 0 0 0
2019/10/20 21:42:00 BASE 14.85 349 20.73 347 -0.7 81 -3.6 87 0 977.3 NA 0.0000 9999 0 0 0 0
2019/10/20 21:43:00 BASE 15.72 349 20.73 347 -0.7 81 -3.6 87 0 977.3 NA 0.0000 9999 0 0 0 0
2019/10/20 21:44:00 BASE 16.86 352 19.60 349 -0.7 81 -3.6 87 0 977.2 NA 0.0000 9999 0 0 0 0
2019/10/20 21:45:00 BASE 16.45 352 19.60 349 -0.7 80 -3.7 89 0 977.3 NA 0.0000 9999 0 0 0 0
2019/10/20 21:46:00 BASE 17.01 352 19.70 315 -0.6 80 -3.7 91 0 977.2 NA 0.0000 9999 15030 22210 0 0
2019/10/20 21:47:00 BASE 17.63 358 19.70 315 -0.6 79 -3.8 92 0 977.2 NA 0.0000 9999 12140 0 0 0
2019/10/20 21:48:00 BASE 17.41 0 19.70 315 -0.6 79 -3.8 92 0 977.2 NA 0.0000 9999 11650 0 0 0
2019/10/20 21:49:00 BASE 17.33 1 19.70 315 -0.6 79 -3.9 92 0 977.2 NA 0.0000 9999 0 0 0 0
2019/10/20 21:50:00 BASE 18.14 1 21.97 1 -0.7 79 -3.9 91 0 977.2 NA 0.0000 9999 0 0 0 0
2019/10/20 21:51:00 BASE 18.50 359 21.97 1 -0.7 79 -3.9 92 0 977.2 NA 0.0000 9999 0 0 0 0
2019/10/20 21:52:00 BASE 17.05 359 21.97 1 -0.7 79 -3.9 94 0 977.3 NA 0.0000 9999 5640 0 0 0
2019/10/20 21:53:00 BASE 16.57 358 21.97 1 -0.7 79 -3.8 98 0 977.3 NA 0.0000 9999 5540 0 0 0
2019/10/20 21:54:00 BASE 16.30 1 21.97 1 -0.7 79 -3.8 102 0 977.4 NA 0.0000 9999 5680 0 0 0
2019/10/20 21:55:00 BASE 15.73 6 21.97 1 -0.7 79 -3.9 108 0 977.3 NA 0.0000 9999 5710 0 0 0
2019/10/20 21:56:00 BASE 16.55 3 21.97 1 -0.7 79 -3.9 114 0 977.3 NA 0.0000 9999 5610 0 0 0
2019/10/20 21:57:00 BASE 18.01 4 21.97 1 -0.7 79 -3.9 120 0 977.2 NA 0.0000 9999 5580 0 0 0
2019/10/20 21:58:00 BASE 18.67 8 21.97 1 -0.8 79 -3.9 126 0 977.2 NA 0.0000 9999 5770 0 0 0
2019/10/20 21:59:00 BASE 18.98 9 21.97 1 -0.8 80 -3.9 129 0 977.2 NA 0.0000 9999 5580 0 0 0
2019/10/20 22:00:00 BASE 19.37 8 20.94 4 -0.8 80 -3.9 132 0 977.2 NA 0.0000 9999 5680 0 0 0
2019/10/20 22:01:00 BASE 19.01 7 20.94 4 -0.8 80 -3.8 134 0 977.2 NA 0.0000 9999 5680 0 0 0
2019/10/20 22:02:00 BASE 19.52 8 22.02 2 -0.8 80 -3.8 133 0 977.2 NA 0.0000 9999 5770 0 0 0
2019/10/20 22:03:00 BASE 20.41 9 22.38 8 -0.8 80 -3.8 129 0 977.2 NA 0.0000 9999 5320 5740 0 0
2019/10/20 22:04:00 BASE 20.22 8 22.38 8 -0.8 80 -3.7 122 0 977.3 NA 0.0000 9999 5320 5840 0 0
2019/10/20 22:05:00 BASE 20.01 8 22.38 8 -0.8 81 -3.7 115 0 977.3 NA 0.0000 9999 5810 0 0 0
2019/10/20 22:06:00 BASE 20.33 8 22.38 8 -0.8 81 -3.7 107 0 977.3 NA 0.0000 9999 5810 0 0 0
2019/10/20 22:07:00 BASE 20.31 7 22.38 8 -0.8 81 -3.6 100 0 977.3 NA 0.0000 9999 5870 0 0 0
2019/10/20 22:08:00 BASE 19.30 9 22.38 8 -0.8 81 -3.6 93 0 977.4 NA 0.0000 9999 5870 0 0 0
2019/10/20 22:09:00 BASE 19.11 10 22.38 8 -0.8 81 -3.7 86 0 977.3 NA 0.0000 9999 5870 0 0 0
2019/10/20 22:10:00 BASE 19.52 9 22.38 8 -0.8 81 -3.6 80 0 977.3 NA 0.0000 9999 5910 0 0 0
2019/10/20 22:11:00 BASE 19.21 8 22.38 8 -0.8 81 -3.6 74 0 977.4 NA 0.0000 9999 5910 0 0 0
2019/10/20 22:12:00 BASE 18.88 10 22.38 8 -0.8 82 -3.6 68 0 977.4 NA 0.0000 9999 5840 0 0 0
2019/10/20 22:13:00 BASE 18.72 10 21.71 10 -0.8 82 -3.5 62 0 977.3 NA 0.0000 9999 5970 0 0 0
2019/10/20 22:14:00 BASE 19.57 10 22.58 9 -0.8 82 -3.5 54 0 977.3 NA 0.0000 9999 4490 5870 6370 0
2019/10/20 22:15:00 BASE 20.58 8 22.58 9 -0.8 82 -3.5 45 0 977.3 NA 0.0000 9999 4430 5940 0 0
2019/10/20 22:16:00 BASE 20.22 8 22.58 9 -0.8 82 -3.5 40 0 977.3 NA 0.0000 9999 4330 5910 0 0
2019/10/20 22:17:00 BASE 19.80 10 22.58 9 -0.8 82 -3.5 34 0 977.3 NA 0.0000 9999 5910 0 0 0
2019/10/20 22:18:00 BASE 19.33 9 22.58 9 -0.8 82 -3.5 28 0 977.3 NA 0.0000 9999 5940 0 0 0
2019/10/20 22:19:00 BASE 19.58 9 22.58 9 -0.8 82 -3.5 24 0 977.3 NA 0.0000 9999 5910 0 0 0
2019/10/20 22:20:00 BASE 19.81 10 22.58 9 -0.8 82 -3.6 22 0 977.3 NA 0.0000 9999 5940 0 0 0
2019/10/20 22:21:00 BASE 19.16 10 22.58 9 -0.9 82 -3.6 21 0 977.3 NA 0.0000 9999 5970 0 0 0
2019/10/20 22:22:00 BASE 19.07 10 22.58 9 -0.9 82 -3.6 20 0 977.3 NA 0.0000 9999 6000 0 0 0
2019/10/20 22:23:00 BASE 19.48 10 22.58 9 -0.9 82 -3.6 21 0 977.3 NA 0.0000 9999 6000 0 0 0
2019/10/20 22:24:00 BASE 20.02 9 22.48 4 -0.9 82 -3.6 23 0 977.3 NA 0.0000 9999 4630 0 0 0
2019/10/20 22:25:00 BASE 19.50 11 21.92 13 -0.9 82 -3.6 26 0 977.3 NA 0.0000 9999 4720 0 0 0
2019/10/20 22:26:00 BASE 19.29 11 21.92 13 -0.8 82 -3.5 28 0 977.3 NA 0.0000 9999 4690 5120 0 0
2019/10/20 22:27:00 BASE 19.50 11 21.92 13 -0.8 82 -3.5 31 0 977.3 NA 0.0000 9999 4660 5970 0 0
2019/10/20 22:28:00 BASE 19.68 10 22.53 10 -0.8 82 -3.5 33 0 977.2 NA 0.0000 9999 4690 0 0 0
2019/10/20 22:29:00 BASE 19.88 9 22.53 10 -0.7 81 -3.5 34 0 977.3 NA 0.0000 9999 4690 0 0 0
2019/10/20 22:30:00 BASE 20.28 10 22.53 10 -0.7 81 -3.5 36 0 977.2 NA 0.0000 9999 4720 0 0 0
2019/10/20 22:31:00 BASE 20.52 9 22.53 10 -0.6 81 -3.6 36 0 977.3 NA 0.0000 9999 4200 5350 0 0
2019/10/20 22:32:00 BASE 19.78 10 22.53 10 -0.6 80 -3.6 37 0 977.3 NA 0.0000 9999 5320 0 0 0
2019/10/20 22:33:00 BASE 19.48 13 22.53 10 -0.6 80 -3.6 38 0 977.3 NA 0.0000 9999 4860 0 0 0
2019/10/20 22:34:00 BASE 19.36 13 22.53 10 -0.6 80 -3.7 38 0 977.3 NA 0.0000 9999 4330 0 0 0
2019/10/20 22:35:00 BASE 19.54 13 22.53 10 -0.7 80 -3.7 37 0 977.2 NA 0.0000 9999 4300 4950 0 0
2019/10/20 22:36:00 BASE 20.18 11 22.53 10 -0.7 80 -3.7 36 0 977.3 NA 0.0000 9999 4360 0 0 0
2019/10/20 22:37:00 BASE 20.21 11 22.53 10 -0.7 80 -3.7 35 0 977.3 NA 0.0000 9999 4430 6300 0 0
2019/10/20 22:38:00 BASE 20.03 12 22.94 12 -0.7 81 -3.7 33 0 977.3 NA 0.0000 9999 4460 0 0 0
2019/10/20 22:39:00 BASE 20.62 12 22.94 12 -0.8 81 -3.6 31 0 977.2 NA 0.0000 9999 4590 6330 0 0
2019/10/20 22:40:00 BASE 20.91 12 23.25 15 -0.8 81 -3.5 29 0 977.3 NA 0.0000 9999 4530 6400 0 0
2019/10/20 22:41:00 BASE 21.05 14 23.25 15 -0.8 82 -3.5 27 0 977.3 NA 0.0000 9999 4860 6230 0 0
2019/10/20 22:42:00 BASE 21.67 14 23.72 13 -0.7 82 -3.5 25 0 977.2 NA 0.0000 9999 4460 0 0 0
2019/10/20 22:43:00 BASE 22.09 12 24.02 9 -0.7 82 -3.4 23 0 977.2 NA 0.0000 9999 4430 6270 0 0
2019/10/20 22:44:00 BASE 21.86 13 24.02 9 -0.7 82 -3.4 22 0 977.2 NA 0.0000 9999 4200 0 0 0
2019/10/20 22:45:00 BASE 21.47 14 24.02 9 -0.7 82 -3.4 22 0 977.2 NA 0.0000 9999 4070 5840 0 0
2019/10/20 22:46:01 BASE 21.23 13 24.02 9 -0.7 82 -3.5 22 0 977.3 NA 0.0000 9999 4760 6100 0 0
2019/10/20 22:47:00 BASE 21.60 14 24.02 9 -0.7 82 -3.5 23 0 977.2 NA 0.0000 9999 4070 0 0 0
2019/10/20 22:48:00 BASE 22.31 16 24.02 9 -0.7 82 -3.5 24 0 977.2 NA 0.0000 9999 4490 5250 0 0
2019/10/20 22:49:00 BASE 22.21 16 24.02 9 -0.7 82 -3.5 26 0 977.2 NA 0.0000 9999 4760 6460 0 0
2019/10/20 22:50:00 BASE 21.63 16 24.02 9 -0.7 82 -3.4 27 0 977.2 NA 0.0000 9999 4720 6400 0 0
2019/10/20 22:51:00 BASE 21.70 16 24.02 9 -0.7 82 -3.4 28 0 977.1 NA 0.0000 9999 4950 6500 0 0
2019/10/20 22:52:00 BASE 22.15 17 24.02 9 -0.7 82 -3.4 29 0 977.1 NA 0.0000 9999 6660 0 0 0
2019/10/20 22:53:00 BASE 22.25 18 24.64 19 -0.7 82 -3.4 28 0 977.1 NA 0.0000 9999 6590 0 0 0
2019/10/20 22:54:00 BASE 23.03 18 24.90 18 -0.8 82 -3.4 28 0 977.1 NA 0.0000 9999 6400 0 0 0
2019/10/20 22:55:00 BASE 23.19 18 24.90 18 -0.8 82 -3.5 28 0 977.1 NA 0.0000 9999 6400 0 0 0
2019/10/20 22:56:00 BASE 22.87 18 25.10 16 -0.8 82 -3.5 28 0 977.1 NA 0.0000 9999 6400 0 0 0
2019/10/20 22:57:00 BASE 23.10 18 25.10 16 -0.8 82 -3.5 28 0 977.1 NA 0.0000 9999 6370 0 0 0
2019/10/20 22:58:00 BASE 23.79 18 25.57 18 -0.7 82 -3.4 28 0 977.1 NA 0.0000 9999 6400 0 0 0
2019/10/20 22:59:00 BASE 23.81 19 25.57 18 -0.7 82 -3.4 27 0 977.1 NA 0.0000 9999 6330 0 0 0
2019/10/20 23:00:00 BASE 23.10 19 25.57 18 -0.7 82 -3.4 26 0 977.1 NA 0.0000 9999 6270 0 0 0
2019/10/20 23:01:00 BASE 22.83 18 25.57 18 -0.7 82 -3.4 26 0 977.1 NA 0.0000 9999 6500 0 0 0
2019/10/20 23:02:00 BASE 23.25 18 25.57 18 -0.7 82 -3.4 26 0 977.1 NA 0.0000 9999 6370 0 0 0
2019/10/20 23:03:00 BASE 23.52 19 25.57 18 -0.7 82 -3.4 25 0 977.1 NA 0.0000 9999 6270 0 0 0
2019/10/20 23:04:00 BASE 23.07 18 25.57 18 -0.7 82 -3.4 22 0 977.1 NA 0.0000 9999 6170 0 0 0
2019/10/20 23:05:00 BASE 24.47 18 27.78 19 -0.7 82 -3.4 19 0 977.0 NA 0.0000 9999 6100 0 0 0
2019/10/20 23:06:01 BASE 24.69 19 27.78 19 -0.7 82 -3.4 15 0 977.1 NA 0.0000 9999 6040 0 0 0
2019/10/20 23:07:00 BASE 23.80 18 27.78 19 -0.6 82 -3.3 12 0 977.1 NA 0.0000 9999 6100 0 0 0
2019/10/20 23:08:00 BASE 24.17 17 27.78 19 -0.6 82 -3.3 10 0 977.1 NA 0.0000 9999 6170 0 0 0
2019/10/20 23:09:00 BASE 23.81 17 27.78 19 -0.6 82 -3.3 9 0 977.1 NA 0.0000 9999 6760 0 0 0
2019/10/20 23:10:00 BASE 24.05 18 27.78 19 -0.6 82 -3.3 8 0 977.1 NA 0.0000 9999 6270 0 0 0
2019/10/20 23:11:00 BASE 24.53 19 27.78 19 -0.5 82 -3.2 8 0 977.0 NA 0.0000 9999 6270 0 0 0
2019/10/20 23:12:00 BASE 24.14 18 27.78 19 -0.5 82 -3.2 7 0 977.1 NA 0.0000 9999 5810 0 0 0
2019/10/20 23:13:00 BASE 23.70 16 27.78 19 -0.5 82 -3.2 7 0 977.1 NA 0.0000 9999 5840 0 0 0
2019/10/20 23:14:00 BASE 24.19 17 27.78 19 -0.5 82 -3.2 7 0 977.1 NA 0.0000 9999 5770 0 0 0
2019/10/20 23:15:00 BASE 25.06 20 27.63 25 -0.5 82 -3.2 6 0 977.1 NA 0.0000 9999 0 0 0 6660
2019/10/20 23:16:00 BASE 24.31 18 27.63 25 -0.5 82 -3.1 6 0 977.1 NA 0.0000 9999 0 0 0 5740
2019/10/20 23:17:00 BASE 23.83 17 27.63 25 -0.5 82 -3.1 6 0 977.2 NA 0.0000 9999 0 0 0 6660
2019/10/20 23:18:00 BASE 23.83 17 27.63 25 -0.4 82 -3.1 5 0 977.2 NA 0.0000 9999 0 0 0 5610
2019/10/20 23:19:00 BASE 23.75 16 27.63 25 -0.4 82 -3.1 5 0 977.2 NA 0.0000 9999 0 0 0 3810
2019/10/20 23:20:00 BASE 24.24 15 27.63 25 -0.4 82 -3.1 5 0 977.2 NA 0.0000 9999 0 0 0 3770
2019/10/20 23:21:00 BASE 23.84 13 27.63 25 -0.4 82 -3.1 5 0 977.3 NA 0.0000 9999 0 0 0 4760
2019/10/20 23:22:00 BASE 23.34 16 27.63 25 -0.4 82 -3.1 5 0 977.3 NA 0.0000 9999 0 0 0 5740
2019/10/20 23:23:00 BASE 23.51 17 27.63 25 -0.4 82 -3.1 5 0 977.3 NA 0.0000 9999 0 0 0 4530
2019/10/20 23:24:00 BASE 24.01 17 26.44 14 -0.4 82 -3.0 4 0 977.3 NA 0.0000 9999 0 0 0 6460
2019/10/20 23:25:00 BASE 25.12 18 27.37 24 -0.4 82 -3.0 4 0 977.3 NA 0.0000 UP 9999 0 0 0 5740
2019/10/20 23:26:00 BASE 25.87 20 27.42 21 -0.4 83 -3.0 4 0 977.3 NA 0.0000 UP 9999 4070 0 0 0
2019/10/20 23:27:00 BASE 25.58 21 27.42 21 -0.4 83 -3.0 4 0 977.4 NA 0.0000 UP 9999 0 0 0 6590
2019/10/20 23:28:00 BASE 25.12 22 27.42 21 -0.4 83 -2.9 3 0 977.4 NA 0.0000 UP 9999 6430 0 0 0
2019/10/20 23:29:00 BASE 25.03 21 27.42 21 -0.5 83 -2.9 3 0 977.3 NA 0.0000 UP 9999 0 0 0 6460
2019/10/20 23:30:00 BASE 24.98 22 27.42 21 -0.5 84 -2.9 3 0 977.4 NA 0.0000 UP 9999 6300 0 0 0
2019/10/20 23:31:00 BASE 25.66 22 28.55 21 -0.5 84 -2.9 3 0 977.3 NA 0.0000 UP 9999 6070 0 0 0
2019/10/20 23:32:00 BASE 26.39 22 28.55 21 -0.5 84 -2.9 3 0 977.3 NA 0.0000 UP 9999 0 0 0 6330
2019/10/20 23:33:00 BASE 25.57 22 28.55 21 -0.5 84 -2.8 3 0 977.3 NA 0.0000 UP 9999 6140 0 0 0
2019/10/20 23:34:00 BASE 24.84 22 28.55 21 -0.5 84 -2.8 3 0 977.4 NA 0.0000 UP 9999 0 0 0 6530
2019/10/20 23:35:00 BASE 25.09 22 28.55 21 -0.4 84 -2.8 2 0 977.3 NA 0.0000 UP 9999 6230 0 0 0
2019/10/20 23:36:00 BASE 25.28 21 28.55 21 -0.4 84 -2.8 2 0 977.3 NA 0.0000 UP 9999 0 0 0 6500
2019/10/20 23:37:00 BASE 25.44 22 28.55 21 -0.4 84 -2.8 2 0 977.3 NA 0.0000 UP 9999 0 0 0 6590
2019/10/20 23:38:00 BASE 25.84 21 28.55 21 -0.4 84 -2.8 2 0 977.3 NA 0.0000 UP 9999 0 0 0 490
2019/10/20 23:39:00 BASE 25.34 21 28.55 21 -0.4 84 -2.8 2 0 977.4 NA 0.0000 UP 9999 0 0 0 980
2019/10/20 23:40:00 BASE 25.44 21 28.55 21 -0.4 84 -2.7 2 0 977.4 NA 0.0000 UP 9999 0 0 0 5610
2019/10/20 23:41:00 BASE 26.43 21 28.35 21 -0.3 84 -2.7 2 0 977.4 NA 0.0000 UP 9999 0 0 0 5480
2019/10/20 23:42:00 BASE 25.32 20 28.35 21 -0.3 84 -2.7 2 0 977.5 NA 0.0000 9999 0 0 0 5810
2019/10/20 23:43:00 BASE 24.32 20 28.35 21 -0.3 84 -2.7 2 0 977.5 NA 0.0000 9999 0 0 0 6230
2019/10/20 23:44:00 BASE 25.74 21 29.32 20 -0.3 84 -2.7 1 0 977.4 NA 0.0000 9999 0 0 0 6140
2019/10/20 23:45:00 BASE 26.82 21 29.32 20 -0.3 84 -2.7 1 0 977.4 NA 0.0000 9999 0 0 0 6070
2019/10/20 23:46:00 BASE 26.26 20 29.32 20 -0.3 84 -2.6 1 0 977.5 NA 0.0000 9999 0 0 0 6100
2019/10/20 23:47:00 BASE 25.79 19 29.32 20 -0.2 84 -2.7 1 0 977.6 NA 0.0000 UP 9999 0 0 0 6200
2019/10/20 23:48:00 BASE 25.28 20 29.32 20 -0.2 84 -2.7 1 0 977.6 NA 0.0000 UP 9999 0 0 0 4170
2019/10/20 23:49:00 BASE 25.21 19 29.32 20 -0.2 84 -2.7 1 0 977.5 NA 0.0000 UP 9999 0 0 0 5580
2019/10/20 23:50:00 BASE 25.83 19 29.32 20 -0.2 84 -2.7 1 0 977.6 NA 0.0000 UP 9999 0 0 0 6070
2019/10/20 23:51:00 BASE 25.35 19 29.32 20 -0.3 84 -2.7 1 0 977.6 NA 0.0000 UP 9999 0 0 0 5740
2019/10/20 23:52:00 BASE 25.06 18 29.32 20 -0.3 84 -2.7 1 0 977.6 NA 0.0000 UP 9999 0 0 0 4330
2019/10/20 23:53:00 BASE 26.39 18 29.32 20 -0.3 84 -2.7 1 0 977.5 NA 0.0000 UP 9999 0 0 0 5220
2019/10/20 23:54:00 BASE 26.80 18 28.91 23 -0.3 84 -2.6 1 0 977.5 NA 0.0000 UP 9999 0 0 0 5220
2019/10/20 23:55:00 BASE 26.33 18 29.94 12 -0.3 84 -2.6 1 0 977.5 NA 0.0000 UP 9999 0 0 0 5120
2019/10/20 23:56:00 BASE 25.95 16 29.94 12 -0.3 85 -2.5 1 0 977.6 NA 0.0000 UP 9999 0 0 0 3610
2019/10/20 23:57:00 BASE 24.69 15 29.94 12 -0.3 85 -2.5 0 0 977.7 NA 0.0000 UP 9999 0 0 0 3380
2019/10/20 23:58:00 BASE 23.52 14 29.94 12 -0.3 86 -2.4 0 0 977.7 NA 0.0000 UP 9999 0 0 0 3380
2019/10/20 23:59:00 BASE 22.88 15 29.94 12 -0.3 86 -2.3 0 0 977.8 NA 0.0000 UP 9999 0 0 0 4560